<?xml version="1.0" encoding="UTF-8" standalone="no" ?>
<gpx xmlns="http://www.topografix.com/GPX/1/1" xmlns:xsi="http://www.w3.org/2001/XMLSchema-instance" xsi:schemaLocation="http://www.topografix.com/GPX/1/1 http://www.topografix.com/GPX/1/1/gpx.xsd" version="1.1" creator="VisuGPX - https://www.visugpx.com">
  <metadata>
    <name>GR4 De Rougon (Alpes de Haute-Provence) à Grasse (Alpes-Maritimes) (2019)</name>
    <desc><![CDATA[Randonnée avec le GR4 à travers les Alpes de Haute-Provence et les Alpes Maritimes de Rougon à Grasse. Gîtes d'étapes, Chambres d'hôtes, Hôtels, Camping, Refuges, Auberges.

Randonnée avec le GR4 à travers les Alpes de Haute-Provence et les Alpes Maritimes de Rougon à Grasse. Gîtes d'étapes, Chambres d'hôtes, Hôtels, Camping, Refuges, Auberges.]]></desc>
  </metadata>
  <trk>
    <name><![CDATA[GR4 De Rougon (Alpes de Haute-Provence) à Grasse (Alpes-Maritimes) (2019)]]></name>
    <cmt><![CDATA[Randonnée avec le GR4 à travers les Alpes de Haute-Provence et les Alpes Maritimes de Rougon à Grasse. Gîtes d'étapes, Chambres d'hôtes, Hôtels, Camping, Refuges, Auberges.]]></cmt>
    <desc><![CDATA[Randonnée avec le GR4 à travers les Alpes de Haute-Provence et les Alpes Maritimes de Rougon à Grasse. Gîtes d'étapes, Chambres d'hôtes, Hôtels, Camping, Refuges, Auberges.]]></desc>
    <trkseg>
      <trkpt lat="43.94896" lon="6.81015">
        <ele>487.593</ele>
        <time>2017-03-25T17:33:44Z</time>
      </trkpt>
      <trkpt lat="43.94865" lon="6.81072">
        <ele>482.461</ele>
        <time>2017-03-25T17:34:04Z</time>
      </trkpt>
      <trkpt lat="43.94819" lon="6.8109">
        <ele>476.792</ele>
        <time>2017-03-25T17:34:24Z</time>
      </trkpt>
      <trkpt lat="43.94813" lon="6.81125">
        <ele>483.073</ele>
        <time>2017-03-25T17:34:44Z</time>
      </trkpt>
      <trkpt lat="43.9482" lon="6.81145">
        <ele>485.52</ele>
        <time>2017-03-25T17:35:04Z</time>
      </trkpt>
      <trkpt lat="43.94819" lon="6.81231">
        <ele>496.908</ele>
        <time>2017-03-25T17:35:24Z</time>
      </trkpt>
      <trkpt lat="43.94808" lon="6.81231">
        <ele>499.682</ele>
        <time>2017-03-25T17:35:44Z</time>
      </trkpt>
      <trkpt lat="43.94767" lon="6.81128">
        <ele>497.315</ele>
        <time>2017-03-25T17:36:04Z</time>
      </trkpt>
      <trkpt lat="43.94746" lon="6.81221">
        <ele>511.693</ele>
        <time>2017-03-25T17:36:24Z</time>
      </trkpt>
      <trkpt lat="43.94725" lon="6.81234">
        <ele>517.683</ele>
        <time>2017-03-25T17:36:44Z</time>
      </trkpt>
      <trkpt lat="43.94706" lon="6.81263">
        <ele>526.483</ele>
        <time>2017-03-25T17:37:04Z</time>
      </trkpt>
      <trkpt lat="43.94673" lon="6.81234">
        <ele>530.477</ele>
        <time>2017-03-25T17:37:24Z</time>
      </trkpt>
      <trkpt lat="43.94618" lon="6.81251">
        <ele>548.056</ele>
        <time>2017-03-25T17:37:44Z</time>
      </trkpt>
      <trkpt lat="43.94574" lon="6.81237">
        <ele>551.644</ele>
        <time>2017-03-25T17:38:04Z</time>
      </trkpt>
      <trkpt lat="43.94551" lon="6.81237">
        <ele>555.615</ele>
        <time>2017-03-25T17:38:24Z</time>
      </trkpt>
      <trkpt lat="43.94503" lon="6.81283">
        <ele>569.465</ele>
        <time>2017-03-25T17:38:44Z</time>
      </trkpt>
      <trkpt lat="43.94495" lon="6.81306">
        <ele>573.211</ele>
        <time>2017-03-25T17:39:04Z</time>
      </trkpt>
      <trkpt lat="43.94481" lon="6.81265">
        <ele>578.908</ele>
        <time>2017-03-25T17:39:24Z</time>
      </trkpt>
      <trkpt lat="43.94457" lon="6.81363">
        <ele>588.394</ele>
        <time>2017-03-25T17:39:44Z</time>
      </trkpt>
      <trkpt lat="43.94433" lon="6.81402">
        <ele>590.767</ele>
        <time>2017-03-25T17:40:04Z</time>
      </trkpt>
      <trkpt lat="43.94416" lon="6.8142">
        <ele>592.745</ele>
        <time>2017-03-25T17:40:24Z</time>
      </trkpt>
      <trkpt lat="43.94375" lon="6.81513">
        <ele>598.965</ele>
        <time>2017-03-25T17:40:44Z</time>
      </trkpt>
      <trkpt lat="43.9433" lon="6.81589">
        <ele>614.365</ele>
        <time>2017-03-25T17:41:04Z</time>
      </trkpt>
      <trkpt lat="43.94276" lon="6.81627">
        <ele>622.729</ele>
        <time>2017-03-25T17:41:24Z</time>
      </trkpt>
      <trkpt lat="43.94251" lon="6.81625">
        <ele>623.028</ele>
        <time>2017-03-25T17:41:44Z</time>
      </trkpt>
      <trkpt lat="43.9423" lon="6.81584">
        <ele>631.876</ele>
        <time>2017-03-25T17:42:04Z</time>
      </trkpt>
      <trkpt lat="43.94207" lon="6.81575">
        <ele>637.847</ele>
        <time>2017-03-25T17:42:24Z</time>
      </trkpt>
      <trkpt lat="43.94178" lon="6.8159">
        <ele>645.829</ele>
        <time>2017-03-25T17:42:44Z</time>
      </trkpt>
      <trkpt lat="43.94159" lon="6.81591">
        <ele>651.621</ele>
        <time>2017-03-25T17:43:04Z</time>
      </trkpt>
      <trkpt lat="43.94132" lon="6.81603">
        <ele>655.408</ele>
        <time>2017-03-25T17:43:24Z</time>
      </trkpt>
      <trkpt lat="43.94095" lon="6.81598">
        <ele>668.897</ele>
        <time>2017-03-25T17:43:44Z</time>
      </trkpt>
      <trkpt lat="43.94048" lon="6.81623">
        <ele>675.84</ele>
        <time>2017-03-25T17:44:04Z</time>
      </trkpt>
      <trkpt lat="43.94038" lon="6.81634">
        <ele>676.058</ele>
        <time>2017-03-25T17:44:24Z</time>
      </trkpt>
      <trkpt lat="43.94003" lon="6.81641">
        <ele>682.188</ele>
        <time>2017-03-25T17:44:44Z</time>
      </trkpt>
      <trkpt lat="43.93984" lon="6.81683">
        <ele>684.168</ele>
        <time>2017-03-25T17:45:04Z</time>
      </trkpt>
      <trkpt lat="43.93983" lon="6.81707">
        <ele>691.262</ele>
        <time>2017-03-25T17:45:24Z</time>
      </trkpt>
      <trkpt lat="43.94006" lon="6.8175">
        <ele>701.071</ele>
        <time>2017-03-25T17:45:44Z</time>
      </trkpt>
      <trkpt lat="43.94047" lon="6.81886">
        <ele>728.319</ele>
        <time>2017-03-25T17:46:04Z</time>
      </trkpt>
      <trkpt lat="43.94047" lon="6.81926">
        <ele>739.752</ele>
        <time>2017-03-25T17:46:24Z</time>
      </trkpt>
      <trkpt lat="43.94054" lon="6.81968">
        <ele>745.953</ele>
        <time>2017-03-25T17:46:44Z</time>
      </trkpt>
      <trkpt lat="43.94048" lon="6.81973">
        <ele>749.408</ele>
        <time>2017-03-25T17:47:04Z</time>
      </trkpt>
      <trkpt lat="43.94028" lon="6.81951">
        <ele>752.808</ele>
        <time>2017-03-25T17:47:24Z</time>
      </trkpt>
      <trkpt lat="43.94043" lon="6.81997">
        <ele>757.878</ele>
        <time>2017-03-25T17:47:44Z</time>
      </trkpt>
      <trkpt lat="43.94038" lon="6.82005">
        <ele>761.181</ele>
        <time>2017-03-25T17:48:04Z</time>
      </trkpt>
      <trkpt lat="43.94023" lon="6.81992">
        <ele>766.249</ele>
        <time>2017-03-25T17:48:24Z</time>
      </trkpt>
      <trkpt lat="43.94025" lon="6.82048">
        <ele>769.249</ele>
        <time>2017-03-25T17:48:44Z</time>
      </trkpt>
      <trkpt lat="43.94015" lon="6.82052">
        <ele>774.489</ele>
        <time>2017-03-25T17:49:04Z</time>
      </trkpt>
      <trkpt lat="43.94011" lon="6.82018">
        <ele>777.793</ele>
        <time>2017-03-25T17:49:24Z</time>
      </trkpt>
      <trkpt lat="43.93994" lon="6.82018">
        <ele>786.772</ele>
        <time>2017-03-25T17:49:44Z</time>
      </trkpt>
      <trkpt lat="43.93976" lon="6.81982">
        <ele>787.38</ele>
        <time>2017-03-25T17:50:04Z</time>
      </trkpt>
      <trkpt lat="43.9397" lon="6.81986">
        <ele>790.672</ele>
        <time>2017-03-25T17:50:24Z</time>
      </trkpt>
      <trkpt lat="43.9397" lon="6.82036">
        <ele>797.313</ele>
        <time>2017-03-25T17:50:44Z</time>
      </trkpt>
      <trkpt lat="43.93963" lon="6.82046">
        <ele>799.614</ele>
        <time>2017-03-25T17:51:04Z</time>
      </trkpt>
      <trkpt lat="43.93961" lon="6.82015">
        <ele>799.808</ele>
        <time>2017-03-25T17:51:24Z</time>
      </trkpt>
      <trkpt lat="43.93952" lon="6.82004">
        <ele>801.32</ele>
        <time>2017-03-25T17:51:44Z</time>
      </trkpt>
      <trkpt lat="43.93946" lon="6.82036">
        <ele>807.623</ele>
        <time>2017-03-25T17:52:04Z</time>
      </trkpt>
      <trkpt lat="43.93939" lon="6.82013">
        <ele>809.061</ele>
        <time>2017-03-25T17:52:24Z</time>
      </trkpt>
      <trkpt lat="43.93934" lon="6.82041">
        <ele>814.011</ele>
        <time>2017-03-25T17:52:44Z</time>
      </trkpt>
      <trkpt lat="43.93928" lon="6.8201">
        <ele>814.371</ele>
        <time>2017-03-25T17:53:04Z</time>
      </trkpt>
      <trkpt lat="43.93921" lon="6.82032">
        <ele>822.145</ele>
        <time>2017-03-25T17:53:24Z</time>
      </trkpt>
      <trkpt lat="43.93918" lon="6.82014">
        <ele>820.564</ele>
        <time>2017-03-25T17:53:44Z</time>
      </trkpt>
      <trkpt lat="43.93909" lon="6.82013">
        <ele>825.412</ele>
        <time>2017-03-25T17:54:04Z</time>
      </trkpt>
      <trkpt lat="43.93861" lon="6.82264">
        <ele>867.972</ele>
        <time>2017-03-25T17:54:24Z</time>
      </trkpt>
      <trkpt lat="43.9382" lon="6.82276">
        <ele>889.213</ele>
        <time>2017-03-25T17:54:44Z</time>
      </trkpt>
      <trkpt lat="43.93786" lon="6.82326">
        <ele>901.614</ele>
        <time>2017-03-25T17:55:04Z</time>
      </trkpt>
      <trkpt lat="43.93779" lon="6.82345">
        <ele>905.608</ele>
        <time>2017-03-25T17:55:24Z</time>
      </trkpt>
      <trkpt lat="43.93783" lon="6.82363">
        <ele>906.85</ele>
        <time>2017-03-25T17:55:44Z</time>
      </trkpt>
      <trkpt lat="43.93869" lon="6.82455">
        <ele>910.733</ele>
        <time>2017-03-25T17:56:04Z</time>
      </trkpt>
      <trkpt lat="43.93872" lon="6.82483">
        <ele>916.531</ele>
        <time>2017-03-25T17:56:24Z</time>
      </trkpt>
      <trkpt lat="43.93825" lon="6.82608">
        <ele>931.591</ele>
        <time>2017-03-25T17:56:44Z</time>
      </trkpt>
      <trkpt lat="43.938" lon="6.82713">
        <ele>941.691</ele>
        <time>2017-03-25T17:57:04Z</time>
      </trkpt>
      <trkpt lat="43.93784" lon="6.82728">
        <ele>947.155</ele>
        <time>2017-03-25T17:57:24Z</time>
      </trkpt>
      <trkpt lat="43.93746" lon="6.82724">
        <ele>956.334</ele>
        <time>2017-03-25T17:57:44Z</time>
      </trkpt>
      <trkpt lat="43.93724" lon="6.82752">
        <ele>959.462</ele>
        <time>2017-03-25T17:58:04Z</time>
      </trkpt>
      <trkpt lat="43.93718" lon="6.82793">
        <ele>959.317</ele>
        <time>2017-03-25T17:58:24Z</time>
      </trkpt>
      <trkpt lat="43.93717" lon="6.82852">
        <ele>953.987</ele>
        <time>2017-03-25T17:58:44Z</time>
      </trkpt>
      <trkpt lat="43.93706" lon="6.82912">
        <ele>969.115</ele>
        <time>2017-03-25T17:59:04Z</time>
      </trkpt>
      <trkpt lat="43.93735" lon="6.83059">
        <ele>979.008</ele>
        <time>2017-03-25T17:59:24Z</time>
      </trkpt>
      <trkpt lat="43.93774" lon="6.83168">
        <ele>990.534</ele>
        <time>2017-03-25T18:03:44Z</time>
      </trkpt>
      <trkpt lat="43.93782" lon="6.83206">
        <ele>996.027</ele>
        <time>2017-03-25T18:04:04Z</time>
      </trkpt>
      <trkpt lat="43.93799" lon="6.83241">
        <ele>996.765</ele>
        <time>2017-03-25T18:04:24Z</time>
      </trkpt>
      <trkpt lat="43.93788" lon="6.83257">
        <ele>996.165</ele>
        <time>2017-03-25T18:04:44Z</time>
      </trkpt>
      <trkpt lat="43.93756" lon="6.83198">
        <ele>1004.615</ele>
        <time>2017-03-25T18:05:04Z</time>
      </trkpt>
      <trkpt lat="43.93719" lon="6.8318">
        <ele>1013.419</ele>
        <time>2017-03-25T18:05:24Z</time>
      </trkpt>
      <trkpt lat="43.93668" lon="6.83118">
        <ele>1016.358</ele>
        <time>2017-03-25T18:05:44Z</time>
      </trkpt>
      <trkpt lat="43.93615" lon="6.83047">
        <ele>1015.546</ele>
        <time>2017-03-25T18:06:04Z</time>
      </trkpt>
      <trkpt lat="43.93561" lon="6.82996">
        <ele>1020.674</ele>
        <time>2017-03-25T18:06:24Z</time>
      </trkpt>
      <trkpt lat="43.9352" lon="6.82919">
        <ele>1038.356</ele>
        <time>2017-03-25T18:06:44Z</time>
      </trkpt>
      <trkpt lat="43.93439" lon="6.82808">
        <ele>1043.821</ele>
        <time>2017-03-25T18:07:04Z</time>
      </trkpt>
      <trkpt lat="43.93421" lon="6.82763">
        <ele>1053.008</ele>
        <time>2017-03-25T18:07:24Z</time>
      </trkpt>
      <trkpt lat="43.93393" lon="6.82727">
        <ele>1056.15</ele>
        <time>2017-03-25T18:07:44Z</time>
      </trkpt>
      <trkpt lat="43.93374" lon="6.82721">
        <ele>1052.133</ele>
        <time>2017-03-25T18:08:04Z</time>
      </trkpt>
      <trkpt lat="43.93311" lon="6.82626">
        <ele>1063.691</ele>
        <time>2017-03-25T18:08:24Z</time>
      </trkpt>
      <trkpt lat="43.93262" lon="6.8256">
        <ele>1067.551</ele>
        <time>2017-03-25T18:08:44Z</time>
      </trkpt>
      <trkpt lat="43.93194" lon="6.82451">
        <ele>1075.251</ele>
        <time>2017-03-25T18:09:04Z</time>
      </trkpt>
      <trkpt lat="43.93147" lon="6.82412">
        <ele>1082.695</ele>
        <time>2017-03-25T18:09:24Z</time>
      </trkpt>
      <trkpt lat="43.93101" lon="6.82408">
        <ele>1080.994</ele>
        <time>2017-03-25T18:09:44Z</time>
      </trkpt>
      <trkpt lat="43.93042" lon="6.82342">
        <ele>1085.262</ele>
        <time>2017-03-25T18:10:04Z</time>
      </trkpt>
      <trkpt lat="43.93028" lon="6.82312">
        <ele>1088.712</ele>
        <time>2017-03-25T18:10:24Z</time>
      </trkpt>
      <trkpt lat="43.92984" lon="6.82287">
        <ele>1087.732</ele>
        <time>2017-03-25T18:10:44Z</time>
      </trkpt>
      <trkpt lat="43.9286" lon="6.8228">
        <ele>1085.805</ele>
        <time>2017-03-25T18:11:04Z</time>
      </trkpt>
      <trkpt lat="43.92834" lon="6.823">
        <ele>1086.208</ele>
        <time>2017-03-25T18:11:24Z</time>
      </trkpt>
      <trkpt lat="43.92817" lon="6.82332">
        <ele>1088.624</ele>
        <time>2017-03-25T18:11:44Z</time>
      </trkpt>
      <trkpt lat="43.9281" lon="6.82323">
        <ele>1089.717</ele>
        <time>2017-03-25T18:12:04Z</time>
      </trkpt>
      <trkpt lat="43.92807" lon="6.82283">
        <ele>1090.695</ele>
        <time>2017-03-25T18:13:24Z</time>
      </trkpt>
      <trkpt lat="43.92793" lon="6.8224">
        <ele>1090.045</ele>
        <time>2017-03-25T18:13:44Z</time>
      </trkpt>
      <trkpt lat="43.92764" lon="6.82211">
        <ele>1093.015</ele>
        <time>2017-03-25T18:14:04Z</time>
      </trkpt>
      <trkpt lat="43.92743" lon="6.82176">
        <ele>1094.289</ele>
        <time>2017-03-25T18:14:24Z</time>
      </trkpt>
      <trkpt lat="43.92731" lon="6.82113">
        <ele>1087.248</ele>
        <time>2017-03-25T18:14:44Z</time>
      </trkpt>
      <trkpt lat="43.92734" lon="6.82065">
        <ele>1080.046</ele>
        <time>2017-03-25T18:15:04Z</time>
      </trkpt>
      <trkpt lat="43.92725" lon="6.82039">
        <ele>1076.952</ele>
        <time>2017-03-25T18:15:24Z</time>
      </trkpt>
      <trkpt lat="43.92706" lon="6.82035">
        <ele>1080.053</ele>
        <time>2017-03-25T18:15:44Z</time>
      </trkpt>
      <trkpt lat="43.92687" lon="6.82018">
        <ele>1081.408</ele>
        <time>2017-03-25T18:16:04Z</time>
      </trkpt>
      <trkpt lat="43.92675" lon="6.81981">
        <ele>1078.208</ele>
        <time>2017-03-25T18:16:24Z</time>
      </trkpt>
      <trkpt lat="43.9265" lon="6.81936">
        <ele>1074.518</ele>
        <time>2017-03-25T18:16:44Z</time>
      </trkpt>
      <trkpt lat="43.92572" lon="6.81844">
        <ele>1054.591</ele>
        <time>2017-03-25T18:17:04Z</time>
      </trkpt>
      <trkpt lat="43.92518" lon="6.81804">
        <ele>1048.959</ele>
        <time>2017-03-25T18:17:24Z</time>
      </trkpt>
      <trkpt lat="43.92495" lon="6.81759">
        <ele>1042.829</ele>
        <time>2017-03-25T18:17:44Z</time>
      </trkpt>
      <trkpt lat="43.92448" lon="6.81724">
        <ele>1050.399</ele>
        <time>2017-03-25T18:18:04Z</time>
      </trkpt>
      <trkpt lat="43.92438" lon="6.81687">
        <ele>1039.683</ele>
        <time>2017-03-25T18:18:24Z</time>
      </trkpt>
      <trkpt lat="43.92425" lon="6.81663">
        <ele>1035.812</ele>
        <time>2017-03-25T18:18:44Z</time>
      </trkpt>
      <trkpt lat="43.92344" lon="6.81624">
        <ele>1035.41</ele>
        <time>2017-03-25T18:20:24Z</time>
      </trkpt>
      <trkpt lat="43.92323" lon="6.81609">
        <ele>1033.956</ele>
        <time>2017-03-25T18:20:44Z</time>
      </trkpt>
      <trkpt lat="43.92316" lon="6.81585">
        <ele>1029.659</ele>
        <time>2017-03-25T18:21:24Z</time>
      </trkpt>
      <trkpt lat="43.92308" lon="6.8157">
        <ele>1027.214</ele>
        <time>2017-03-25T18:21:44Z</time>
      </trkpt>
      <trkpt lat="43.92262" lon="6.81548">
        <ele>1028.208</ele>
        <time>2017-03-25T18:22:04Z</time>
      </trkpt>
      <trkpt lat="43.92128" lon="6.81308">
        <ele>1001.818</ele>
        <time>2017-03-25T18:22:24Z</time>
      </trkpt>
      <trkpt lat="43.92077" lon="6.81221">
        <ele>988.861</ele>
        <time>2017-03-25T18:22:44Z</time>
      </trkpt>
      <trkpt lat="43.92068" lon="6.81197">
        <ele>981.929</ele>
        <time>2017-03-25T18:23:04Z</time>
      </trkpt>
      <trkpt lat="43.92065" lon="6.81163">
        <ele>973.649</ele>
        <time>2017-03-25T18:23:24Z</time>
      </trkpt>
      <trkpt lat="43.92051" lon="6.8114">
        <ele>970.169</ele>
        <time>2017-03-25T18:23:44Z</time>
      </trkpt>
      <trkpt lat="43.92" lon="6.81106">
        <ele>953.453</ele>
        <time>2017-03-25T18:24:04Z</time>
      </trkpt>
      <trkpt lat="43.91973" lon="6.81083">
        <ele>946.952</ele>
        <time>2017-03-25T18:24:24Z</time>
      </trkpt>
      <trkpt lat="43.91895" lon="6.81048">
        <ele>942.01</ele>
        <time>2017-03-25T18:24:44Z</time>
      </trkpt>
      <trkpt lat="43.91869" lon="6.8102">
        <ele>934.243</ele>
        <time>2017-03-25T18:25:24Z</time>
      </trkpt>
      <trkpt lat="43.91802" lon="6.80937">
        <ele>919.464</ele>
        <time>2017-03-25T18:25:44Z</time>
      </trkpt>
      <trkpt lat="43.91768" lon="6.80887">
        <ele>903.41</ele>
        <time>2017-03-25T18:26:04Z</time>
      </trkpt>
      <trkpt lat="43.91736" lon="6.80854">
        <ele>893.308</ele>
        <time>2017-03-25T18:26:24Z</time>
      </trkpt>
      <trkpt lat="43.91685" lon="6.80821">
        <ele>874.447</ele>
        <time>2017-03-25T18:26:44Z</time>
      </trkpt>
      <trkpt lat="43.91598" lon="6.80868">
        <ele>865.89</ele>
        <time>2017-03-25T18:27:04Z</time>
      </trkpt>
      <trkpt lat="43.91602" lon="6.8082">
        <ele>861.458</ele>
        <time>2017-03-25T18:27:24Z</time>
      </trkpt>
      <trkpt lat="43.91553" lon="6.80777">
        <ele>865.278</ele>
        <time>2017-03-25T18:27:44Z</time>
      </trkpt>
      <trkpt lat="43.91485" lon="6.80789">
        <ele>860.898</ele>
        <time>2017-03-25T18:28:04Z</time>
      </trkpt>
      <trkpt lat="43.91479" lon="6.80776">
        <ele>861.772</ele>
        <time>2017-03-25T18:28:24Z</time>
      </trkpt>
      <trkpt lat="43.91433" lon="6.80786">
        <ele>860.031</ele>
        <time>2017-03-25T18:28:44Z</time>
      </trkpt>
      <trkpt lat="43.91388" lon="6.80778">
        <ele>859.999</ele>
        <time>2017-03-25T18:29:04Z</time>
      </trkpt>
      <trkpt lat="43.91379" lon="6.80725">
        <ele>857.156</ele>
        <time>2017-03-25T18:29:24Z</time>
      </trkpt>
      <trkpt lat="43.9134" lon="6.80686">
        <ele>848.659</ele>
        <time>2017-03-25T18:29:44Z</time>
      </trkpt>
      <trkpt lat="43.91274" lon="6.80629">
        <ele>833.714</ele>
        <time>2017-03-25T18:30:04Z</time>
      </trkpt>
      <trkpt lat="43.91214" lon="6.80604">
        <ele>823.008</ele>
        <time>2017-03-25T18:30:24Z</time>
      </trkpt>
      <trkpt lat="43.91169" lon="6.80608">
        <ele>820.158</ele>
        <time>2017-03-25T18:30:44Z</time>
      </trkpt>
      <trkpt lat="43.91155" lon="6.80637">
        <ele>820.861</ele>
        <time>2017-03-25T18:31:04Z</time>
      </trkpt>
      <trkpt lat="43.91143" lon="6.80639">
        <ele>821.759</ele>
        <time>2017-03-25T18:31:24Z</time>
      </trkpt>
      <trkpt lat="43.91128" lon="6.80623">
        <ele>822.429</ele>
        <time>2017-03-25T18:31:44Z</time>
      </trkpt>
      <trkpt lat="43.91079" lon="6.80608">
        <ele>826.669</ele>
        <time>2017-03-25T18:32:04Z</time>
      </trkpt>
      <trkpt lat="43.91033" lon="6.80594">
        <ele>830.353</ele>
        <time>2017-03-25T18:32:24Z</time>
      </trkpt>
      <trkpt lat="43.91018" lon="6.80607">
        <ele>834.682</ele>
        <time>2017-03-25T18:32:44Z</time>
      </trkpt>
      <trkpt lat="43.91015" lon="6.80645">
        <ele>837.84</ele>
        <time>2017-03-25T18:33:04Z</time>
      </trkpt>
      <trkpt lat="43.90994" lon="6.80635">
        <ele>840.355</ele>
        <time>2017-03-25T18:33:24Z</time>
      </trkpt>
      <trkpt lat="43.90989" lon="6.80643">
        <ele>842.107</ele>
        <time>2017-03-25T18:33:44Z</time>
      </trkpt>
      <trkpt lat="43.9098" lon="6.80672">
        <ele>845.317</ele>
        <time>2017-03-25T18:34:04Z</time>
      </trkpt>
      <trkpt lat="43.90973" lon="6.80647">
        <ele>847.708</ele>
        <time>2017-03-25T18:34:24Z</time>
      </trkpt>
      <trkpt lat="43.90948" lon="6.80618">
        <ele>852.768</ele>
        <time>2017-03-25T18:34:44Z</time>
      </trkpt>
      <trkpt lat="43.90934" lon="6.80586">
        <ele>855.491</ele>
        <time>2017-03-25T18:35:04Z</time>
      </trkpt>
      <trkpt lat="43.90918" lon="6.80562">
        <ele>857.239</ele>
        <time>2017-03-25T18:35:24Z</time>
      </trkpt>
      <trkpt lat="43.90899" lon="6.80542">
        <ele>859.689</ele>
        <time>2017-03-25T18:35:44Z</time>
      </trkpt>
      <trkpt lat="43.90882" lon="6.80542">
        <ele>862.749</ele>
        <time>2017-03-25T18:36:04Z</time>
      </trkpt>
      <trkpt lat="43.90836" lon="6.8053">
        <ele>873.543</ele>
        <time>2017-03-25T18:36:24Z</time>
      </trkpt>
      <trkpt lat="43.90745" lon="6.80548">
        <ele>900.442</ele>
        <time>2017-03-25T18:36:44Z</time>
      </trkpt>
      <trkpt lat="43.90689" lon="6.80551">
        <ele>914.02</ele>
        <time>2017-03-25T18:37:04Z</time>
      </trkpt>
      <trkpt lat="43.90656" lon="6.805">
        <ele>925.159</ele>
        <time>2017-03-25T18:37:24Z</time>
      </trkpt>
      <trkpt lat="43.9064" lon="6.80491">
        <ele>929.903</ele>
        <time>2017-03-25T18:37:44Z</time>
      </trkpt>
      <trkpt lat="43.90583" lon="6.80402">
        <ele>939.323</ele>
        <time>2017-03-25T18:38:04Z</time>
      </trkpt>
      <trkpt lat="43.90567" lon="6.80367">
        <ele>933.408</ele>
        <time>2017-03-25T18:38:24Z</time>
      </trkpt>
      <trkpt lat="43.90525" lon="6.80325">
        <ele>929.368</ele>
        <time>2017-03-25T18:38:44Z</time>
      </trkpt>
      <trkpt lat="43.9053" lon="6.80379">
        <ele>931.141</ele>
        <time>2017-03-25T18:39:04Z</time>
      </trkpt>
      <trkpt lat="43.90544" lon="6.80409">
        <ele>934.779</ele>
        <time>2017-03-25T18:39:24Z</time>
      </trkpt>
      <trkpt lat="43.90526" lon="6.80442">
        <ele>935.989</ele>
        <time>2017-03-25T18:39:44Z</time>
      </trkpt>
      <trkpt lat="43.90524" lon="6.80459">
        <ele>937.579</ele>
        <time>2017-03-25T18:40:04Z</time>
      </trkpt>
      <trkpt lat="43.90509" lon="6.80478">
        <ele>941.083</ele>
        <time>2017-03-25T18:40:24Z</time>
      </trkpt>
      <trkpt lat="43.90512" lon="6.80501">
        <ele>942.442</ele>
        <time>2017-03-25T18:40:44Z</time>
      </trkpt>
      <trkpt lat="43.90479" lon="6.80539">
        <ele>951.93</ele>
        <time>2017-03-25T18:41:04Z</time>
      </trkpt>
      <trkpt lat="43.90489" lon="6.80574">
        <ele>954.067</ele>
        <time>2017-03-25T18:41:24Z</time>
      </trkpt>
      <trkpt lat="43.90492" lon="6.80599">
        <ele>956.981</ele>
        <time>2017-03-25T18:41:44Z</time>
      </trkpt>
      <trkpt lat="43.90507" lon="6.80661">
        <ele>961.519</ele>
        <time>2017-03-25T18:42:04Z</time>
      </trkpt>
      <trkpt lat="43.90499" lon="6.80678">
        <ele>964.808</ele>
        <time>2017-03-25T18:42:24Z</time>
      </trkpt>
      <trkpt lat="43.90479" lon="6.80695">
        <ele>974.799</ele>
        <time>2017-03-25T18:42:44Z</time>
      </trkpt>
      <trkpt lat="43.90454" lon="6.80738">
        <ele>975.932</ele>
        <time>2017-03-25T18:43:04Z</time>
      </trkpt>
      <trkpt lat="43.90429" lon="6.80761">
        <ele>980.52</ele>
        <time>2017-03-25T18:43:24Z</time>
      </trkpt>
      <trkpt lat="43.90409" lon="6.80769">
        <ele>987.47</ele>
        <time>2017-03-25T18:43:44Z</time>
      </trkpt>
      <trkpt lat="43.90402" lon="6.80785">
        <ele>986.51</ele>
        <time>2017-03-25T18:44:04Z</time>
      </trkpt>
      <trkpt lat="43.90394" lon="6.80795">
        <ele>988.684</ele>
        <time>2017-03-25T18:44:24Z</time>
      </trkpt>
      <trkpt lat="43.90395" lon="6.80809">
        <ele>987.143</ele>
        <time>2017-03-25T18:44:44Z</time>
      </trkpt>
      <trkpt lat="43.90405" lon="6.8082">
        <ele>983.821</ele>
        <time>2017-03-25T18:45:04Z</time>
      </trkpt>
      <trkpt lat="43.90404" lon="6.8084">
        <ele>987.972</ele>
        <time>2017-03-25T18:45:24Z</time>
      </trkpt>
      <trkpt lat="43.90408" lon="6.8086">
        <ele>989.613</ele>
        <time>2017-03-25T18:45:44Z</time>
      </trkpt>
      <trkpt lat="43.90425" lon="6.80877">
        <ele>985.814</ele>
        <time>2017-03-25T18:46:04Z</time>
      </trkpt>
      <trkpt lat="43.90427" lon="6.80902">
        <ele>988.208</ele>
        <time>2017-03-25T18:46:24Z</time>
      </trkpt>
      <trkpt lat="43.90436" lon="6.80936">
        <ele>987.87</ele>
        <time>2017-03-25T18:46:44Z</time>
      </trkpt>
      <trkpt lat="43.90429" lon="6.81042">
        <ele>1007.023</ele>
        <time>2017-03-25T18:47:04Z</time>
      </trkpt>
      <trkpt lat="43.9042" lon="6.8115">
        <ele>1019.081</ele>
        <time>2017-03-25T18:47:24Z</time>
      </trkpt>
      <trkpt lat="43.90378" lon="6.81182">
        <ele>1043.411</ele>
        <time>2017-03-25T18:47:44Z</time>
      </trkpt>
      <trkpt lat="43.90374" lon="6.81198">
        <ele>1045.191</ele>
        <time>2017-03-25T18:48:04Z</time>
      </trkpt>
      <trkpt lat="43.90377" lon="6.81212">
        <ele>1042.355</ele>
        <time>2017-03-25T18:48:24Z</time>
      </trkpt>
      <trkpt lat="43.90393" lon="6.81236">
        <ele>1037.194</ele>
        <time>2017-03-25T18:49:04Z</time>
      </trkpt>
      <trkpt lat="43.90404" lon="6.81288">
        <ele>1044.312</ele>
        <time>2017-03-25T18:49:24Z</time>
      </trkpt>
      <trkpt lat="43.90411" lon="6.81336">
        <ele>1052.553</ele>
        <time>2017-03-25T18:49:44Z</time>
      </trkpt>
      <trkpt lat="43.90405" lon="6.81391">
        <ele>1068.804</ele>
        <time>2017-03-25T18:50:04Z</time>
      </trkpt>
      <trkpt lat="43.90402" lon="6.8144">
        <ele>1077.014</ele>
        <time>2017-03-25T18:50:24Z</time>
      </trkpt>
      <trkpt lat="43.90391" lon="6.81486">
        <ele>1084.208</ele>
        <time>2017-03-25T18:50:44Z</time>
      </trkpt>
      <trkpt lat="43.90389" lon="6.8152">
        <ele>1087.328</ele>
        <time>2017-03-25T18:51:04Z</time>
      </trkpt>
      <trkpt lat="43.90382" lon="6.81561">
        <ele>1096.351</ele>
        <time>2017-03-25T18:51:24Z</time>
      </trkpt>
      <trkpt lat="43.90367" lon="6.81625">
        <ele>1110.519</ele>
        <time>2017-03-25T18:51:44Z</time>
      </trkpt>
      <trkpt lat="43.90367" lon="6.81679">
        <ele>1118.159</ele>
        <time>2017-03-25T18:52:04Z</time>
      </trkpt>
      <trkpt lat="43.90384" lon="6.81748">
        <ele>1130.859</ele>
        <time>2017-03-25T18:52:24Z</time>
      </trkpt>
      <trkpt lat="43.90406" lon="6.81819">
        <ele>1140.813</ele>
        <time>2017-03-25T18:52:44Z</time>
      </trkpt>
      <trkpt lat="43.9039" lon="6.81815">
        <ele>1143.142</ele>
        <time>2017-03-25T18:53:04Z</time>
      </trkpt>
      <trkpt lat="43.90384" lon="6.81876">
        <ele>1150.36</ele>
        <time>2017-03-25T18:53:24Z</time>
      </trkpt>
      <trkpt lat="43.90356" lon="6.81896">
        <ele>1150.468</ele>
        <time>2017-03-25T18:53:44Z</time>
      </trkpt>
      <trkpt lat="43.90283" lon="6.818">
        <ele>1145.442</ele>
        <time>2017-03-25T18:54:04Z</time>
      </trkpt>
      <trkpt lat="43.90262" lon="6.81795">
        <ele>1141.326</ele>
        <time>2017-03-25T18:54:24Z</time>
      </trkpt>
      <trkpt lat="43.90292" lon="6.81864">
        <ele>1129.708</ele>
        <time>2017-03-25T18:54:44Z</time>
      </trkpt>
      <trkpt lat="43.9022" lon="6.81837">
        <ele>1108.119</ele>
        <time>2017-03-25T18:55:04Z</time>
      </trkpt>
      <trkpt lat="43.90155" lon="6.81828">
        <ele>1097.682</ele>
        <time>2017-03-25T18:55:24Z</time>
      </trkpt>
      <trkpt lat="43.90176" lon="6.81852">
        <ele>1091.96</ele>
        <time>2017-03-25T18:55:44Z</time>
      </trkpt>
      <trkpt lat="43.9015" lon="6.81853">
        <ele>1086.42</ele>
        <time>2017-03-25T18:56:04Z</time>
      </trkpt>
      <trkpt lat="43.90122" lon="6.81863">
        <ele>1079.88</ele>
        <time>2017-03-25T18:56:24Z</time>
      </trkpt>
      <trkpt lat="43.90075" lon="6.81897">
        <ele>1064.554</ele>
        <time>2017-03-25T18:56:44Z</time>
      </trkpt>
      <trkpt lat="43.90043" lon="6.81903">
        <ele>1056.873</ele>
        <time>2017-03-25T18:57:04Z</time>
      </trkpt>
      <trkpt lat="43.90001" lon="6.81885">
        <ele>1054.291</ele>
        <time>2017-03-25T18:57:24Z</time>
      </trkpt>
      <trkpt lat="43.89929" lon="6.81864">
        <ele>1042.471</ele>
        <time>2017-03-25T18:59:04Z</time>
      </trkpt>
      <trkpt lat="43.89902" lon="6.81865">
        <ele>1033.941</ele>
        <time>2017-03-25T18:59:24Z</time>
      </trkpt>
      <trkpt lat="43.89787" lon="6.8176">
        <ele>1018.015</ele>
        <time>2017-03-25T18:59:44Z</time>
      </trkpt>
      <trkpt lat="43.89783" lon="6.81736">
        <ele>1021.108</ele>
        <time>2017-03-25T19:00:04Z</time>
      </trkpt>
      <trkpt lat="43.89777" lon="6.81734">
        <ele>1019.22</ele>
        <time>2017-03-25T19:00:24Z</time>
      </trkpt>
      <trkpt lat="43.89778" lon="6.8177">
        <ele>1012.653</ele>
        <time>2017-03-25T19:00:44Z</time>
      </trkpt>
      <trkpt lat="43.89792" lon="6.81804">
        <ele>1010.531</ele>
        <time>2017-03-25T19:01:04Z</time>
      </trkpt>
      <trkpt lat="43.8975" lon="6.8179">
        <ele>999.871</ele>
        <time>2017-03-25T19:01:24Z</time>
      </trkpt>
      <trkpt lat="43.89736" lon="6.81758">
        <ele>1001.911</ele>
        <time>2017-03-25T19:01:44Z</time>
      </trkpt>
      <trkpt lat="43.89711" lon="6.8176">
        <ele>995.555</ele>
        <time>2017-03-25T19:02:04Z</time>
      </trkpt>
      <trkpt lat="43.89676" lon="6.81773">
        <ele>984.224</ele>
        <time>2017-03-25T19:02:24Z</time>
      </trkpt>
      <trkpt lat="43.89674" lon="6.81787">
        <ele>979.582</ele>
        <time>2017-03-25T19:02:44Z</time>
      </trkpt>
      <trkpt lat="43.89662" lon="6.81784">
        <ele>977.483</ele>
        <time>2017-03-25T19:04:04Z</time>
      </trkpt>
      <trkpt lat="43.89627" lon="6.8176">
        <ele>972.125</ele>
        <time>2017-03-25T19:04:24Z</time>
      </trkpt>
      <trkpt lat="43.89599" lon="6.81717">
        <ele>965.917</ele>
        <time>2017-03-25T19:04:44Z</time>
      </trkpt>
      <trkpt lat="43.89594" lon="6.81683">
        <ele>972.508</ele>
        <time>2017-03-25T19:05:04Z</time>
      </trkpt>
      <trkpt lat="43.89562" lon="6.81688">
        <ele>963.481</ele>
        <time>2017-03-25T19:05:24Z</time>
      </trkpt>
      <trkpt lat="43.89525" lon="6.81659">
        <ele>960.834</ele>
        <time>2017-03-25T19:05:44Z</time>
      </trkpt>
      <trkpt lat="43.89501" lon="6.81665">
        <ele>955.762</ele>
        <time>2017-03-25T19:06:04Z</time>
      </trkpt>
      <trkpt lat="43.8948" lon="6.81651">
        <ele>953.782</ele>
        <time>2017-03-25T19:06:24Z</time>
      </trkpt>
      <trkpt lat="43.89467" lon="6.81614">
        <ele>958.692</ele>
        <time>2017-03-25T19:06:44Z</time>
      </trkpt>
      <trkpt lat="43.89444" lon="6.81592">
        <ele>958.476</ele>
        <time>2017-03-25T19:07:04Z</time>
      </trkpt>
      <trkpt lat="43.89436" lon="6.81636">
        <ele>964.895</ele>
        <time>2017-03-25T19:07:24Z</time>
      </trkpt>
      <trkpt lat="43.89438" lon="6.81676">
        <ele>966.623</ele>
        <time>2017-03-25T19:07:44Z</time>
      </trkpt>
      <trkpt lat="43.89457" lon="6.81735">
        <ele>958.994</ele>
        <time>2017-03-25T19:08:04Z</time>
      </trkpt>
      <trkpt lat="43.89426" lon="6.81842">
        <ele>963.457</ele>
        <time>2017-03-25T19:08:24Z</time>
      </trkpt>
      <trkpt lat="43.89413" lon="6.81875">
        <ele>961.222</ele>
        <time>2017-03-25T19:08:44Z</time>
      </trkpt>
      <trkpt lat="43.89405" lon="6.81925">
        <ele>957.208</ele>
        <time>2017-03-25T19:09:04Z</time>
      </trkpt>
      <trkpt lat="43.89308" lon="6.82027">
        <ele>937.752</ele>
        <time>2017-03-25T19:09:24Z</time>
      </trkpt>
      <trkpt lat="43.89269" lon="6.82081">
        <ele>928.535</ele>
        <time>2017-03-25T19:09:44Z</time>
      </trkpt>
      <trkpt lat="43.89252" lon="6.82146">
        <ele>924.063</ele>
        <time>2017-03-25T19:10:04Z</time>
      </trkpt>
      <trkpt lat="43.89212" lon="6.82161">
        <ele>915.863</ele>
        <time>2017-03-25T19:10:24Z</time>
      </trkpt>
      <trkpt lat="43.89174" lon="6.82184">
        <ele>907.863</ele>
        <time>2017-03-25T19:10:44Z</time>
      </trkpt>
      <trkpt lat="43.89147" lon="6.82209">
        <ele>905.147</ele>
        <time>2017-03-25T19:11:04Z</time>
      </trkpt>
      <trkpt lat="43.89124" lon="6.82216">
        <ele>899.596</ele>
        <time>2017-03-25T19:11:24Z</time>
      </trkpt>
      <trkpt lat="43.89074" lon="6.82253">
        <ele>891.664</ele>
        <time>2017-03-25T19:11:44Z</time>
      </trkpt>
      <trkpt lat="43.89009" lon="6.82315">
        <ele>881.575</ele>
        <time>2017-03-25T19:12:04Z</time>
      </trkpt>
      <trkpt lat="43.88992" lon="6.82321">
        <ele>872.328</ele>
        <time>2017-03-25T19:12:24Z</time>
      </trkpt>
      <trkpt lat="43.88988" lon="6.8235">
        <ele>869.92</ele>
        <time>2017-03-25T19:12:44Z</time>
      </trkpt>
      <trkpt lat="43.88979" lon="6.82363">
        <ele>861.708</ele>
        <time>2017-03-25T19:13:04Z</time>
      </trkpt>
      <trkpt lat="43.89022" lon="6.825">
        <ele>871.22</ele>
        <time>2017-03-25T19:13:24Z</time>
      </trkpt>
      <trkpt lat="43.89026" lon="6.82561">
        <ele>867.673</ele>
        <time>2017-03-25T19:13:44Z</time>
      </trkpt>
      <trkpt lat="43.89021" lon="6.82591">
        <ele>867.271</ele>
        <time>2017-03-25T19:14:04Z</time>
      </trkpt>
      <trkpt lat="43.89027" lon="6.82631">
        <ele>864.451</ele>
        <time>2017-03-25T19:14:24Z</time>
      </trkpt>
      <trkpt lat="43.89051" lon="6.82669">
        <ele>864.421</ele>
        <time>2017-03-25T19:14:44Z</time>
      </trkpt>
      <trkpt lat="43.89059" lon="6.82708">
        <ele>860.215</ele>
        <time>2017-03-25T19:15:04Z</time>
      </trkpt>
      <trkpt lat="43.89046" lon="6.82899">
        <ele>846.854</ele>
        <time>2017-03-25T19:15:24Z</time>
      </trkpt>
      <trkpt lat="43.89045" lon="6.82975">
        <ele>842.812</ele>
        <time>2017-03-25T19:15:44Z</time>
      </trkpt>
      <trkpt lat="43.89052" lon="6.83032">
        <ele>838.228</ele>
        <time>2017-03-25T19:16:04Z</time>
      </trkpt>
      <trkpt lat="43.89068" lon="6.83089">
        <ele>832.889</ele>
        <time>2017-03-25T19:16:24Z</time>
      </trkpt>
      <trkpt lat="43.89079" lon="6.83103">
        <ele>833.817</ele>
        <time>2017-03-25T19:16:44Z</time>
      </trkpt>
      <trkpt lat="43.89077" lon="6.83128">
        <ele>828.208</ele>
        <time>2017-03-25T19:17:04Z</time>
      </trkpt>
      <trkpt lat="43.89094" lon="6.83172">
        <ele>825.555</ele>
        <time>2017-03-25T19:17:24Z</time>
      </trkpt>
      <trkpt lat="43.891" lon="6.83202">
        <ele>821.358</ele>
        <time>2017-03-25T19:17:44Z</time>
      </trkpt>
      <trkpt lat="43.89117" lon="6.83234">
        <ele>815.156</ele>
        <time>2017-03-25T19:18:04Z</time>
      </trkpt>
      <trkpt lat="43.89137" lon="6.83253">
        <ele>810.946</ele>
        <time>2017-03-25T19:18:24Z</time>
      </trkpt>
      <trkpt lat="43.89173" lon="6.833">
        <ele>801.766</ele>
        <time>2017-03-25T19:18:44Z</time>
      </trkpt>
      <trkpt lat="43.89169" lon="6.83312">
        <ele>796.86</ele>
        <time>2017-03-25T19:19:04Z</time>
      </trkpt>
      <trkpt lat="43.89184" lon="6.83341">
        <ele>792.139</ele>
        <time>2017-03-25T19:19:24Z</time>
      </trkpt>
      <trkpt lat="43.89153" lon="6.83402">
        <ele>776.597</ele>
        <time>2017-03-25T19:19:44Z</time>
      </trkpt>
      <trkpt lat="43.89174" lon="6.8344">
        <ele>773.756</ele>
        <time>2017-03-25T19:20:04Z</time>
      </trkpt>
      <trkpt lat="43.89182" lon="6.83481">
        <ele>766.759</ele>
        <time>2017-03-25T19:20:24Z</time>
      </trkpt>
      <trkpt lat="43.89197" lon="6.83498">
        <ele>764.914</ele>
        <time>2017-03-25T19:20:44Z</time>
      </trkpt>
      <trkpt lat="43.89216" lon="6.83537">
        <ele>759.608</ele>
        <time>2017-03-25T19:21:04Z</time>
      </trkpt>
      <trkpt lat="43.89217" lon="6.83566">
        <ele>758.758</ele>
        <time>2017-03-25T19:21:24Z</time>
      </trkpt>
      <trkpt lat="43.89225" lon="6.83601">
        <ele>757.531</ele>
        <time>2017-03-25T19:21:44Z</time>
      </trkpt>
      <trkpt lat="43.89149" lon="6.83806">
        <ele>750.099</ele>
        <time>2017-03-25T19:22:04Z</time>
      </trkpt>
      <trkpt lat="43.89088" lon="6.8388">
        <ele>747.619</ele>
        <time>2017-03-25T19:22:24Z</time>
      </trkpt>
      <trkpt lat="43.89062" lon="6.83928">
        <ele>740.419</ele>
        <time>2017-03-25T19:22:44Z</time>
      </trkpt>
      <trkpt lat="43.89044" lon="6.83939">
        <ele>739.463</ele>
        <time>2017-03-25T19:23:04Z</time>
      </trkpt>
      <trkpt lat="43.8904" lon="6.83967">
        <ele>738.412</ele>
        <time>2017-03-25T19:23:24Z</time>
      </trkpt>
      <trkpt lat="43.89019" lon="6.84033">
        <ele>730.34</ele>
        <time>2017-03-25T19:23:44Z</time>
      </trkpt>
      <trkpt lat="43.88995" lon="6.84077">
        <ele>721.243</ele>
        <time>2017-03-25T19:24:04Z</time>
      </trkpt>
      <trkpt lat="43.88987" lon="6.84127">
        <ele>713.064</ele>
        <time>2017-03-25T19:24:24Z</time>
      </trkpt>
      <trkpt lat="43.88987" lon="6.84183">
        <ele>707.21</ele>
        <time>2017-03-25T19:24:44Z</time>
      </trkpt>
      <trkpt lat="43.88962" lon="6.84294">
        <ele>700.308</ele>
        <time>2017-03-25T19:25:04Z</time>
      </trkpt>
      <trkpt lat="43.88909" lon="6.84391">
        <ele>695.997</ele>
        <time>2017-03-25T19:25:24Z</time>
      </trkpt>
      <trkpt lat="43.88887" lon="6.8442">
        <ele>689.91</ele>
        <time>2017-03-25T19:25:44Z</time>
      </trkpt>
      <trkpt lat="43.88871" lon="6.84448">
        <ele>689.768</ele>
        <time>2017-03-25T19:26:04Z</time>
      </trkpt>
      <trkpt lat="43.8881" lon="6.8452">
        <ele>681.628</ele>
        <time>2017-03-25T19:26:24Z</time>
      </trkpt>
      <trkpt lat="43.88758" lon="6.84588">
        <ele>668.018</ele>
        <time>2017-03-25T19:26:44Z</time>
      </trkpt>
      <trkpt lat="43.88727" lon="6.84662">
        <ele>661.352</ele>
        <time>2017-03-25T19:27:04Z</time>
      </trkpt>
      <trkpt lat="43.88681" lon="6.84855">
        <ele>663.311</ele>
        <time>2017-03-25T19:27:24Z</time>
      </trkpt>
      <trkpt lat="43.88685" lon="6.8494">
        <ele>662.429</ele>
        <time>2017-03-25T19:27:44Z</time>
      </trkpt>
      <trkpt lat="43.88681" lon="6.85001">
        <ele>664.361</ele>
        <time>2017-03-25T19:28:04Z</time>
      </trkpt>
      <trkpt lat="43.88637" lon="6.85124">
        <ele>673.921</ele>
        <time>2017-03-25T19:28:24Z</time>
      </trkpt>
      <trkpt lat="43.88618" lon="6.8522">
        <ele>677.613</ele>
        <time>2017-03-25T19:28:44Z</time>
      </trkpt>
      <trkpt lat="43.88644" lon="6.85396">
        <ele>670.808</ele>
        <time>2017-03-25T19:29:04Z</time>
      </trkpt>
      <trkpt lat="43.88691" lon="6.85679">
        <ele>658.799</ele>
        <time>2017-03-25T19:29:24Z</time>
      </trkpt>
      <trkpt lat="43.88684" lon="6.85726">
        <ele>658.952</ele>
        <time>2017-03-25T19:29:44Z</time>
      </trkpt>
      <trkpt lat="43.88674" lon="6.85751">
        <ele>660.59</ele>
        <time>2017-03-25T19:30:04Z</time>
      </trkpt>
      <trkpt lat="43.88674" lon="6.85812">
        <ele>658.96</ele>
        <time>2017-03-25T19:30:24Z</time>
      </trkpt>
      <trkpt lat="43.88682" lon="6.85853">
        <ele>655.17</ele>
        <time>2017-03-25T19:30:44Z</time>
      </trkpt>
      <trkpt lat="43.88676" lon="6.85925">
        <ele>653.824</ele>
        <time>2017-03-25T19:31:04Z</time>
      </trkpt>
      <trkpt lat="43.88677" lon="6.86021">
        <ele>644.243</ele>
        <time>2017-03-25T19:31:24Z</time>
      </trkpt>
      <trkpt lat="43.88651" lon="6.86067">
        <ele>654.731</ele>
        <time>2017-03-25T19:31:44Z</time>
      </trkpt>
      <trkpt lat="43.88651" lon="6.86106">
        <ele>655.869</ele>
        <time>2017-03-25T19:32:04Z</time>
      </trkpt>
      <trkpt lat="43.88685" lon="6.86248">
        <ele>644.704</ele>
        <time>2017-03-25T19:32:24Z</time>
      </trkpt>
      <trkpt lat="43.88703" lon="6.86293">
        <ele>635.824</ele>
        <time>2017-03-25T19:32:44Z</time>
      </trkpt>
      <trkpt lat="43.88716" lon="6.86341">
        <ele>627.208</ele>
        <time>2017-03-25T19:33:04Z</time>
      </trkpt>
      <trkpt lat="43.88694" lon="6.86345">
        <ele>634.639</ele>
        <time>2017-03-25T19:33:24Z</time>
      </trkpt>
      <trkpt lat="43.88659" lon="6.8631">
        <ele>660.472</ele>
        <time>2017-03-25T19:33:44Z</time>
      </trkpt>
      <trkpt lat="43.88662" lon="6.86293">
        <ele>660.29</ele>
        <time>2017-03-25T19:34:04Z</time>
      </trkpt>
      <trkpt lat="43.88647" lon="6.86282">
        <ele>670.41</ele>
        <time>2017-03-25T19:34:24Z</time>
      </trkpt>
      <trkpt lat="43.88636" lon="6.86248">
        <ele>678.07</ele>
        <time>2017-03-25T19:34:44Z</time>
      </trkpt>
      <trkpt lat="43.88622" lon="6.86224">
        <ele>686.484</ele>
        <time>2017-03-25T19:35:04Z</time>
      </trkpt>
      <trkpt lat="43.88614" lon="6.86194">
        <ele>691.773</ele>
        <time>2017-03-25T19:35:24Z</time>
      </trkpt>
      <trkpt lat="43.88589" lon="6.86155">
        <ele>705.571</ele>
        <time>2017-03-25T19:35:44Z</time>
      </trkpt>
      <trkpt lat="43.88573" lon="6.86172">
        <ele>718.191</ele>
        <time>2017-03-25T19:36:04Z</time>
      </trkpt>
      <trkpt lat="43.88559" lon="6.8613">
        <ele>723.781</ele>
        <time>2017-03-25T19:39:04Z</time>
      </trkpt>
      <trkpt lat="43.88552" lon="6.86136">
        <ele>728.919</ele>
        <time>2017-03-25T19:39:44Z</time>
      </trkpt>
      <trkpt lat="43.88532" lon="6.8611">
        <ele>736.208</ele>
        <time>2017-03-25T19:40:04Z</time>
      </trkpt>
      <trkpt lat="43.88522" lon="6.86106">
        <ele>741.182</ele>
        <time>2017-03-25T19:40:24Z</time>
      </trkpt>
      <trkpt lat="43.88512" lon="6.86065">
        <ele>744.155</ele>
        <time>2017-03-25T19:40:44Z</time>
      </trkpt>
      <trkpt lat="43.88465" lon="6.86092">
        <ele>757.863</ele>
        <time>2017-03-25T19:41:04Z</time>
      </trkpt>
      <trkpt lat="43.88469" lon="6.8608">
        <ele>757.223</ele>
        <time>2017-03-25T19:41:24Z</time>
      </trkpt>
      <trkpt lat="43.88427" lon="6.86082">
        <ele>758.423</ele>
        <time>2017-03-25T19:41:44Z</time>
      </trkpt>
      <trkpt lat="43.88395" lon="6.86105">
        <ele>756.337</ele>
        <time>2017-03-25T19:42:04Z</time>
      </trkpt>
      <trkpt lat="43.88394" lon="6.86126">
        <ele>757.536</ele>
        <time>2017-03-25T19:42:24Z</time>
      </trkpt>
      <trkpt lat="43.88368" lon="6.86125">
        <ele>751.824</ele>
        <time>2017-03-25T19:42:44Z</time>
      </trkpt>
      <trkpt lat="43.88329" lon="6.86096">
        <ele>738.256</ele>
        <time>2017-03-25T19:43:04Z</time>
      </trkpt>
      <trkpt lat="43.88299" lon="6.86085">
        <ele>732.159</ele>
        <time>2017-03-25T19:43:24Z</time>
      </trkpt>
      <trkpt lat="43.88276" lon="6.86086">
        <ele>722.214</ele>
        <time>2017-03-25T19:43:44Z</time>
      </trkpt>
      <trkpt lat="43.88262" lon="6.86072">
        <ele>718.508</ele>
        <time>2017-03-25T19:44:04Z</time>
      </trkpt>
      <trkpt lat="43.88235" lon="6.85994">
        <ele>712.528</ele>
        <time>2017-03-25T19:44:24Z</time>
      </trkpt>
      <trkpt lat="43.88237" lon="6.85976">
        <ele>712.751</ele>
        <time>2017-03-25T20:00:24Z</time>
      </trkpt>
      <trkpt lat="43.88222" lon="6.85928">
        <ele>704.669</ele>
        <time>2017-03-25T20:00:44Z</time>
      </trkpt>
      <trkpt lat="43.88205" lon="6.85909">
        <ele>700.329</ele>
        <time>2017-03-25T20:01:04Z</time>
      </trkpt>
      <trkpt lat="43.88177" lon="6.85893">
        <ele>691.429</ele>
        <time>2017-03-25T20:01:24Z</time>
      </trkpt>
      <trkpt lat="43.88144" lon="6.85892">
        <ele>682.393</ele>
        <time>2017-03-25T20:01:44Z</time>
      </trkpt>
      <trkpt lat="43.88108" lon="6.85902">
        <ele>673.982</ele>
        <time>2017-03-25T20:02:04Z</time>
      </trkpt>
      <trkpt lat="43.88081" lon="6.85903">
        <ele>666.99</ele>
        <time>2017-03-25T20:02:24Z</time>
      </trkpt>
      <trkpt lat="43.88079" lon="6.85993">
        <ele>661.518</ele>
        <time>2017-03-25T20:02:44Z</time>
      </trkpt>
      <trkpt lat="43.88087" lon="6.86012">
        <ele>662.098</ele>
        <time>2017-03-25T20:03:04Z</time>
      </trkpt>
      <trkpt lat="43.88104" lon="6.86076">
        <ele>658.017</ele>
        <time>2017-03-25T20:03:24Z</time>
      </trkpt>
      <trkpt lat="43.88057" lon="6.86066">
        <ele>652.508</ele>
        <time>2017-03-25T20:03:44Z</time>
      </trkpt>
      <trkpt lat="43.88026" lon="6.8603">
        <ele>648.684</ele>
        <time>2017-03-25T20:04:04Z</time>
      </trkpt>
      <trkpt lat="43.88008" lon="6.86043">
        <ele>644.957</ele>
        <time>2017-03-25T20:04:24Z</time>
      </trkpt>
      <trkpt lat="43.88005" lon="6.86099">
        <ele>642.095</ele>
        <time>2017-03-25T20:04:44Z</time>
      </trkpt>
      <trkpt lat="43.87998" lon="6.86161">
        <ele>638.385</ele>
        <time>2017-03-25T20:05:04Z</time>
      </trkpt>
      <trkpt lat="43.8797" lon="6.86192">
        <ele>637.225</ele>
        <time>2017-03-25T20:05:24Z</time>
      </trkpt>
      <trkpt lat="43.87943" lon="6.86273">
        <ele>635.549</ele>
        <time>2017-03-25T20:05:44Z</time>
      </trkpt>
      <trkpt lat="43.87923" lon="6.86351">
        <ele>629.858</ele>
        <time>2017-03-25T20:06:04Z</time>
      </trkpt>
      <trkpt lat="43.8791" lon="6.86366">
        <ele>628.746</ele>
        <time>2017-03-25T20:06:24Z</time>
      </trkpt>
      <trkpt lat="43.87892" lon="6.86426">
        <ele>622.928</ele>
        <time>2017-03-25T20:06:44Z</time>
      </trkpt>
      <trkpt lat="43.8786" lon="6.86447">
        <ele>619.989</ele>
        <time>2017-03-25T20:07:04Z</time>
      </trkpt>
      <trkpt lat="43.8782" lon="6.86457">
        <ele>616.517</ele>
        <time>2017-03-25T20:07:24Z</time>
      </trkpt>
      <trkpt lat="43.87811" lon="6.86509">
        <ele>614.008</ele>
        <time>2017-03-25T20:07:44Z</time>
      </trkpt>
      <trkpt lat="43.87791" lon="6.86547">
        <ele>611.635</ele>
        <time>2017-03-25T20:08:04Z</time>
      </trkpt>
      <trkpt lat="43.87774" lon="6.86597">
        <ele>608.678</ele>
        <time>2017-03-25T20:08:24Z</time>
      </trkpt>
      <trkpt lat="43.87596" lon="6.86658">
        <ele>600.416</ele>
        <time>2017-03-25T20:08:44Z</time>
      </trkpt>
      <trkpt lat="43.87546" lon="6.86746">
        <ele>596.166</ele>
        <time>2017-03-25T20:09:04Z</time>
      </trkpt>
      <trkpt lat="43.87508" lon="6.86757">
        <ele>596.386</ele>
        <time>2017-03-25T20:09:24Z</time>
      </trkpt>
      <trkpt lat="43.87438" lon="6.86818">
        <ele>593.64</ele>
        <time>2017-03-25T20:09:44Z</time>
      </trkpt>
      <trkpt lat="43.87381" lon="6.86835">
        <ele>593.239</ele>
        <time>2017-03-25T20:10:04Z</time>
      </trkpt>
      <trkpt lat="43.87322" lon="6.86828">
        <ele>590.057</ele>
        <time>2017-03-25T20:10:24Z</time>
      </trkpt>
      <trkpt lat="43.87184" lon="6.86914">
        <ele>592.762</ele>
        <time>2017-03-25T20:10:44Z</time>
      </trkpt>
      <trkpt lat="43.87191" lon="6.86982">
        <ele>593.983</ele>
        <time>2017-03-25T20:11:04Z</time>
      </trkpt>
      <trkpt lat="43.87177" lon="6.87016">
        <ele>599.011</ele>
        <time>2017-03-25T20:11:24Z</time>
      </trkpt>
      <trkpt lat="43.87171" lon="6.87086">
        <ele>599.508</ele>
        <time>2017-03-25T20:11:44Z</time>
      </trkpt>
      <trkpt lat="43.87142" lon="6.87096">
        <ele>603.769</ele>
        <time>2017-03-25T20:12:04Z</time>
      </trkpt>
      <trkpt lat="43.87095" lon="6.87083">
        <ele>609.632</ele>
        <time>2017-03-25T20:12:24Z</time>
      </trkpt>
      <trkpt lat="43.87052" lon="6.87034">
        <ele>612.06</ele>
        <time>2017-03-25T20:12:44Z</time>
      </trkpt>
      <trkpt lat="43.86975" lon="6.86988">
        <ele>622.26</ele>
        <time>2017-03-25T20:13:04Z</time>
      </trkpt>
      <trkpt lat="43.86918" lon="6.86995">
        <ele>622.77</ele>
        <time>2017-03-25T20:13:24Z</time>
      </trkpt>
      <trkpt lat="43.86892" lon="6.86941">
        <ele>640.914</ele>
        <time>2017-03-25T20:13:44Z</time>
      </trkpt>
      <trkpt lat="43.86938" lon="6.86945">
        <ele>641.263</ele>
        <time>2017-03-25T20:14:04Z</time>
      </trkpt>
      <trkpt lat="43.86913" lon="6.86926">
        <ele>649.861</ele>
        <time>2017-03-25T20:14:24Z</time>
      </trkpt>
      <trkpt lat="43.86901" lon="6.86918">
        <ele>654.056</ele>
        <time>2017-03-25T20:14:44Z</time>
      </trkpt>
      <trkpt lat="43.86845" lon="6.86906">
        <ele>660.759</ele>
        <time>2017-03-25T20:15:04Z</time>
      </trkpt>
      <trkpt lat="43.86801" lon="6.86866">
        <ele>683.014</ele>
        <time>2017-03-25T20:15:24Z</time>
      </trkpt>
      <trkpt lat="43.86773" lon="6.86864">
        <ele>689.308</ele>
        <time>2017-03-25T20:15:44Z</time>
      </trkpt>
      <trkpt lat="43.86707" lon="6.8694">
        <ele>692.738</ele>
        <time>2017-03-25T20:16:04Z</time>
      </trkpt>
      <trkpt lat="43.86671" lon="6.86948">
        <ele>697.881</ele>
        <time>2017-03-25T20:16:24Z</time>
      </trkpt>
      <trkpt lat="43.86638" lon="6.86946">
        <ele>708.319</ele>
        <time>2017-03-25T20:16:44Z</time>
      </trkpt>
      <trkpt lat="43.86614" lon="6.86962">
        <ele>718.929</ele>
        <time>2017-03-25T20:17:04Z</time>
      </trkpt>
      <trkpt lat="43.86613" lon="6.87">
        <ele>716.629</ele>
        <time>2017-03-25T20:17:24Z</time>
      </trkpt>
      <trkpt lat="43.86607" lon="6.8702">
        <ele>720.353</ele>
        <time>2017-03-25T20:17:44Z</time>
      </trkpt>
      <trkpt lat="43.86609" lon="6.87044">
        <ele>716.982</ele>
        <time>2017-03-25T20:18:04Z</time>
      </trkpt>
      <trkpt lat="43.8659" lon="6.87072">
        <ele>724.98</ele>
        <time>2017-03-25T20:18:24Z</time>
      </trkpt>
      <trkpt lat="43.86582" lon="6.87093">
        <ele>724.494</ele>
        <time>2017-03-25T20:18:44Z</time>
      </trkpt>
      <trkpt lat="43.86529" lon="6.87165">
        <ele>737.457</ele>
        <time>2017-03-25T20:19:04Z</time>
      </trkpt>
      <trkpt lat="43.86498" lon="6.87185">
        <ele>729.522</ele>
        <time>2017-03-25T20:19:24Z</time>
      </trkpt>
      <trkpt lat="43.86472" lon="6.87238">
        <ele>722.608</ele>
        <time>2017-03-25T20:19:44Z</time>
      </trkpt>
      <trkpt lat="43.86457" lon="6.87238">
        <ele>726.152</ele>
        <time>2017-03-25T20:20:04Z</time>
      </trkpt>
      <trkpt lat="43.86431" lon="6.87294">
        <ele>731.355</ele>
        <time>2017-03-25T20:20:24Z</time>
      </trkpt>
      <trkpt lat="43.86397" lon="6.87343">
        <ele>738.043</ele>
        <time>2017-03-25T20:20:44Z</time>
      </trkpt>
      <trkpt lat="43.86406" lon="6.87373">
        <ele>738.683</ele>
        <time>2017-03-25T20:21:04Z</time>
      </trkpt>
      <trkpt lat="43.86402" lon="6.87384">
        <ele>740.893</ele>
        <time>2017-03-25T20:21:24Z</time>
      </trkpt>
      <trkpt lat="43.86409" lon="6.87411">
        <ele>741.257</ele>
        <time>2017-03-25T20:21:44Z</time>
      </trkpt>
      <trkpt lat="43.86401" lon="6.87431">
        <ele>744.856</ele>
        <time>2017-03-25T20:22:04Z</time>
      </trkpt>
      <trkpt lat="43.86393" lon="6.87405">
        <ele>745.994</ele>
        <time>2017-03-25T20:22:24Z</time>
      </trkpt>
      <trkpt lat="43.86366" lon="6.8744">
        <ele>755.451</ele>
        <time>2017-03-25T20:22:44Z</time>
      </trkpt>
      <trkpt lat="43.86349" lon="6.87448">
        <ele>762.101</ele>
        <time>2017-03-25T20:23:04Z</time>
      </trkpt>
      <trkpt lat="43.86334" lon="6.87477">
        <ele>767.911</ele>
        <time>2017-03-25T20:23:24Z</time>
      </trkpt>
      <trkpt lat="43.86349" lon="6.87509">
        <ele>769.708</ele>
        <time>2017-03-25T20:23:44Z</time>
      </trkpt>
      <trkpt lat="43.8635" lon="6.87554">
        <ele>774.678</ele>
        <time>2017-03-25T20:24:04Z</time>
      </trkpt>
      <trkpt lat="43.86341" lon="6.87611">
        <ele>781.651</ele>
        <time>2017-03-25T20:24:24Z</time>
      </trkpt>
      <trkpt lat="43.86338" lon="6.87662">
        <ele>784.919</ele>
        <time>2017-03-25T20:24:44Z</time>
      </trkpt>
      <trkpt lat="43.86314" lon="6.87761">
        <ele>795.599</ele>
        <time>2017-03-25T20:25:04Z</time>
      </trkpt>
      <trkpt lat="43.86325" lon="6.87807">
        <ele>796.959</ele>
        <time>2017-03-25T20:25:24Z</time>
      </trkpt>
      <trkpt lat="43.86321" lon="6.87834">
        <ele>800.333</ele>
        <time>2017-03-25T20:25:44Z</time>
      </trkpt>
      <trkpt lat="43.86311" lon="6.8789">
        <ele>808.142</ele>
        <time>2017-03-25T20:26:04Z</time>
      </trkpt>
      <trkpt lat="43.86308" lon="6.87979">
        <ele>818.84</ele>
        <time>2017-03-25T20:26:24Z</time>
      </trkpt>
      <trkpt lat="43.86297" lon="6.88021">
        <ele>827.823</ele>
        <time>2017-03-25T20:26:44Z</time>
      </trkpt>
      <trkpt lat="43.86301" lon="6.88092">
        <ele>836.283</ele>
        <time>2017-03-25T20:27:04Z</time>
      </trkpt>
      <trkpt lat="43.86314" lon="6.88266">
        <ele>857.111</ele>
        <time>2017-03-25T20:27:24Z</time>
      </trkpt>
      <trkpt lat="43.86298" lon="6.88297">
        <ele>868.908</ele>
        <time>2017-03-25T20:27:44Z</time>
      </trkpt>
      <trkpt lat="43.86303" lon="6.88397">
        <ele>884.075</ele>
        <time>2017-03-25T20:28:04Z</time>
      </trkpt>
      <trkpt lat="43.86313" lon="6.88427">
        <ele>885.968</ele>
        <time>2017-03-25T20:28:24Z</time>
      </trkpt>
      <trkpt lat="43.86318" lon="6.8849">
        <ele>894.956</ele>
        <time>2017-03-25T20:28:44Z</time>
      </trkpt>
      <trkpt lat="43.86304" lon="6.88653">
        <ele>924.296</ele>
        <time>2017-03-25T20:29:04Z</time>
      </trkpt>
      <trkpt lat="43.86311" lon="6.88822">
        <ele>955.786</ele>
        <time>2017-03-25T20:29:24Z</time>
      </trkpt>
      <trkpt lat="43.86322" lon="6.88857">
        <ele>959.83</ele>
        <time>2017-03-25T20:29:44Z</time>
      </trkpt>
      <trkpt lat="43.8633" lon="6.88982">
        <ele>979.449</ele>
        <time>2017-03-25T20:30:04Z</time>
      </trkpt>
      <trkpt lat="43.86325" lon="6.8901">
        <ele>984.127</ele>
        <time>2017-03-25T20:30:24Z</time>
      </trkpt>
      <trkpt lat="43.86332" lon="6.89077">
        <ele>987.856</ele>
        <time>2017-03-25T20:30:44Z</time>
      </trkpt>
      <trkpt lat="43.86324" lon="6.891">
        <ele>989.059</ele>
        <time>2017-03-25T20:31:04Z</time>
      </trkpt>
      <trkpt lat="43.86313" lon="6.89093">
        <ele>990.414</ele>
        <time>2017-03-25T20:31:24Z</time>
      </trkpt>
      <trkpt lat="43.86309" lon="6.8909">
        <ele>991.108</ele>
        <time>2017-03-25T20:31:44Z</time>
      </trkpt>
      <trkpt lat="43.86268" lon="6.89074">
        <ele>998.398</ele>
        <time>2017-03-25T20:32:04Z</time>
      </trkpt>
      <trkpt lat="43.86245" lon="6.891">
        <ele>1000.931</ele>
        <time>2017-03-25T20:32:24Z</time>
      </trkpt>
      <trkpt lat="43.86248" lon="6.89023">
        <ele>1004.299</ele>
        <time>2017-03-25T20:32:44Z</time>
      </trkpt>
      <trkpt lat="43.86215" lon="6.89033">
        <ele>1013.139</ele>
        <time>2017-03-25T20:33:04Z</time>
      </trkpt>
      <trkpt lat="43.86198" lon="6.89066">
        <ele>1020.079</ele>
        <time>2017-03-25T20:33:24Z</time>
      </trkpt>
      <trkpt lat="43.86184" lon="6.89032">
        <ele>1028.113</ele>
        <time>2017-03-25T20:33:44Z</time>
      </trkpt>
      <trkpt lat="43.86171" lon="6.89068">
        <ele>1032.872</ele>
        <time>2017-03-25T20:34:04Z</time>
      </trkpt>
      <trkpt lat="43.86153" lon="6.89083">
        <ele>1040.32</ele>
        <time>2017-03-25T20:34:24Z</time>
      </trkpt>
      <trkpt lat="43.86135" lon="6.89119">
        <ele>1046.354</ele>
        <time>2017-03-25T20:34:44Z</time>
      </trkpt>
      <trkpt lat="43.86128" lon="6.89162">
        <ele>1052.056</ele>
        <time>2017-03-25T20:35:04Z</time>
      </trkpt>
      <trkpt lat="43.86116" lon="6.89187">
        <ele>1060.411</ele>
        <time>2017-03-25T20:35:24Z</time>
      </trkpt>
      <trkpt lat="43.86102" lon="6.8917">
        <ele>1068.408</ele>
        <time>2017-03-25T20:35:44Z</time>
      </trkpt>
      <trkpt lat="43.86092" lon="6.89145">
        <ele>1072.678</ele>
        <time>2017-03-25T20:36:04Z</time>
      </trkpt>
      <trkpt lat="43.86081" lon="6.89131">
        <ele>1077.511</ele>
        <time>2017-03-25T20:36:24Z</time>
      </trkpt>
      <trkpt lat="43.86075" lon="6.89159">
        <ele>1084.479</ele>
        <time>2017-03-25T20:36:44Z</time>
      </trkpt>
      <trkpt lat="43.86067" lon="6.89138">
        <ele>1086.819</ele>
        <time>2017-03-25T20:37:04Z</time>
      </trkpt>
      <trkpt lat="43.8606" lon="6.89169">
        <ele>1094.559</ele>
        <time>2017-03-25T20:37:24Z</time>
      </trkpt>
      <trkpt lat="43.86061" lon="6.89189">
        <ele>1095.953</ele>
        <time>2017-03-25T20:37:44Z</time>
      </trkpt>
      <trkpt lat="43.86058" lon="6.89223">
        <ele>1102.382</ele>
        <time>2017-03-25T20:38:04Z</time>
      </trkpt>
      <trkpt lat="43.86063" lon="6.89237">
        <ele>1101.05</ele>
        <time>2017-03-25T20:38:24Z</time>
      </trkpt>
      <trkpt lat="43.86052" lon="6.89283">
        <ele>1111.062</ele>
        <time>2017-03-25T20:38:44Z</time>
      </trkpt>
      <trkpt lat="43.86041" lon="6.89365">
        <ele>1119.183</ele>
        <time>2017-03-25T20:39:04Z</time>
      </trkpt>
      <trkpt lat="43.8603" lon="6.89397">
        <ele>1127.511</ele>
        <time>2017-03-25T20:39:24Z</time>
      </trkpt>
      <trkpt lat="43.86019" lon="6.89374">
        <ele>1133.208</ele>
        <time>2017-03-25T20:39:44Z</time>
      </trkpt>
      <trkpt lat="43.86001" lon="6.89421">
        <ele>1141.599</ele>
        <time>2017-03-25T20:40:04Z</time>
      </trkpt>
      <trkpt lat="43.85976" lon="6.89461">
        <ele>1148.932</ele>
        <time>2017-03-25T20:40:24Z</time>
      </trkpt>
      <trkpt lat="43.85933" lon="6.89476">
        <ele>1158.38</ele>
        <time>2017-03-25T20:40:44Z</time>
      </trkpt>
      <trkpt lat="43.85906" lon="6.89506">
        <ele>1153.22</ele>
        <time>2017-03-25T20:41:04Z</time>
      </trkpt>
      <trkpt lat="43.85888" lon="6.8948">
        <ele>1152.66</ele>
        <time>2017-03-25T20:41:24Z</time>
      </trkpt>
      <trkpt lat="43.85874" lon="6.89447">
        <ele>1152.784</ele>
        <time>2017-03-25T20:41:44Z</time>
      </trkpt>
      <trkpt lat="43.85843" lon="6.89434">
        <ele>1142.683</ele>
        <time>2017-03-25T20:42:04Z</time>
      </trkpt>
      <trkpt lat="43.85835" lon="6.89407">
        <ele>1142.551</ele>
        <time>2017-03-25T20:42:24Z</time>
      </trkpt>
      <trkpt lat="43.85821" lon="6.89402">
        <ele>1135.629</ele>
        <time>2017-03-25T20:42:44Z</time>
      </trkpt>
      <trkpt lat="43.85806" lon="6.89414">
        <ele>1125.7</ele>
        <time>2017-03-25T20:43:04Z</time>
      </trkpt>
      <trkpt lat="43.85793" lon="6.89384">
        <ele>1122.22</ele>
        <time>2017-03-25T20:43:24Z</time>
      </trkpt>
      <trkpt lat="43.85783" lon="6.8937">
        <ele>1118.608</ele>
        <time>2017-03-25T20:43:44Z</time>
      </trkpt>
      <trkpt lat="43.85751" lon="6.89315">
        <ele>1105.425</ele>
        <time>2017-03-25T20:44:04Z</time>
      </trkpt>
      <trkpt lat="43.85738" lon="6.89303">
        <ele>1100.248</ele>
        <time>2017-03-25T20:44:24Z</time>
      </trkpt>
      <trkpt lat="43.85719" lon="6.89308">
        <ele>1090.236</ele>
        <time>2017-03-25T20:44:44Z</time>
      </trkpt>
      <trkpt lat="43.85708" lon="6.8933">
        <ele>1082.086</ele>
        <time>2017-03-25T20:45:04Z</time>
      </trkpt>
      <trkpt lat="43.85707" lon="6.89366">
        <ele>1076.356</ele>
        <time>2017-03-25T20:45:24Z</time>
      </trkpt>
      <trkpt lat="43.8569" lon="6.89393">
        <ele>1064.48</ele>
        <time>2017-03-25T20:45:44Z</time>
      </trkpt>
      <trkpt lat="43.85688" lon="6.89457">
        <ele>1049.889</ele>
        <time>2017-03-25T20:46:04Z</time>
      </trkpt>
      <trkpt lat="43.85696" lon="6.89491">
        <ele>1047.137</ele>
        <time>2017-03-25T20:46:24Z</time>
      </trkpt>
      <trkpt lat="43.85689" lon="6.89535">
        <ele>1036.353</ele>
        <time>2017-03-25T20:46:44Z</time>
      </trkpt>
      <trkpt lat="43.85675" lon="6.89569">
        <ele>1024.704</ele>
        <time>2017-03-25T20:47:04Z</time>
      </trkpt>
      <trkpt lat="43.85679" lon="6.89595">
        <ele>1021.914</ele>
        <time>2017-03-25T20:47:24Z</time>
      </trkpt>
      <trkpt lat="43.85662" lon="6.89581">
        <ele>1017.408</ele>
        <time>2017-03-25T20:47:44Z</time>
      </trkpt>
      <trkpt lat="43.85653" lon="6.89585">
        <ele>1012.768</ele>
        <time>2017-03-25T20:48:04Z</time>
      </trkpt>
      <trkpt lat="43.85648" lon="6.8957">
        <ele>1009.421</ele>
        <time>2017-03-25T20:48:24Z</time>
      </trkpt>
      <trkpt lat="43.8564" lon="6.89577">
        <ele>1004.989</ele>
        <time>2017-03-25T20:48:44Z</time>
      </trkpt>
      <trkpt lat="43.85633" lon="6.89557">
        <ele>996.879</ele>
        <time>2017-03-25T20:49:04Z</time>
      </trkpt>
      <trkpt lat="43.8563" lon="6.89534">
        <ele>995.339</ele>
        <time>2017-03-25T20:49:24Z</time>
      </trkpt>
      <trkpt lat="43.85608" lon="6.89511">
        <ele>984.673</ele>
        <time>2017-03-25T20:49:44Z</time>
      </trkpt>
      <trkpt lat="43.8558" lon="6.89494">
        <ele>976.662</ele>
        <time>2017-03-25T20:50:04Z</time>
      </trkpt>
      <trkpt lat="43.8556" lon="6.89488">
        <ele>970.23</ele>
        <time>2017-03-25T20:50:24Z</time>
      </trkpt>
      <trkpt lat="43.85538" lon="6.89476">
        <ele>962.677</ele>
        <time>2017-03-25T20:50:44Z</time>
      </trkpt>
      <trkpt lat="43.8553" lon="6.89482">
        <ele>957.761</ele>
        <time>2017-03-25T20:51:04Z</time>
      </trkpt>
      <trkpt lat="43.85536" lon="6.89515">
        <ele>953.227</ele>
        <time>2017-03-25T20:51:24Z</time>
      </trkpt>
      <trkpt lat="43.85551" lon="6.89547">
        <ele>946.808</ele>
        <time>2017-03-25T20:51:44Z</time>
      </trkpt>
      <trkpt lat="43.85562" lon="6.89571">
        <ele>940.54</ele>
        <time>2017-03-25T20:52:04Z</time>
      </trkpt>
      <trkpt lat="43.85566" lon="6.89637">
        <ele>922.253</ele>
        <time>2017-03-25T20:52:24Z</time>
      </trkpt>
      <trkpt lat="43.85597" lon="6.89688">
        <ele>919.571</ele>
        <time>2017-03-25T20:52:44Z</time>
      </trkpt>
      <trkpt lat="43.85584" lon="6.89685">
        <ele>915.071</ele>
        <time>2017-03-25T20:53:04Z</time>
      </trkpt>
      <trkpt lat="43.8556" lon="6.89666">
        <ele>907.061</ele>
        <time>2017-03-25T20:53:24Z</time>
      </trkpt>
      <trkpt lat="43.85551" lon="6.89675">
        <ele>897.415</ele>
        <time>2017-03-25T20:53:44Z</time>
      </trkpt>
      <trkpt lat="43.85559" lon="6.89688">
        <ele>898.594</ele>
        <time>2017-03-25T20:54:04Z</time>
      </trkpt>
      <trkpt lat="43.85562" lon="6.89708">
        <ele>892.632</ele>
        <time>2017-03-25T20:54:24Z</time>
      </trkpt>
      <trkpt lat="43.85579" lon="6.89731">
        <ele>891.711</ele>
        <time>2017-03-25T20:54:44Z</time>
      </trkpt>
      <trkpt lat="43.85588" lon="6.89771">
        <ele>879.521</ele>
        <time>2017-03-25T20:55:04Z</time>
      </trkpt>
      <trkpt lat="43.85563" lon="6.8976">
        <ele>873.103</ele>
        <time>2017-03-25T20:55:24Z</time>
      </trkpt>
      <trkpt lat="43.85549" lon="6.89759">
        <ele>867.708</ele>
        <time>2017-03-25T20:55:44Z</time>
      </trkpt>
      <trkpt lat="43.85537" lon="6.89747">
        <ele>866.994</ele>
        <time>2017-03-25T20:56:04Z</time>
      </trkpt>
      <trkpt lat="43.85511" lon="6.89754">
        <ele>854.147</ele>
        <time>2017-03-25T20:56:24Z</time>
      </trkpt>
      <trkpt lat="43.85544" lon="6.89794">
        <ele>852.025</ele>
        <time>2017-03-25T20:56:44Z</time>
      </trkpt>
      <trkpt lat="43.85559" lon="6.89818">
        <ele>849.685</ele>
        <time>2017-03-25T20:57:04Z</time>
      </trkpt>
      <trkpt lat="43.85583" lon="6.89955">
        <ele>823.125</ele>
        <time>2017-03-25T20:57:24Z</time>
      </trkpt>
      <trkpt lat="43.85562" lon="6.89948">
        <ele>818.079</ele>
        <time>2017-03-25T20:57:44Z</time>
      </trkpt>
      <trkpt lat="43.85569" lon="6.89982">
        <ele>812.258</ele>
        <time>2017-03-25T20:58:04Z</time>
      </trkpt>
      <trkpt lat="43.85547" lon="6.89991">
        <ele>802.966</ele>
        <time>2017-03-25T20:58:24Z</time>
      </trkpt>
      <trkpt lat="43.85537" lon="6.89997">
        <ele>798.627</ele>
        <time>2017-03-25T20:58:44Z</time>
      </trkpt>
      <trkpt lat="43.85526" lon="6.90016">
        <ele>791.968</ele>
        <time>2017-03-25T20:59:04Z</time>
      </trkpt>
      <trkpt lat="43.85509" lon="6.90014">
        <ele>785.614</ele>
        <time>2017-03-25T20:59:24Z</time>
      </trkpt>
      <trkpt lat="43.85512" lon="6.90036">
        <ele>783.508</ele>
        <time>2017-03-25T20:59:44Z</time>
      </trkpt>
      <trkpt lat="43.85531" lon="6.90081">
        <ele>782.465</ele>
        <time>2017-03-25T21:00:04Z</time>
      </trkpt>
      <trkpt lat="43.85549" lon="6.9013">
        <ele>772.268</ele>
        <time>2017-03-25T21:00:24Z</time>
      </trkpt>
      <trkpt lat="43.85529" lon="6.90113">
        <ele>771.846</ele>
        <time>2017-03-25T21:00:44Z</time>
      </trkpt>
      <trkpt lat="43.85545" lon="6.90156">
        <ele>763.566</ele>
        <time>2017-03-25T21:01:04Z</time>
      </trkpt>
      <trkpt lat="43.85566" lon="6.90171">
        <ele>763.496</ele>
        <time>2017-03-25T21:01:24Z</time>
      </trkpt>
      <trkpt lat="43.85574" lon="6.90198">
        <ele>758.54</ele>
        <time>2017-03-25T21:01:44Z</time>
      </trkpt>
      <trkpt lat="43.85549" lon="6.90187">
        <ele>755.599</ele>
        <time>2017-03-25T21:02:04Z</time>
      </trkpt>
      <trkpt lat="43.85545" lon="6.90197">
        <ele>751.857</ele>
        <time>2017-03-25T21:02:24Z</time>
      </trkpt>
      <trkpt lat="43.85549" lon="6.90207">
        <ele>750.069</ele>
        <time>2017-03-25T21:02:44Z</time>
      </trkpt>
      <trkpt lat="43.85527" lon="6.90207">
        <ele>743.804</ele>
        <time>2017-03-25T21:03:04Z</time>
      </trkpt>
      <trkpt lat="43.85485" lon="6.90185">
        <ele>738.324</ele>
        <time>2017-03-25T21:03:24Z</time>
      </trkpt>
      <trkpt lat="43.8547" lon="6.90186">
        <ele>732.908</ele>
        <time>2017-03-25T21:03:44Z</time>
      </trkpt>
      <trkpt lat="43.85434" lon="6.90127">
        <ele>727.549</ele>
        <time>2017-03-25T21:04:04Z</time>
      </trkpt>
      <trkpt lat="43.85416" lon="6.90114">
        <ele>719.732</ele>
        <time>2017-03-25T21:04:24Z</time>
      </trkpt>
      <trkpt lat="43.85402" lon="6.90086">
        <ele>715.76</ele>
        <time>2017-03-25T21:04:44Z</time>
      </trkpt>
      <trkpt lat="43.85398" lon="6.90063">
        <ele>717.06</ele>
        <time>2017-03-25T21:05:04Z</time>
      </trkpt>
      <trkpt lat="43.85382" lon="6.90036">
        <ele>710.13</ele>
        <time>2017-03-25T21:05:24Z</time>
      </trkpt>
      <trkpt lat="43.85368" lon="6.89999">
        <ele>707.164</ele>
        <time>2017-03-25T21:05:44Z</time>
      </trkpt>
      <trkpt lat="43.85342" lon="6.89989">
        <ele>695.623</ele>
        <time>2017-03-25T21:06:04Z</time>
      </trkpt>
      <trkpt lat="43.85323" lon="6.89959">
        <ele>692.721</ele>
        <time>2017-03-25T21:06:24Z</time>
      </trkpt>
      <trkpt lat="43.85311" lon="6.89951">
        <ele>688.287</ele>
        <time>2017-03-25T21:06:44Z</time>
      </trkpt>
      <trkpt lat="43.85283" lon="6.89921">
        <ele>686.142</ele>
        <time>2017-03-25T21:07:04Z</time>
      </trkpt>
      <trkpt lat="43.85218" lon="6.89925">
        <ele>663.126</ele>
        <time>2017-03-25T21:07:24Z</time>
      </trkpt>
      <trkpt lat="43.85197" lon="6.89906">
        <ele>660.708</ele>
        <time>2017-03-25T21:07:44Z</time>
      </trkpt>
      <trkpt lat="43.85189" lon="6.89932">
        <ele>652.071</ele>
        <time>2017-03-25T21:08:04Z</time>
      </trkpt>
      <trkpt lat="43.85161" lon="6.89927">
        <ele>642.094</ele>
        <time>2017-03-25T21:08:24Z</time>
      </trkpt>
      <trkpt lat="43.85154" lon="6.89909">
        <ele>637.292</ele>
        <time>2017-03-25T21:08:44Z</time>
      </trkpt>
      <trkpt lat="43.85145" lon="6.89931">
        <ele>633.082</ele>
        <time>2017-03-25T21:09:04Z</time>
      </trkpt>
      <trkpt lat="43.85125" lon="6.89944">
        <ele>625.922</ele>
        <time>2017-03-25T21:09:24Z</time>
      </trkpt>
      <trkpt lat="43.85134" lon="6.89986">
        <ele>623.486</ele>
        <time>2017-03-25T21:09:44Z</time>
      </trkpt>
      <trkpt lat="43.8517" lon="6.89978">
        <ele>630.625</ele>
        <time>2017-03-25T21:10:04Z</time>
      </trkpt>
      <trkpt lat="43.85206" lon="6.89998">
        <ele>629.023</ele>
        <time>2017-03-25T21:10:24Z</time>
      </trkpt>
      <trkpt lat="43.85227" lon="6.90066">
        <ele>622.959</ele>
        <time>2017-03-25T21:10:44Z</time>
      </trkpt>
      <trkpt lat="43.8521" lon="6.90163">
        <ele>616.203</ele>
        <time>2017-03-25T21:11:04Z</time>
      </trkpt>
      <trkpt lat="43.85242" lon="6.90215">
        <ele>620.623</ele>
        <time>2017-03-25T21:11:24Z</time>
      </trkpt>
      <trkpt lat="43.85258" lon="6.90277">
        <ele>617.008</ele>
        <time>2017-03-25T21:11:44Z</time>
      </trkpt>
      <trkpt lat="43.85275" lon="6.90308">
        <ele>618.298</ele>
        <time>2017-03-25T21:12:04Z</time>
      </trkpt>
      <trkpt lat="43.85295" lon="6.90397">
        <ele>609.811</ele>
        <time>2017-03-25T21:12:24Z</time>
      </trkpt>
      <trkpt lat="43.85317" lon="6.90436">
        <ele>608.989</ele>
        <time>2017-03-25T21:12:44Z</time>
      </trkpt>
      <trkpt lat="43.85338" lon="6.90486">
        <ele>604.399</ele>
        <time>2017-03-25T21:13:04Z</time>
      </trkpt>
      <trkpt lat="43.8535" lon="6.90498">
        <ele>604.899</ele>
        <time>2017-03-25T21:13:24Z</time>
      </trkpt>
      <trkpt lat="43.85385" lon="6.90584">
        <ele>601.123</ele>
        <time>2017-03-25T21:13:44Z</time>
      </trkpt>
      <trkpt lat="43.85391" lon="6.90662">
        <ele>591.092</ele>
        <time>2017-03-25T21:14:04Z</time>
      </trkpt>
      <trkpt lat="43.85391" lon="6.90698">
        <ele>583.72</ele>
        <time>2017-03-25T21:14:24Z</time>
      </trkpt>
      <trkpt lat="43.85397" lon="6.90738">
        <ele>576.837</ele>
        <time>2017-03-25T21:14:44Z</time>
      </trkpt>
      <trkpt lat="43.85391" lon="6.90758">
        <ele>569.749</ele>
        <time>2017-03-25T21:15:04Z</time>
      </trkpt>
      <trkpt lat="43.85393" lon="6.90776">
        <ele>566.013</ele>
        <time>2017-03-25T21:15:24Z</time>
      </trkpt>
      <trkpt lat="43.85405" lon="6.90795">
        <ele>565.608</ele>
        <time>2017-03-25T21:15:44Z</time>
      </trkpt>
      <trkpt lat="43.85407" lon="6.90811">
        <ele>562.316</ele>
        <time>2017-03-25T21:16:04Z</time>
      </trkpt>
      <trkpt lat="43.85415" lon="6.90823">
        <ele>562.079</ele>
        <time>2017-03-25T21:16:24Z</time>
      </trkpt>
      <trkpt lat="43.85418" lon="6.90866">
        <ele>553.567</ele>
        <time>2017-03-25T21:16:44Z</time>
      </trkpt>
      <trkpt lat="43.85404" lon="6.90917">
        <ele>540.987</ele>
        <time>2017-03-25T21:17:04Z</time>
      </trkpt>
      <trkpt lat="43.85403" lon="6.90961">
        <ele>533.627</ele>
        <time>2017-03-25T21:17:24Z</time>
      </trkpt>
      <trkpt lat="43.85397" lon="6.90984">
        <ele>530.171</ele>
        <time>2017-03-25T21:17:44Z</time>
      </trkpt>
      <trkpt lat="43.85396" lon="6.91029">
        <ele>527.89</ele>
        <time>2017-03-25T21:18:04Z</time>
      </trkpt>
      <trkpt lat="43.85402" lon="6.9105">
        <ele>526.168</ele>
        <time>2017-03-25T21:18:24Z</time>
      </trkpt>
      <trkpt lat="43.8544" lon="6.91106">
        <ele>516.086</ele>
        <time>2017-03-25T21:18:44Z</time>
      </trkpt>
      <trkpt lat="43.85449" lon="6.91109">
        <ele>515.96</ele>
        <time>2017-03-25T21:19:04Z</time>
      </trkpt>
      <trkpt lat="43.85441" lon="6.91123">
        <ele>512.326</ele>
        <time>2017-03-25T21:19:24Z</time>
      </trkpt>
      <trkpt lat="43.85445" lon="6.91138">
        <ele>509.108</ele>
        <time>2017-03-25T21:19:44Z</time>
      </trkpt>
      <trkpt lat="43.85425" lon="6.91145">
        <ele>506.161</ele>
        <time>2017-03-25T21:20:04Z</time>
      </trkpt>
      <trkpt lat="43.85397" lon="6.91169">
        <ele>498.594</ele>
        <time>2017-03-25T21:20:24Z</time>
      </trkpt>
      <trkpt lat="43.8538" lon="6.912">
        <ele>489.282</ele>
        <time>2017-03-25T21:20:44Z</time>
      </trkpt>
      <trkpt lat="43.85343" lon="6.91221">
        <ele>481.162</ele>
        <time>2017-03-25T21:21:04Z</time>
      </trkpt>
      <trkpt lat="43.85343" lon="6.91232">
        <ele>477.562</ele>
        <time>2017-03-25T21:21:24Z</time>
      </trkpt>
      <trkpt lat="43.8533" lon="6.91236">
        <ele>474.876</ele>
        <time>2017-03-25T21:21:44Z</time>
      </trkpt>
      <trkpt lat="43.85323" lon="6.91268">
        <ele>463.335</ele>
        <time>2017-03-25T21:22:04Z</time>
      </trkpt>
      <trkpt lat="43.85339" lon="6.91293">
        <ele>458.423</ele>
        <time>2017-03-25T21:22:24Z</time>
      </trkpt>
      <trkpt lat="43.8535" lon="6.91328">
        <ele>453.151</ele>
        <time>2017-03-25T21:22:44Z</time>
      </trkpt>
      <trkpt lat="43.85335" lon="6.91306">
        <ele>455.101</ele>
        <time>2017-03-25T21:23:04Z</time>
      </trkpt>
      <trkpt lat="43.85266" lon="6.91304">
        <ele>451.911</ele>
        <time>2017-03-25T21:23:24Z</time>
      </trkpt>
      <trkpt lat="43.85256" lon="6.91331">
        <ele>450.808</ele>
        <time>2017-03-25T21:23:44Z</time>
      </trkpt>
      <trkpt lat="43.85274" lon="6.91353">
        <ele>450.458</ele>
        <time>2017-03-25T21:24:04Z</time>
      </trkpt>
      <trkpt lat="43.85247" lon="6.91391">
        <ele>453.551</ele>
        <time>2017-03-25T21:24:24Z</time>
      </trkpt>
      <trkpt lat="43.85231" lon="6.91467">
        <ele>449.389</ele>
        <time>2017-03-25T21:24:44Z</time>
      </trkpt>
      <trkpt lat="43.85239" lon="6.91508">
        <ele>448.449</ele>
        <time>2017-03-25T21:25:04Z</time>
      </trkpt>
      <trkpt lat="43.85256" lon="6.91544">
        <ele>444.359</ele>
        <time>2017-03-25T21:25:24Z</time>
      </trkpt>
      <trkpt lat="43.85258" lon="6.91571">
        <ele>443.273</ele>
        <time>2017-03-25T21:25:44Z</time>
      </trkpt>
      <trkpt lat="43.85223" lon="6.91625">
        <ele>444.082</ele>
        <time>2017-03-25T21:26:04Z</time>
      </trkpt>
      <trkpt lat="43.8519" lon="6.91637">
        <ele>446.82</ele>
        <time>2017-03-25T21:26:24Z</time>
      </trkpt>
      <trkpt lat="43.8516" lon="6.91642">
        <ele>449.996</ele>
        <time>2017-03-25T21:26:44Z</time>
      </trkpt>
      <trkpt lat="43.85124" lon="6.91689">
        <ele>446.931</ele>
        <time>2017-03-25T21:27:04Z</time>
      </trkpt>
      <trkpt lat="43.8512" lon="6.9171">
        <ele>446.324</ele>
        <time>2017-03-25T21:27:24Z</time>
      </trkpt>
      <trkpt lat="43.85102" lon="6.91709">
        <ele>452.108</ele>
        <time>2017-03-25T21:27:44Z</time>
      </trkpt>
      <trkpt lat="43.85055" lon="6.91756">
        <ele>463.972</ele>
        <time>2017-03-25T21:28:04Z</time>
      </trkpt>
      <trkpt lat="43.85046" lon="6.9177">
        <ele>466.275</ele>
        <time>2017-03-25T21:28:24Z</time>
      </trkpt>
      <trkpt lat="43.85027" lon="6.91762">
        <ele>474.173</ele>
        <time>2017-03-25T21:28:44Z</time>
      </trkpt>
      <trkpt lat="43.84995" lon="6.91767">
        <ele>480.053</ele>
        <time>2017-03-25T21:29:04Z</time>
      </trkpt>
      <trkpt lat="43.84981" lon="6.91774">
        <ele>481.793</ele>
        <time>2017-03-25T21:29:24Z</time>
      </trkpt>
      <trkpt lat="43.84969" lon="6.91766">
        <ele>486.347</ele>
        <time>2017-03-25T21:29:44Z</time>
      </trkpt>
      <trkpt lat="43.84974" lon="6.91786">
        <ele>484.716</ele>
        <time>2017-03-25T21:30:04Z</time>
      </trkpt>
      <trkpt lat="43.84988" lon="6.91805">
        <ele>484.864</ele>
        <time>2017-03-25T21:30:24Z</time>
      </trkpt>
      <trkpt lat="43.84984" lon="6.91826">
        <ele>491.237</ele>
        <time>2017-03-25T21:30:44Z</time>
      </trkpt>
      <trkpt lat="43.85001" lon="6.91869">
        <ele>494.449</ele>
        <time>2017-03-25T21:31:04Z</time>
      </trkpt>
      <trkpt lat="43.84977" lon="6.9191">
        <ele>504.513</ele>
        <time>2017-03-25T21:31:24Z</time>
      </trkpt>
      <trkpt lat="43.84976" lon="6.91893">
        <ele>504.608</ele>
        <time>2017-03-25T21:31:44Z</time>
      </trkpt>
      <trkpt lat="43.84966" lon="6.91878">
        <ele>506.666</ele>
        <time>2017-03-25T21:32:04Z</time>
      </trkpt>
      <trkpt lat="43.84968" lon="6.919">
        <ele>508.549</ele>
        <time>2017-03-25T21:32:24Z</time>
      </trkpt>
      <trkpt lat="43.84959" lon="6.91893">
        <ele>512.297</ele>
        <time>2017-03-25T21:32:44Z</time>
      </trkpt>
      <trkpt lat="43.84946" lon="6.91922">
        <ele>520.217</ele>
        <time>2017-03-25T21:33:04Z</time>
      </trkpt>
      <trkpt lat="43.84941" lon="6.91911">
        <ele>522.577</ele>
        <time>2017-03-25T21:33:24Z</time>
      </trkpt>
      <trkpt lat="43.84926" lon="6.91941">
        <ele>530.611</ele>
        <time>2017-03-25T21:33:44Z</time>
      </trkpt>
      <trkpt lat="43.84924" lon="6.91932">
        <ele>531.88</ele>
        <time>2017-03-25T21:34:04Z</time>
      </trkpt>
      <trkpt lat="43.84908" lon="6.91966">
        <ele>534.468</ele>
        <time>2017-03-25T21:34:24Z</time>
      </trkpt>
      <trkpt lat="43.84902" lon="6.91965">
        <ele>537.568</ele>
        <time>2017-03-25T21:34:44Z</time>
      </trkpt>
      <trkpt lat="43.84898" lon="6.91901">
        <ele>547.642</ele>
        <time>2017-03-25T21:35:04Z</time>
      </trkpt>
      <trkpt lat="43.84888" lon="6.9188">
        <ele>551.526</ele>
        <time>2017-03-25T21:35:24Z</time>
      </trkpt>
      <trkpt lat="43.84877" lon="6.91874">
        <ele>558.408</ele>
        <time>2017-03-25T21:35:44Z</time>
      </trkpt>
      <trkpt lat="43.84873" lon="6.91857">
        <ele>559.269</ele>
        <time>2017-03-25T21:36:04Z</time>
      </trkpt>
      <trkpt lat="43.84866" lon="6.91858">
        <ele>564.532</ele>
        <time>2017-03-25T21:36:24Z</time>
      </trkpt>
      <trkpt lat="43.84866" lon="6.91903">
        <ele>568.87</ele>
        <time>2017-03-25T21:36:44Z</time>
      </trkpt>
      <trkpt lat="43.84851" lon="6.91938">
        <ele>575.93</ele>
        <time>2017-03-25T21:37:04Z</time>
      </trkpt>
      <trkpt lat="43.8481" lon="6.91951">
        <ele>588.24</ele>
        <time>2017-03-25T21:37:24Z</time>
      </trkpt>
      <trkpt lat="43.848" lon="6.91968">
        <ele>584.044</ele>
        <time>2017-03-25T21:37:44Z</time>
      </trkpt>
      <trkpt lat="43.84801" lon="6.91986">
        <ele>578.283</ele>
        <time>2017-03-25T21:38:04Z</time>
      </trkpt>
      <trkpt lat="43.84772" lon="6.9203">
        <ele>587.071</ele>
        <time>2017-03-25T21:38:24Z</time>
      </trkpt>
      <trkpt lat="43.84765" lon="6.92049">
        <ele>589.474</ele>
        <time>2017-03-25T21:38:44Z</time>
      </trkpt>
      <trkpt lat="43.84766" lon="6.92096">
        <ele>589.156</ele>
        <time>2017-03-25T21:39:04Z</time>
      </trkpt>
      <trkpt lat="43.84738" lon="6.92166">
        <ele>605.321</ele>
        <time>2017-03-25T21:39:24Z</time>
      </trkpt>
      <trkpt lat="43.8474" lon="6.92212">
        <ele>609.108</ele>
        <time>2017-03-25T21:39:44Z</time>
      </trkpt>
      <trkpt lat="43.8473" lon="6.92192">
        <ele>612.28</ele>
        <time>2017-03-25T21:40:04Z</time>
      </trkpt>
      <trkpt lat="43.84723" lon="6.92218">
        <ele>615.763</ele>
        <time>2017-03-25T21:40:24Z</time>
      </trkpt>
      <trkpt lat="43.84712" lon="6.92234">
        <ele>619.831</ele>
        <time>2017-03-25T21:40:44Z</time>
      </trkpt>
      <trkpt lat="43.84716" lon="6.92207">
        <ele>619.151</ele>
        <time>2017-03-25T21:41:04Z</time>
      </trkpt>
      <trkpt lat="43.84702" lon="6.92182">
        <ele>626.911</ele>
        <time>2017-03-25T21:41:24Z</time>
      </trkpt>
      <trkpt lat="43.84692" lon="6.92183">
        <ele>633.425</ele>
        <time>2017-03-25T21:41:44Z</time>
      </trkpt>
      <trkpt lat="43.84697" lon="6.92206">
        <ele>629.544</ele>
        <time>2017-03-25T21:42:04Z</time>
      </trkpt>
      <trkpt lat="43.8468" lon="6.92222">
        <ele>644.772</ele>
        <time>2017-03-25T21:42:24Z</time>
      </trkpt>
      <trkpt lat="43.84677" lon="6.92233">
        <ele>645.827</ele>
        <time>2017-03-25T21:42:44Z</time>
      </trkpt>
      <trkpt lat="43.84654" lon="6.9227">
        <ele>656.268</ele>
        <time>2017-03-25T21:43:04Z</time>
      </trkpt>
      <trkpt lat="43.84663" lon="6.92234">
        <ele>658.414</ele>
        <time>2017-03-25T21:43:24Z</time>
      </trkpt>
      <trkpt lat="43.84644" lon="6.92262">
        <ele>667.008</ele>
        <time>2017-03-25T21:43:44Z</time>
      </trkpt>
      <trkpt lat="43.84627" lon="6.92274">
        <ele>674.685</ele>
        <time>2017-03-25T21:44:04Z</time>
      </trkpt>
      <trkpt lat="43.84637" lon="6.92249">
        <ele>676.748</ele>
        <time>2017-03-25T21:44:24Z</time>
      </trkpt>
      <trkpt lat="43.84624" lon="6.92259">
        <ele>682.036</ele>
        <time>2017-03-25T21:44:44Z</time>
      </trkpt>
      <trkpt lat="43.84633" lon="6.92227">
        <ele>684.916</ele>
        <time>2017-03-25T21:45:04Z</time>
      </trkpt>
      <trkpt lat="43.84603" lon="6.92274">
        <ele>692.216</ele>
        <time>2017-03-25T21:45:24Z</time>
      </trkpt>
      <trkpt lat="43.84592" lon="6.92308">
        <ele>694.85</ele>
        <time>2017-03-25T21:45:44Z</time>
      </trkpt>
      <trkpt lat="43.84591" lon="6.92333">
        <ele>692.929</ele>
        <time>2017-03-25T21:46:04Z</time>
      </trkpt>
      <trkpt lat="43.84567" lon="6.9237">
        <ele>700.737</ele>
        <time>2017-03-25T21:46:24Z</time>
      </trkpt>
      <trkpt lat="43.84557" lon="6.92408">
        <ele>696.056</ele>
        <time>2017-03-25T21:46:44Z</time>
      </trkpt>
      <trkpt lat="43.84552" lon="6.92388">
        <ele>706.459</ele>
        <time>2017-03-25T21:47:04Z</time>
      </trkpt>
      <trkpt lat="43.84544" lon="6.92402">
        <ele>707.814</ele>
        <time>2017-03-25T21:47:24Z</time>
      </trkpt>
      <trkpt lat="43.84523" lon="6.92401">
        <ele>723.108</ele>
        <time>2017-03-25T21:47:44Z</time>
      </trkpt>
      <trkpt lat="43.84514" lon="6.92412">
        <ele>722.738</ele>
        <time>2017-03-25T21:48:04Z</time>
      </trkpt>
      <trkpt lat="43.8451" lon="6.92442">
        <ele>721.081</ele>
        <time>2017-03-25T21:48:24Z</time>
      </trkpt>
      <trkpt lat="43.84516" lon="6.9251">
        <ele>723.919</ele>
        <time>2017-03-25T21:48:44Z</time>
      </trkpt>
      <trkpt lat="43.84506" lon="6.92535">
        <ele>735.189</ele>
        <time>2017-03-25T21:49:04Z</time>
      </trkpt>
      <trkpt lat="43.84519" lon="6.92569">
        <ele>734.369</ele>
        <time>2017-03-25T21:49:24Z</time>
      </trkpt>
      <trkpt lat="43.8451" lon="6.92586">
        <ele>739.183</ele>
        <time>2017-03-25T21:49:44Z</time>
      </trkpt>
      <trkpt lat="43.84487" lon="6.92585">
        <ele>747.952</ele>
        <time>2017-03-25T21:50:04Z</time>
      </trkpt>
      <trkpt lat="43.84481" lon="6.92603">
        <ele>741.59</ele>
        <time>2017-03-25T21:50:24Z</time>
      </trkpt>
      <trkpt lat="43.84436" lon="6.92611">
        <ele>750.332</ele>
        <time>2017-03-25T21:50:44Z</time>
      </trkpt>
      <trkpt lat="43.84447" lon="6.92595">
        <ele>758.192</ele>
        <time>2017-03-25T21:51:04Z</time>
      </trkpt>
      <trkpt lat="43.84422" lon="6.9259">
        <ele>764.311</ele>
        <time>2017-03-25T21:51:24Z</time>
      </trkpt>
      <trkpt lat="43.84381" lon="6.92569">
        <ele>776.708</ele>
        <time>2017-03-25T21:51:44Z</time>
      </trkpt>
      <trkpt lat="43.84364" lon="6.92576">
        <ele>776.736</ele>
        <time>2017-03-25T21:52:04Z</time>
      </trkpt>
      <trkpt lat="43.84324" lon="6.92628">
        <ele>776.119</ele>
        <time>2017-03-25T21:52:24Z</time>
      </trkpt>
      <trkpt lat="43.84288" lon="6.92621">
        <ele>798.147</ele>
        <time>2017-03-25T21:52:44Z</time>
      </trkpt>
      <trkpt lat="43.84295" lon="6.9265">
        <ele>793.237</ele>
        <time>2017-03-25T21:53:04Z</time>
      </trkpt>
      <trkpt lat="43.84281" lon="6.9264">
        <ele>805.867</ele>
        <time>2017-03-25T21:53:24Z</time>
      </trkpt>
      <trkpt lat="43.84277" lon="6.92649">
        <ele>811.731</ele>
        <time>2017-03-25T21:53:44Z</time>
      </trkpt>
      <trkpt lat="43.84266" lon="6.92642">
        <ele>813.41</ele>
        <time>2017-03-25T21:54:04Z</time>
      </trkpt>
      <trkpt lat="43.84229" lon="6.92648">
        <ele>824.738</ele>
        <time>2017-03-25T21:54:24Z</time>
      </trkpt>
      <trkpt lat="43.84197" lon="6.92657">
        <ele>832.415</ele>
        <time>2017-03-25T22:22:24Z</time>
      </trkpt>
      <trkpt lat="43.84168" lon="6.92681">
        <ele>839.665</ele>
        <time>2017-03-25T22:22:44Z</time>
      </trkpt>
      <trkpt lat="43.84146" lon="6.92706">
        <ele>841.511</ele>
        <time>2017-03-25T22:23:04Z</time>
      </trkpt>
      <trkpt lat="43.84115" lon="6.92737">
        <ele>848.608</ele>
        <time>2017-03-25T22:23:24Z</time>
      </trkpt>
      <trkpt lat="43.84111" lon="6.92776">
        <ele>851.934</ele>
        <time>2017-03-25T22:23:44Z</time>
      </trkpt>
      <trkpt lat="43.84055" lon="6.92746">
        <ele>864.757</ele>
        <time>2017-03-25T22:24:04Z</time>
      </trkpt>
      <trkpt lat="43.8403" lon="6.92725">
        <ele>869.225</ele>
        <time>2017-03-25T22:24:24Z</time>
      </trkpt>
      <trkpt lat="43.84004" lon="6.9275">
        <ele>871.425</ele>
        <time>2017-03-25T22:24:44Z</time>
      </trkpt>
      <trkpt lat="43.83957" lon="6.92756">
        <ele>876.485</ele>
        <time>2017-03-25T22:25:04Z</time>
      </trkpt>
      <trkpt lat="43.8394" lon="6.92749">
        <ele>878.429</ele>
        <time>2017-03-25T22:25:24Z</time>
      </trkpt>
      <trkpt lat="43.83929" lon="6.92716">
        <ele>885.538</ele>
        <time>2017-03-25T22:25:44Z</time>
      </trkpt>
      <trkpt lat="43.83909" lon="6.92702">
        <ele>887.656</ele>
        <time>2017-03-25T22:26:04Z</time>
      </trkpt>
      <trkpt lat="43.83884" lon="6.92699">
        <ele>892.024</ele>
        <time>2017-03-25T22:26:24Z</time>
      </trkpt>
      <trkpt lat="43.83876" lon="6.92718">
        <ele>893.304</ele>
        <time>2017-03-25T22:26:44Z</time>
      </trkpt>
      <trkpt lat="43.83875" lon="6.92754">
        <ele>890.814</ele>
        <time>2017-03-25T22:27:04Z</time>
      </trkpt>
      <trkpt lat="43.83865" lon="6.92772">
        <ele>894.008</ele>
        <time>2017-03-25T22:27:24Z</time>
      </trkpt>
      <trkpt lat="43.83859" lon="6.92815">
        <ele>894.795</ele>
        <time>2017-03-25T22:27:44Z</time>
      </trkpt>
      <trkpt lat="43.83825" lon="6.9283">
        <ele>900.988</ele>
        <time>2017-03-25T22:28:04Z</time>
      </trkpt>
      <trkpt lat="43.8379" lon="6.92834">
        <ele>905.886</ele>
        <time>2017-03-25T22:28:24Z</time>
      </trkpt>
      <trkpt lat="43.83782" lon="6.92843">
        <ele>907.346</ele>
        <time>2017-03-25T22:28:44Z</time>
      </trkpt>
      <trkpt lat="43.83772" lon="6.92843">
        <ele>910.216</ele>
        <time>2017-03-25T22:29:04Z</time>
      </trkpt>
      <trkpt lat="43.83749" lon="6.92875">
        <ele>915.28</ele>
        <time>2017-03-25T22:29:24Z</time>
      </trkpt>
      <trkpt lat="43.8374" lon="6.92874">
        <ele>917.559</ele>
        <time>2017-03-25T22:29:44Z</time>
      </trkpt>
      <trkpt lat="43.83727" lon="6.92904">
        <ele>920.887</ele>
        <time>2017-03-25T22:30:04Z</time>
      </trkpt>
      <trkpt lat="43.83708" lon="6.92912">
        <ele>928.256</ele>
        <time>2017-03-25T22:30:24Z</time>
      </trkpt>
      <trkpt lat="43.83684" lon="6.92962">
        <ele>934.259</ele>
        <time>2017-03-25T22:30:44Z</time>
      </trkpt>
      <trkpt lat="43.83674" lon="6.92994">
        <ele>937.614</ele>
        <time>2017-03-25T22:31:04Z</time>
      </trkpt>
      <trkpt lat="43.83661" lon="6.93004">
        <ele>941.808</ele>
        <time>2017-03-25T22:31:24Z</time>
      </trkpt>
      <trkpt lat="43.83657" lon="6.93038">
        <ele>947.388</ele>
        <time>2017-03-25T22:31:44Z</time>
      </trkpt>
      <trkpt lat="43.83646" lon="6.93062">
        <ele>952.331</ele>
        <time>2017-03-25T22:32:04Z</time>
      </trkpt>
      <trkpt lat="43.83646" lon="6.93111">
        <ele>958.819</ele>
        <time>2017-03-25T22:32:24Z</time>
      </trkpt>
      <trkpt lat="43.83669" lon="6.93159">
        <ele>968.829</ele>
        <time>2017-03-25T22:32:44Z</time>
      </trkpt>
      <trkpt lat="43.83669" lon="6.93189">
        <ele>977.199</ele>
        <time>2017-03-25T22:33:04Z</time>
      </trkpt>
      <trkpt lat="43.83674" lon="6.93212">
        <ele>982.783</ele>
        <time>2017-03-25T22:33:24Z</time>
      </trkpt>
      <trkpt lat="43.83664" lon="6.93253">
        <ele>996.272</ele>
        <time>2017-03-25T22:33:44Z</time>
      </trkpt>
      <trkpt lat="43.8367" lon="6.93268">
        <ele>997.87</ele>
        <time>2017-03-25T22:34:04Z</time>
      </trkpt>
      <trkpt lat="43.83673" lon="6.9332">
        <ele>1006.777</ele>
        <time>2017-03-25T22:34:24Z</time>
      </trkpt>
      <trkpt lat="43.83683" lon="6.93345">
        <ele>1007.961</ele>
        <time>2017-03-25T22:34:44Z</time>
      </trkpt>
      <trkpt lat="43.83687" lon="6.93407">
        <ele>1015.627</ele>
        <time>2017-03-25T22:35:04Z</time>
      </trkpt>
      <trkpt lat="43.83689" lon="6.93478">
        <ele>1027.808</ele>
        <time>2017-03-25T22:35:24Z</time>
      </trkpt>
      <trkpt lat="43.83671" lon="6.93521">
        <ele>1045.87</ele>
        <time>2017-03-25T22:35:44Z</time>
      </trkpt>
      <trkpt lat="43.83674" lon="6.93547">
        <ele>1054.763</ele>
        <time>2017-03-25T22:36:04Z</time>
      </trkpt>
      <trkpt lat="43.83659" lon="6.93568">
        <ele>1067.431</ele>
        <time>2017-03-25T22:36:24Z</time>
      </trkpt>
      <trkpt lat="43.83682" lon="6.93627">
        <ele>1076.251</ele>
        <time>2017-03-25T22:36:44Z</time>
      </trkpt>
      <trkpt lat="43.83678" lon="6.93643">
        <ele>1081.151</ele>
        <time>2017-03-25T22:37:04Z</time>
      </trkpt>
      <trkpt lat="43.83663" lon="6.93654">
        <ele>1089.045</ele>
        <time>2017-03-25T22:37:24Z</time>
      </trkpt>
      <trkpt lat="43.83649" lon="6.93646">
        <ele>1092.644</ele>
        <time>2017-03-25T22:37:44Z</time>
      </trkpt>
      <trkpt lat="43.8362" lon="6.93649">
        <ele>1103.892</ele>
        <time>2017-03-25T22:38:04Z</time>
      </trkpt>
      <trkpt lat="43.83593" lon="6.93696">
        <ele>1125.365</ele>
        <time>2017-03-25T22:38:24Z</time>
      </trkpt>
      <trkpt lat="43.83586" lon="6.93736">
        <ele>1138.568</ele>
        <time>2017-03-25T22:38:44Z</time>
      </trkpt>
      <trkpt lat="43.83589" lon="6.93755">
        <ele>1142.814</ele>
        <time>2017-03-25T22:39:04Z</time>
      </trkpt>
      <trkpt lat="43.83587" lon="6.93774">
        <ele>1147.308</ele>
        <time>2017-03-25T22:39:24Z</time>
      </trkpt>
      <trkpt lat="43.83585" lon="6.9381">
        <ele>1153.049</ele>
        <time>2017-03-25T22:39:44Z</time>
      </trkpt>
      <trkpt lat="43.83575" lon="6.93832">
        <ele>1159.452</ele>
        <time>2017-03-25T22:40:04Z</time>
      </trkpt>
      <trkpt lat="43.83556" lon="6.93907">
        <ele>1174.11</ele>
        <time>2017-03-25T22:40:24Z</time>
      </trkpt>
      <trkpt lat="43.83532" lon="6.93924">
        <ele>1186.16</ele>
        <time>2017-03-25T22:40:44Z</time>
      </trkpt>
      <trkpt lat="43.83525" lon="6.93943">
        <ele>1191.81</ele>
        <time>2017-03-25T22:41:04Z</time>
      </trkpt>
      <trkpt lat="43.83494" lon="6.93961">
        <ele>1208.174</ele>
        <time>2017-03-25T22:41:24Z</time>
      </trkpt>
      <trkpt lat="43.83494" lon="6.93977">
        <ele>1210.113</ele>
        <time>2017-03-25T22:41:44Z</time>
      </trkpt>
      <trkpt lat="43.83481" lon="6.93994">
        <ele>1218.651</ele>
        <time>2017-03-25T22:42:04Z</time>
      </trkpt>
      <trkpt lat="43.83472" lon="6.94024">
        <ele>1226.876</ele>
        <time>2017-03-25T22:42:24Z</time>
      </trkpt>
      <trkpt lat="43.83463" lon="6.94038">
        <ele>1232.79</ele>
        <time>2017-03-25T22:42:44Z</time>
      </trkpt>
      <trkpt lat="43.83432" lon="6.94096">
        <ele>1253.019</ele>
        <time>2017-03-25T22:43:04Z</time>
      </trkpt>
      <trkpt lat="43.83422" lon="6.94132">
        <ele>1260.808</ele>
        <time>2017-03-25T22:43:24Z</time>
      </trkpt>
      <trkpt lat="43.83431" lon="6.94172">
        <ele>1275.77</ele>
        <time>2017-03-25T22:43:44Z</time>
      </trkpt>
      <trkpt lat="43.83448" lon="6.94201">
        <ele>1289.363</ele>
        <time>2017-03-25T22:44:04Z</time>
      </trkpt>
      <trkpt lat="43.83488" lon="6.94235">
        <ele>1303.151</ele>
        <time>2017-03-25T22:44:24Z</time>
      </trkpt>
      <trkpt lat="43.83503" lon="6.94273">
        <ele>1313.671</ele>
        <time>2017-03-25T22:44:44Z</time>
      </trkpt>
      <trkpt lat="43.83512" lon="6.94305">
        <ele>1323.091</ele>
        <time>2017-03-25T22:45:04Z</time>
      </trkpt>
      <trkpt lat="43.8351" lon="6.9433">
        <ele>1331.585</ele>
        <time>2017-03-25T22:45:24Z</time>
      </trkpt>
      <trkpt lat="43.83513" lon="6.94349">
        <ele>1331.294</ele>
        <time>2017-03-25T22:45:44Z</time>
      </trkpt>
      <trkpt lat="43.83494" lon="6.94383">
        <ele>1338.152</ele>
        <time>2017-03-25T22:46:04Z</time>
      </trkpt>
      <trkpt lat="43.83479" lon="6.94437">
        <ele>1343.218</ele>
        <time>2017-03-25T22:46:24Z</time>
      </trkpt>
      <trkpt lat="43.83481" lon="6.94522">
        <ele>1356.298</ele>
        <time>2017-03-25T22:46:44Z</time>
      </trkpt>
      <trkpt lat="43.83475" lon="6.94529">
        <ele>1360.017</ele>
        <time>2017-03-25T22:47:04Z</time>
      </trkpt>
      <trkpt lat="43.83467" lon="6.94519">
        <ele>1362.808</ele>
        <time>2017-03-25T22:47:24Z</time>
      </trkpt>
      <trkpt lat="43.83468" lon="6.94554">
        <ele>1368.634</ele>
        <time>2017-03-25T22:47:44Z</time>
      </trkpt>
      <trkpt lat="43.83461" lon="6.94592">
        <ele>1378.397</ele>
        <time>2017-03-25T22:48:04Z</time>
      </trkpt>
      <trkpt lat="43.83454" lon="6.94602">
        <ele>1384.185</ele>
        <time>2017-03-25T22:48:24Z</time>
      </trkpt>
      <trkpt lat="43.83437" lon="6.94665">
        <ele>1406.415</ele>
        <time>2017-03-25T22:48:44Z</time>
      </trkpt>
      <trkpt lat="43.83431" lon="6.94651">
        <ele>1408.615</ele>
        <time>2017-03-25T22:49:04Z</time>
      </trkpt>
      <trkpt lat="43.83423" lon="6.94674">
        <ele>1418.459</ele>
        <time>2017-03-25T22:49:24Z</time>
      </trkpt>
      <trkpt lat="43.83423" lon="6.94709">
        <ele>1427.828</ele>
        <time>2017-03-25T22:49:44Z</time>
      </trkpt>
      <trkpt lat="43.83433" lon="6.94736">
        <ele>1431.776</ele>
        <time>2017-03-25T22:50:04Z</time>
      </trkpt>
      <trkpt lat="43.83436" lon="6.94762">
        <ele>1440.497</ele>
        <time>2017-03-25T22:50:24Z</time>
      </trkpt>
      <trkpt lat="43.83404" lon="6.94761">
        <ele>1449.923</ele>
        <time>2017-03-25T22:50:44Z</time>
      </trkpt>
      <trkpt lat="43.83391" lon="6.94767">
        <ele>1454.925</ele>
        <time>2017-03-25T22:51:04Z</time>
      </trkpt>
      <trkpt lat="43.83365" lon="6.94769">
        <ele>1458.508</ele>
        <time>2017-03-25T22:51:24Z</time>
      </trkpt>
      <trkpt lat="43.83333" lon="6.94783">
        <ele>1460.082</ele>
        <time>2017-03-25T22:51:44Z</time>
      </trkpt>
      <trkpt lat="43.83311" lon="6.94812">
        <ele>1457.515</ele>
        <time>2017-03-25T22:52:04Z</time>
      </trkpt>
      <trkpt lat="43.83281" lon="6.94841">
        <ele>1447.763</ele>
        <time>2017-03-25T22:52:24Z</time>
      </trkpt>
      <trkpt lat="43.83273" lon="6.94837">
        <ele>1445.343</ele>
        <time>2017-03-25T22:52:44Z</time>
      </trkpt>
      <trkpt lat="43.83238" lon="6.9485">
        <ele>1433.273</ele>
        <time>2017-03-25T22:53:04Z</time>
      </trkpt>
      <trkpt lat="43.83158" lon="6.9485">
        <ele>1413.577</ele>
        <time>2017-03-25T22:53:24Z</time>
      </trkpt>
      <trkpt lat="43.83123" lon="6.9483">
        <ele>1410.326</ele>
        <time>2017-03-25T22:53:44Z</time>
      </trkpt>
      <trkpt lat="43.83194" lon="6.94947">
        <ele>1411.714</ele>
        <time>2017-03-25T22:54:04Z</time>
      </trkpt>
      <trkpt lat="43.83228" lon="6.95088">
        <ele>1414.425</ele>
        <time>2017-03-25T22:54:24Z</time>
      </trkpt>
      <trkpt lat="43.83183" lon="6.95092">
        <ele>1407.126</ele>
        <time>2017-03-25T22:54:44Z</time>
      </trkpt>
      <trkpt lat="43.83194" lon="6.95163">
        <ele>1408.808</ele>
        <time>2017-03-25T22:55:04Z</time>
      </trkpt>
      <trkpt lat="43.83135" lon="6.95173">
        <ele>1405.708</ele>
        <time>2017-03-25T22:55:24Z</time>
      </trkpt>
      <trkpt lat="43.83141" lon="6.95273">
        <ele>1407.145</ele>
        <time>2017-03-25T22:55:44Z</time>
      </trkpt>
      <trkpt lat="43.8311" lon="6.95337">
        <ele>1408.188</ele>
        <time>2017-03-25T22:56:04Z</time>
      </trkpt>
      <trkpt lat="43.83085" lon="6.95346">
        <ele>1408.516</ele>
        <time>2017-03-25T22:56:24Z</time>
      </trkpt>
      <trkpt lat="43.83098" lon="6.95431">
        <ele>1410.026</ele>
        <time>2017-03-25T22:56:44Z</time>
      </trkpt>
      <trkpt lat="43.83082" lon="6.95471">
        <ele>1410.026</ele>
        <time>2017-03-25T22:57:04Z</time>
      </trkpt>
      <trkpt lat="43.83061" lon="6.95478">
        <ele>1410.02</ele>
        <time>2017-03-25T22:57:24Z</time>
      </trkpt>
      <trkpt lat="43.83059" lon="6.95512">
        <ele>1410.029</ele>
        <time>2017-03-25T22:57:44Z</time>
      </trkpt>
      <trkpt lat="43.83044" lon="6.95539">
        <ele>1410.047</ele>
        <time>2017-03-25T22:58:04Z</time>
      </trkpt>
      <trkpt lat="43.83027" lon="6.9555">
        <ele>1410.036</ele>
        <time>2017-03-25T22:58:24Z</time>
      </trkpt>
      <trkpt lat="43.83007" lon="6.95597">
        <ele>1409.517</ele>
        <time>2017-03-25T22:58:44Z</time>
      </trkpt>
      <trkpt lat="43.82971" lon="6.95611">
        <ele>1412.118</ele>
        <time>2017-03-25T22:59:04Z</time>
      </trkpt>
      <trkpt lat="43.82937" lon="6.956">
        <ele>1415.808</ele>
        <time>2017-03-25T22:59:24Z</time>
      </trkpt>
      <trkpt lat="43.82907" lon="6.95637">
        <ele>1420.066</ele>
        <time>2017-03-25T22:59:44Z</time>
      </trkpt>
      <trkpt lat="43.82852" lon="6.95611">
        <ele>1434.959</ele>
        <time>2017-03-25T23:00:04Z</time>
      </trkpt>
      <trkpt lat="43.82818" lon="6.95635">
        <ele>1442.927</ele>
        <time>2017-03-25T23:00:24Z</time>
      </trkpt>
      <trkpt lat="43.82798" lon="6.95646">
        <ele>1447.857</ele>
        <time>2017-03-25T23:00:44Z</time>
      </trkpt>
      <trkpt lat="43.82792" lon="6.95701">
        <ele>1455.747</ele>
        <time>2017-03-25T23:01:04Z</time>
      </trkpt>
      <trkpt lat="43.82763" lon="6.95705">
        <ele>1461.391</ele>
        <time>2017-03-25T23:01:24Z</time>
      </trkpt>
      <trkpt lat="43.82735" lon="6.95738">
        <ele>1468.97</ele>
        <time>2017-03-25T23:01:44Z</time>
      </trkpt>
      <trkpt lat="43.82709" lon="6.9575">
        <ele>1471.088</ele>
        <time>2017-03-25T23:02:04Z</time>
      </trkpt>
      <trkpt lat="43.82663" lon="6.95742">
        <ele>1471.071</ele>
        <time>2017-03-25T23:02:24Z</time>
      </trkpt>
      <trkpt lat="43.82618" lon="6.95702">
        <ele>1472.641</ele>
        <time>2017-03-25T23:02:44Z</time>
      </trkpt>
      <trkpt lat="43.8257" lon="6.95696">
        <ele>1476.715</ele>
        <time>2017-03-25T23:03:04Z</time>
      </trkpt>
      <trkpt lat="43.82529" lon="6.9568">
        <ele>1477.908</ele>
        <time>2017-03-25T23:03:24Z</time>
      </trkpt>
      <trkpt lat="43.82512" lon="6.95652">
        <ele>1478.19</ele>
        <time>2017-03-25T23:03:44Z</time>
      </trkpt>
      <trkpt lat="43.8248" lon="6.95654">
        <ele>1479.443</ele>
        <time>2017-03-25T23:04:04Z</time>
      </trkpt>
      <trkpt lat="43.8245" lon="6.95665">
        <ele>1479.921</ele>
        <time>2017-03-25T23:04:24Z</time>
      </trkpt>
      <trkpt lat="43.82379" lon="6.95672">
        <ele>1488.031</ele>
        <time>2017-03-25T23:04:44Z</time>
      </trkpt>
      <trkpt lat="43.82353" lon="6.95659">
        <ele>1490.221</ele>
        <time>2017-03-25T23:05:04Z</time>
      </trkpt>
      <trkpt lat="43.82306" lon="6.95654">
        <ele>1494.025</ele>
        <time>2017-03-25T23:05:24Z</time>
      </trkpt>
      <trkpt lat="43.82286" lon="6.95626">
        <ele>1496.194</ele>
        <time>2017-03-25T23:05:44Z</time>
      </trkpt>
      <trkpt lat="43.8227" lon="6.95542">
        <ele>1502.152</ele>
        <time>2017-03-25T23:06:04Z</time>
      </trkpt>
      <trkpt lat="43.82252" lon="6.95469">
        <ele>1500.371</ele>
        <time>2017-03-25T23:06:24Z</time>
      </trkpt>
      <trkpt lat="43.8221" lon="6.95418">
        <ele>1507.041</ele>
        <time>2017-03-25T23:06:44Z</time>
      </trkpt>
      <trkpt lat="43.82169" lon="6.95327">
        <ele>1514.215</ele>
        <time>2017-03-25T23:07:04Z</time>
      </trkpt>
      <trkpt lat="43.82171" lon="6.95243">
        <ele>1510.508</ele>
        <time>2017-03-25T23:07:24Z</time>
      </trkpt>
      <trkpt lat="43.82189" lon="6.95187">
        <ele>1507.12</ele>
        <time>2017-03-25T23:07:44Z</time>
      </trkpt>
      <trkpt lat="43.82193" lon="6.95151">
        <ele>1506.483</ele>
        <time>2017-03-25T23:08:04Z</time>
      </trkpt>
      <trkpt lat="43.8221" lon="6.9511">
        <ele>1503.951</ele>
        <time>2017-03-25T23:08:24Z</time>
      </trkpt>
      <trkpt lat="43.8221" lon="6.9508">
        <ele>1506.561</ele>
        <time>2017-03-25T23:08:44Z</time>
      </trkpt>
      <trkpt lat="43.82244" lon="6.95009">
        <ele>1500.321</ele>
        <time>2017-03-25T23:09:04Z</time>
      </trkpt>
      <trkpt lat="43.82252" lon="6.94936">
        <ele>1498.525</ele>
        <time>2017-03-25T23:09:24Z</time>
      </trkpt>
      <trkpt lat="43.82245" lon="6.94888">
        <ele>1497.574</ele>
        <time>2017-03-25T23:09:44Z</time>
      </trkpt>
      <trkpt lat="43.82268" lon="6.94843">
        <ele>1493.362</ele>
        <time>2017-03-25T23:10:04Z</time>
      </trkpt>
      <trkpt lat="43.82274" lon="6.94792">
        <ele>1489.195</ele>
        <time>2017-03-25T23:10:24Z</time>
      </trkpt>
      <trkpt lat="43.82221" lon="6.94714">
        <ele>1488.349</ele>
        <time>2017-03-25T23:10:44Z</time>
      </trkpt>
      <trkpt lat="43.8222" lon="6.94677">
        <ele>1491.023</ele>
        <time>2017-03-25T23:11:04Z</time>
      </trkpt>
      <trkpt lat="43.82192" lon="6.94699">
        <ele>1493.908</ele>
        <time>2017-03-25T23:11:24Z</time>
      </trkpt>
      <trkpt lat="43.82138" lon="6.94688">
        <ele>1496.282</ele>
        <time>2017-03-25T23:11:44Z</time>
      </trkpt>
      <trkpt lat="43.82093" lon="6.94701">
        <ele>1497.575</ele>
        <time>2017-03-25T23:12:04Z</time>
      </trkpt>
      <trkpt lat="43.8203" lon="6.94665">
        <ele>1498.773</ele>
        <time>2017-03-25T23:12:24Z</time>
      </trkpt>
      <trkpt lat="43.81938" lon="6.94656">
        <ele>1499.063</ele>
        <time>2017-03-25T23:12:44Z</time>
      </trkpt>
      <trkpt lat="43.81911" lon="6.94634">
        <ele>1499.363</ele>
        <time>2017-03-25T23:13:04Z</time>
      </trkpt>
      <trkpt lat="43.81904" lon="6.94608">
        <ele>1499.057</ele>
        <time>2017-03-25T23:13:24Z</time>
      </trkpt>
      <trkpt lat="43.81873" lon="6.94568">
        <ele>1506.026</ele>
        <time>2017-03-25T23:13:44Z</time>
      </trkpt>
      <trkpt lat="43.81837" lon="6.94568">
        <ele>1507.744</ele>
        <time>2017-03-25T23:14:04Z</time>
      </trkpt>
      <trkpt lat="43.81829" lon="6.94552">
        <ele>1500.345</ele>
        <time>2017-03-25T23:14:24Z</time>
      </trkpt>
      <trkpt lat="43.81795" lon="6.94546">
        <ele>1497.747</ele>
        <time>2017-03-25T23:14:44Z</time>
      </trkpt>
      <trkpt lat="43.81768" lon="6.94509">
        <ele>1490.511</ele>
        <time>2017-03-25T23:15:04Z</time>
      </trkpt>
      <trkpt lat="43.8174" lon="6.94501">
        <ele>1488.108</ele>
        <time>2017-03-25T23:15:24Z</time>
      </trkpt>
      <trkpt lat="43.81733" lon="6.94481">
        <ele>1480.497</ele>
        <time>2017-03-25T23:15:44Z</time>
      </trkpt>
      <trkpt lat="43.81713" lon="6.9449">
        <ele>1478.39</ele>
        <time>2017-03-25T23:16:04Z</time>
      </trkpt>
      <trkpt lat="43.81693" lon="6.94507">
        <ele>1478.968</ele>
        <time>2017-03-25T23:16:24Z</time>
      </trkpt>
      <trkpt lat="43.81648" lon="6.94494">
        <ele>1464.578</ele>
        <time>2017-03-25T23:16:44Z</time>
      </trkpt>
      <trkpt lat="43.81609" lon="6.94453">
        <ele>1451.018</ele>
        <time>2017-03-25T23:17:04Z</time>
      </trkpt>
      <trkpt lat="43.8158" lon="6.94441">
        <ele>1448.222</ele>
        <time>2017-03-25T23:17:24Z</time>
      </trkpt>
      <trkpt lat="43.81554" lon="6.94443">
        <ele>1447.791</ele>
        <time>2017-03-25T23:17:44Z</time>
      </trkpt>
      <trkpt lat="43.8153" lon="6.94423">
        <ele>1443.239</ele>
        <time>2017-03-25T23:18:04Z</time>
      </trkpt>
      <trkpt lat="43.81515" lon="6.94383">
        <ele>1436.868</ele>
        <time>2017-03-25T23:18:24Z</time>
      </trkpt>
      <trkpt lat="43.8147" lon="6.9435">
        <ele>1432.442</ele>
        <time>2017-03-25T23:18:44Z</time>
      </trkpt>
      <trkpt lat="43.81423" lon="6.94327">
        <ele>1428.826</ele>
        <time>2017-03-25T23:19:04Z</time>
      </trkpt>
      <trkpt lat="43.81406" lon="6.94283">
        <ele>1427.808</ele>
        <time>2017-03-25T23:19:24Z</time>
      </trkpt>
      <trkpt lat="43.81401" lon="6.94226">
        <ele>1428.319</ele>
        <time>2017-03-25T23:19:44Z</time>
      </trkpt>
      <trkpt lat="43.81391" lon="6.94242">
        <ele>1426.712</ele>
        <time>2017-03-25T23:20:04Z</time>
      </trkpt>
      <trkpt lat="43.81383" lon="6.9423">
        <ele>1426.01</ele>
        <time>2017-03-25T23:20:24Z</time>
      </trkpt>
      <trkpt lat="43.81377" lon="6.94242">
        <ele>1423.51</ele>
        <time>2017-03-25T23:20:44Z</time>
      </trkpt>
      <trkpt lat="43.81353" lon="6.94217">
        <ele>1420.58</ele>
        <time>2017-03-25T23:21:04Z</time>
      </trkpt>
      <trkpt lat="43.81306" lon="6.94217">
        <ele>1410.534</ele>
        <time>2017-03-25T23:21:24Z</time>
      </trkpt>
      <trkpt lat="43.81273" lon="6.94235">
        <ele>1409.963</ele>
        <time>2017-03-25T23:21:44Z</time>
      </trkpt>
      <trkpt lat="43.81245" lon="6.94228">
        <ele>1408.791</ele>
        <time>2017-03-25T23:22:04Z</time>
      </trkpt>
      <trkpt lat="43.81159" lon="6.94156">
        <ele>1399.768</ele>
        <time>2017-03-25T23:22:24Z</time>
      </trkpt>
      <trkpt lat="43.81146" lon="6.94105">
        <ele>1394.542</ele>
        <time>2017-03-25T23:22:44Z</time>
      </trkpt>
      <trkpt lat="43.81127" lon="6.94099">
        <ele>1391.426</ele>
        <time>2017-03-25T23:23:04Z</time>
      </trkpt>
      <trkpt lat="43.81085" lon="6.94129">
        <ele>1388.208</ele>
        <time>2017-03-25T23:23:24Z</time>
      </trkpt>
      <trkpt lat="43.81027" lon="6.94139">
        <ele>1383.949</ele>
        <time>2017-03-25T23:23:44Z</time>
      </trkpt>
      <trkpt lat="43.80946" lon="6.94159">
        <ele>1381.332</ele>
        <time>2017-03-25T23:24:04Z</time>
      </trkpt>
      <trkpt lat="43.809" lon="6.94137">
        <ele>1381.08</ele>
        <time>2017-03-25T23:24:24Z</time>
      </trkpt>
      <trkpt lat="43.80838" lon="6.94172">
        <ele>1382.07</ele>
        <time>2017-03-25T23:24:44Z</time>
      </trkpt>
      <trkpt lat="43.80829" lon="6.94228">
        <ele>1380.69</ele>
        <time>2017-03-25T23:25:04Z</time>
      </trkpt>
      <trkpt lat="43.80802" lon="6.94236">
        <ele>1379.874</ele>
        <time>2017-03-25T23:25:24Z</time>
      </trkpt>
      <trkpt lat="43.80799" lon="6.94238">
        <ele>1379.333</ele>
        <time>2017-03-25T23:25:44Z</time>
      </trkpt>
      <trkpt lat="43.80762" lon="6.94266">
        <ele>1375.541</ele>
        <time>2017-03-25T23:26:04Z</time>
      </trkpt>
      <trkpt lat="43.80763" lon="6.94254">
        <ele>1373.548</ele>
        <time>2017-03-25T23:26:24Z</time>
      </trkpt>
      <trkpt lat="43.80741" lon="6.9427">
        <ele>1370.861</ele>
        <time>2017-03-25T23:26:44Z</time>
      </trkpt>
      <trkpt lat="43.80741" lon="6.9426">
        <ele>1368.917</ele>
        <time>2017-03-25T23:27:04Z</time>
      </trkpt>
      <trkpt lat="43.80717" lon="6.94278">
        <ele>1364.008</ele>
        <time>2017-03-25T23:27:24Z</time>
      </trkpt>
      <trkpt lat="43.80722" lon="6.94259">
        <ele>1362.417</ele>
        <time>2017-03-25T23:27:44Z</time>
      </trkpt>
      <trkpt lat="43.80724" lon="6.94232">
        <ele>1359.63</ele>
        <time>2017-03-25T23:28:04Z</time>
      </trkpt>
      <trkpt lat="43.80715" lon="6.94238">
        <ele>1356.968</ele>
        <time>2017-03-25T23:28:24Z</time>
      </trkpt>
      <trkpt lat="43.80718" lon="6.94221">
        <ele>1356.788</ele>
        <time>2017-03-25T23:29:04Z</time>
      </trkpt>
      <trkpt lat="43.80698" lon="6.94242">
        <ele>1350.758</ele>
        <time>2017-03-25T23:29:24Z</time>
      </trkpt>
      <trkpt lat="43.80697" lon="6.94222">
        <ele>1348.132</ele>
        <time>2017-03-25T23:29:44Z</time>
      </trkpt>
      <trkpt lat="43.80693" lon="6.94229">
        <ele>1346.841</ele>
        <time>2017-03-25T23:30:04Z</time>
      </trkpt>
      <trkpt lat="43.80688" lon="6.94223">
        <ele>1344.169</ele>
        <time>2017-03-25T23:30:24Z</time>
      </trkpt>
      <trkpt lat="43.8068" lon="6.9424">
        <ele>1342.172</ele>
        <time>2017-03-25T23:30:44Z</time>
      </trkpt>
      <trkpt lat="43.80676" lon="6.94218">
        <ele>1340.213</ele>
        <time>2017-03-25T23:31:04Z</time>
      </trkpt>
      <trkpt lat="43.80666" lon="6.94238">
        <ele>1335.214</ele>
        <time>2017-03-25T23:31:24Z</time>
      </trkpt>
      <trkpt lat="43.80661" lon="6.94235">
        <ele>1333.408</ele>
        <time>2017-03-25T23:31:44Z</time>
      </trkpt>
      <trkpt lat="43.80655" lon="6.94248">
        <ele>1331.18</ele>
        <time>2017-03-25T23:32:04Z</time>
      </trkpt>
      <trkpt lat="43.80648" lon="6.94231">
        <ele>1328.933</ele>
        <time>2017-03-25T23:36:24Z</time>
      </trkpt>
      <trkpt lat="43.80634" lon="6.94271">
        <ele>1324.371</ele>
        <time>2017-03-25T23:36:44Z</time>
      </trkpt>
      <trkpt lat="43.80628" lon="6.94243">
        <ele>1321.021</ele>
        <time>2017-03-25T23:37:04Z</time>
      </trkpt>
      <trkpt lat="43.80613" lon="6.94238">
        <ele>1316.821</ele>
        <time>2017-03-25T23:37:24Z</time>
      </trkpt>
      <trkpt lat="43.80613" lon="6.94269">
        <ele>1315.245</ele>
        <time>2017-03-25T23:37:44Z</time>
      </trkpt>
      <trkpt lat="43.80604" lon="6.94281">
        <ele>1312.484</ele>
        <time>2017-03-25T23:38:04Z</time>
      </trkpt>
      <trkpt lat="43.80602" lon="6.94264">
        <ele>1310.662</ele>
        <time>2017-03-25T23:38:24Z</time>
      </trkpt>
      <trkpt lat="43.80584" lon="6.94231">
        <ele>1306.752</ele>
        <time>2017-03-25T23:38:44Z</time>
      </trkpt>
      <trkpt lat="43.80581" lon="6.94268">
        <ele>1301.953</ele>
        <time>2017-03-25T23:39:04Z</time>
      </trkpt>
      <trkpt lat="43.80566" lon="6.94298">
        <ele>1295.508</ele>
        <time>2017-03-25T23:39:24Z</time>
      </trkpt>
      <trkpt lat="43.80564" lon="6.94287">
        <ele>1294.108</ele>
        <time>2017-03-25T23:39:44Z</time>
      </trkpt>
      <trkpt lat="43.80546" lon="6.94325">
        <ele>1288.998</ele>
        <time>2017-03-25T23:40:04Z</time>
      </trkpt>
      <trkpt lat="43.80542" lon="6.94308">
        <ele>1285.021</ele>
        <time>2017-03-25T23:40:24Z</time>
      </trkpt>
      <trkpt lat="43.80532" lon="6.94324">
        <ele>1281.399</ele>
        <time>2017-03-25T23:40:44Z</time>
      </trkpt>
      <trkpt lat="43.80533" lon="6.94302">
        <ele>1280.419</ele>
        <time>2017-03-25T23:41:04Z</time>
      </trkpt>
      <trkpt lat="43.80517" lon="6.94331">
        <ele>1274.979</ele>
        <time>2017-03-25T23:41:24Z</time>
      </trkpt>
      <trkpt lat="43.80512" lon="6.94359">
        <ele>1275.253</ele>
        <time>2017-03-25T23:41:44Z</time>
      </trkpt>
      <trkpt lat="43.80487" lon="6.94396">
        <ele>1269.532</ele>
        <time>2017-03-25T23:42:04Z</time>
      </trkpt>
      <trkpt lat="43.80475" lon="6.94397">
        <ele>1265.87</ele>
        <time>2017-03-25T23:42:24Z</time>
      </trkpt>
      <trkpt lat="43.80477" lon="6.94376">
        <ele>1263.054</ele>
        <time>2017-03-25T23:42:44Z</time>
      </trkpt>
      <trkpt lat="43.80453" lon="6.94386">
        <ele>1256.756</ele>
        <time>2017-03-25T23:43:04Z</time>
      </trkpt>
      <trkpt lat="43.80439" lon="6.9439">
        <ele>1252.211</ele>
        <time>2017-03-25T23:43:24Z</time>
      </trkpt>
      <trkpt lat="43.80434" lon="6.94402">
        <ele>1251.908</ele>
        <time>2017-03-25T23:43:44Z</time>
      </trkpt>
      <trkpt lat="43.8043" lon="6.9439">
        <ele>1248.858</ele>
        <time>2017-03-25T23:44:04Z</time>
      </trkpt>
      <trkpt lat="43.80416" lon="6.94399">
        <ele>1244.591</ele>
        <time>2017-03-25T23:44:24Z</time>
      </trkpt>
      <trkpt lat="43.80408" lon="6.94359">
        <ele>1242.249</ele>
        <time>2017-03-25T23:44:44Z</time>
      </trkpt>
      <trkpt lat="43.80404" lon="6.94369">
        <ele>1239.099</ele>
        <time>2017-03-25T23:45:04Z</time>
      </trkpt>
      <trkpt lat="43.80388" lon="6.94324">
        <ele>1234.919</ele>
        <time>2017-03-25T23:45:24Z</time>
      </trkpt>
      <trkpt lat="43.80382" lon="6.94271">
        <ele>1233.583</ele>
        <time>2017-03-25T23:45:44Z</time>
      </trkpt>
      <trkpt lat="43.80373" lon="6.94238">
        <ele>1228.822</ele>
        <time>2017-03-25T23:46:04Z</time>
      </trkpt>
      <trkpt lat="43.80367" lon="6.94301">
        <ele>1221.06</ele>
        <time>2017-03-25T23:46:24Z</time>
      </trkpt>
      <trkpt lat="43.80359" lon="6.9429">
        <ele>1215.464</ele>
        <time>2017-03-25T23:46:44Z</time>
      </trkpt>
      <trkpt lat="43.80352" lon="6.94261">
        <ele>1212.506</ele>
        <time>2017-03-25T23:47:04Z</time>
      </trkpt>
      <trkpt lat="43.8034" lon="6.94286">
        <ele>1206.116</ele>
        <time>2017-03-25T23:47:24Z</time>
      </trkpt>
      <trkpt lat="43.80335" lon="6.94246">
        <ele>1204.008</ele>
        <time>2017-03-25T23:47:44Z</time>
      </trkpt>
      <trkpt lat="43.80325" lon="6.94266">
        <ele>1199.059</ele>
        <time>2017-03-25T23:48:04Z</time>
      </trkpt>
      <trkpt lat="43.80305" lon="6.94377">
        <ele>1182.032</ele>
        <time>2017-03-25T23:48:24Z</time>
      </trkpt>
      <trkpt lat="43.8032" lon="6.94436">
        <ele>1177.14</ele>
        <time>2017-03-25T23:48:44Z</time>
      </trkpt>
      <trkpt lat="43.80295" lon="6.94421">
        <ele>1169.99</ele>
        <time>2017-03-25T23:49:04Z</time>
      </trkpt>
      <trkpt lat="43.80299" lon="6.94453">
        <ele>1164.72</ele>
        <time>2017-03-25T23:49:24Z</time>
      </trkpt>
      <trkpt lat="43.80278" lon="6.9444">
        <ele>1160.024</ele>
        <time>2017-03-25T23:49:44Z</time>
      </trkpt>
      <trkpt lat="43.80277" lon="6.94478">
        <ele>1153.263</ele>
        <time>2017-03-25T23:50:04Z</time>
      </trkpt>
      <trkpt lat="43.80283" lon="6.94517">
        <ele>1148.571</ele>
        <time>2017-03-25T23:50:24Z</time>
      </trkpt>
      <trkpt lat="43.80281" lon="6.94538">
        <ele>1146.733</ele>
        <time>2017-03-25T23:50:44Z</time>
      </trkpt>
      <trkpt lat="43.80272" lon="6.94525">
        <ele>1142.723</ele>
        <time>2017-03-25T23:51:04Z</time>
      </trkpt>
      <trkpt lat="43.80272" lon="6.94554">
        <ele>1142.115</ele>
        <time>2017-03-25T23:51:24Z</time>
      </trkpt>
      <trkpt lat="43.80251" lon="6.94606">
        <ele>1135.208</ele>
        <time>2017-03-25T23:51:44Z</time>
      </trkpt>
      <trkpt lat="43.80252" lon="6.94678">
        <ele>1134.146</ele>
        <time>2017-03-25T23:52:04Z</time>
      </trkpt>
      <trkpt lat="43.80262" lon="6.94691">
        <ele>1143.079</ele>
        <time>2017-03-25T23:52:24Z</time>
      </trkpt>
      <trkpt lat="43.80255" lon="6.94761">
        <ele>1119.217</ele>
        <time>2017-03-25T23:52:44Z</time>
      </trkpt>
      <trkpt lat="43.80248" lon="6.94775">
        <ele>1111.697</ele>
        <time>2017-03-25T23:53:04Z</time>
      </trkpt>
      <trkpt lat="43.80251" lon="6.94815">
        <ele>1108.827</ele>
        <time>2017-03-25T23:53:24Z</time>
      </trkpt>
      <trkpt lat="43.80241" lon="6.94805">
        <ele>1102.391</ele>
        <time>2017-03-25T23:53:44Z</time>
      </trkpt>
      <trkpt lat="43.80225" lon="6.94853">
        <ele>1093.18</ele>
        <time>2017-03-25T23:54:04Z</time>
      </trkpt>
      <trkpt lat="43.80219" lon="6.94823">
        <ele>1087.868</ele>
        <time>2017-03-25T23:54:24Z</time>
      </trkpt>
      <trkpt lat="43.80214" lon="6.94813">
        <ele>1084.647</ele>
        <time>2017-03-25T23:54:44Z</time>
      </trkpt>
      <trkpt lat="43.80214" lon="6.94796">
        <ele>1084.429</ele>
        <time>2017-03-25T23:55:04Z</time>
      </trkpt>
      <trkpt lat="43.80207" lon="6.94801">
        <ele>1080.121</ele>
        <time>2017-03-25T23:55:24Z</time>
      </trkpt>
      <trkpt lat="43.80208" lon="6.94783">
        <ele>1079.408</ele>
        <time>2017-03-25T23:55:44Z</time>
      </trkpt>
      <trkpt lat="43.80184" lon="6.94805">
        <ele>1067.757</ele>
        <time>2017-03-25T23:56:04Z</time>
      </trkpt>
      <trkpt lat="43.80144" lon="6.9487">
        <ele>1053.59</ele>
        <time>2017-03-25T23:56:24Z</time>
      </trkpt>
      <trkpt lat="43.8013" lon="6.94877">
        <ele>1048.028</ele>
        <time>2017-03-25T23:56:44Z</time>
      </trkpt>
      <trkpt lat="43.80117" lon="6.9489">
        <ele>1043.688</ele>
        <time>2017-03-25T23:57:04Z</time>
      </trkpt>
      <trkpt lat="43.80108" lon="6.94869">
        <ele>1038.228</ele>
        <time>2017-03-25T23:57:24Z</time>
      </trkpt>
      <trkpt lat="43.80103" lon="6.94853">
        <ele>1034.722</ele>
        <time>2017-03-25T23:57:44Z</time>
      </trkpt>
      <trkpt lat="43.80103" lon="6.9482">
        <ele>1031.381</ele>
        <time>2017-03-25T23:58:04Z</time>
      </trkpt>
      <trkpt lat="43.80098" lon="6.94792">
        <ele>1025.779</ele>
        <time>2017-03-25T23:58:24Z</time>
      </trkpt>
      <trkpt lat="43.80102" lon="6.9477">
        <ele>1024.126</ele>
        <time>2017-03-25T23:58:44Z</time>
      </trkpt>
      <trkpt lat="43.80093" lon="6.94743">
        <ele>1016.647</ele>
        <time>2017-03-25T23:59:04Z</time>
      </trkpt>
      <trkpt lat="43.80081" lon="6.94755">
        <ele>1013.611</ele>
        <time>2017-03-25T23:59:24Z</time>
      </trkpt>
      <trkpt lat="43.80068" lon="6.94701">
        <ele>1002.208</ele>
        <time>2017-03-25T23:59:44Z</time>
      </trkpt>
      <trkpt lat="43.80058" lon="6.94688">
        <ele>998.675</ele>
        <time>2017-03-26T00:00:04Z</time>
      </trkpt>
      <trkpt lat="43.80043" lon="6.94659">
        <ele>994.348</ele>
        <time>2017-03-26T00:00:24Z</time>
      </trkpt>
      <trkpt lat="43.8003" lon="6.94651">
        <ele>990.686</ele>
        <time>2017-03-26T00:00:44Z</time>
      </trkpt>
      <trkpt lat="43.8" lon="6.9467">
        <ele>982.926</ele>
        <time>2017-03-26T00:01:04Z</time>
      </trkpt>
      <trkpt lat="43.79992" lon="6.94683">
        <ele>980.796</ele>
        <time>2017-03-26T00:01:24Z</time>
      </trkpt>
      <trkpt lat="43.79982" lon="6.94676">
        <ele>978.31</ele>
        <time>2017-03-26T00:01:44Z</time>
      </trkpt>
      <trkpt lat="43.79976" lon="6.94651">
        <ele>976.939</ele>
        <time>2017-03-26T00:02:04Z</time>
      </trkpt>
      <trkpt lat="43.79968" lon="6.94666">
        <ele>973.857</ele>
        <time>2017-03-26T00:02:24Z</time>
      </trkpt>
      <trkpt lat="43.79963" lon="6.94622">
        <ele>970.145</ele>
        <time>2017-03-26T00:02:44Z</time>
      </trkpt>
      <trkpt lat="43.7997" lon="6.94603">
        <ele>971.547</ele>
        <time>2017-03-26T00:03:04Z</time>
      </trkpt>
      <trkpt lat="43.79959" lon="6.94597">
        <ele>965.911</ele>
        <time>2017-03-26T00:03:24Z</time>
      </trkpt>
      <trkpt lat="43.79957" lon="6.9461">
        <ele>965.808</ele>
        <time>2017-03-26T00:03:44Z</time>
      </trkpt>
      <trkpt lat="43.79947" lon="6.94612">
        <ele>961.137</ele>
        <time>2017-03-26T00:04:04Z</time>
      </trkpt>
      <trkpt lat="43.79948" lon="6.94593">
        <ele>960.58</ele>
        <time>2017-03-26T00:04:24Z</time>
      </trkpt>
      <trkpt lat="43.79942" lon="6.94577">
        <ele>956.848</ele>
        <time>2017-03-26T00:04:44Z</time>
      </trkpt>
      <trkpt lat="43.79935" lon="6.94586">
        <ele>954.178</ele>
        <time>2017-03-26T00:05:04Z</time>
      </trkpt>
      <trkpt lat="43.7993" lon="6.94565">
        <ele>950.968</ele>
        <time>2017-03-26T00:05:24Z</time>
      </trkpt>
      <trkpt lat="43.79933" lon="6.94543">
        <ele>952.072</ele>
        <time>2017-03-26T00:05:44Z</time>
      </trkpt>
      <trkpt lat="43.79929" lon="6.94514">
        <ele>949.241</ele>
        <time>2017-03-26T00:06:04Z</time>
      </trkpt>
      <trkpt lat="43.79915" lon="6.94492">
        <ele>939.929</ele>
        <time>2017-03-26T00:06:24Z</time>
      </trkpt>
      <trkpt lat="43.79886" lon="6.94472">
        <ele>923.297</ele>
        <time>2017-03-26T00:06:44Z</time>
      </trkpt>
      <trkpt lat="43.79869" lon="6.94469">
        <ele>918.023</ele>
        <time>2017-03-26T00:07:04Z</time>
      </trkpt>
      <trkpt lat="43.79845" lon="6.94514">
        <ele>912.125</ele>
        <time>2017-03-26T00:07:24Z</time>
      </trkpt>
      <trkpt lat="43.79836" lon="6.94566">
        <ele>909.508</ele>
        <time>2017-03-26T00:07:44Z</time>
      </trkpt>
      <trkpt lat="43.79821" lon="6.94636">
        <ele>901.072</ele>
        <time>2017-03-26T00:08:04Z</time>
      </trkpt>
      <trkpt lat="43.79794" lon="6.94613">
        <ele>894.775</ele>
        <time>2017-03-26T00:08:24Z</time>
      </trkpt>
      <trkpt lat="43.7977" lon="6.94605">
        <ele>889.693</ele>
        <time>2017-03-26T00:08:44Z</time>
      </trkpt>
      <trkpt lat="43.79752" lon="6.94541">
        <ele>888.283</ele>
        <time>2017-03-26T00:09:04Z</time>
      </trkpt>
      <trkpt lat="43.79728" lon="6.94534">
        <ele>881.223</ele>
        <time>2017-03-26T00:09:24Z</time>
      </trkpt>
      <trkpt lat="43.79708" lon="6.94516">
        <ele>875.247</ele>
        <time>2017-03-26T00:09:44Z</time>
      </trkpt>
      <trkpt lat="43.79692" lon="6.94512">
        <ele>869.916</ele>
        <time>2017-03-26T00:10:04Z</time>
      </trkpt>
      <trkpt lat="43.7967" lon="6.94495">
        <ele>861.484</ele>
        <time>2017-03-26T00:10:24Z</time>
      </trkpt>
      <trkpt lat="43.79643" lon="6.94497">
        <ele>854.022</ele>
        <time>2017-03-26T00:10:44Z</time>
      </trkpt>
      <trkpt lat="43.79618" lon="6.94491">
        <ele>849.262</ele>
        <time>2017-03-26T00:11:04Z</time>
      </trkpt>
      <trkpt lat="43.79607" lon="6.94496">
        <ele>846.408</ele>
        <time>2017-03-26T00:11:24Z</time>
      </trkpt>
      <trkpt lat="43.79602" lon="6.94519">
        <ele>840.208</ele>
        <time>2017-03-26T00:11:44Z</time>
      </trkpt>
      <trkpt lat="43.79586" lon="6.94488">
        <ele>842.635</ele>
        <time>2017-03-26T00:12:04Z</time>
      </trkpt>
      <trkpt lat="43.7956" lon="6.94474">
        <ele>837.348</ele>
        <time>2017-03-26T00:12:24Z</time>
      </trkpt>
      <trkpt lat="43.79559" lon="6.94404">
        <ele>841.386</ele>
        <time>2017-03-26T00:12:44Z</time>
      </trkpt>
      <trkpt lat="43.79557" lon="6.94379">
        <ele>841.396</ele>
        <time>2017-03-26T00:13:04Z</time>
      </trkpt>
      <trkpt lat="43.79536" lon="6.94378">
        <ele>838.626</ele>
        <time>2017-03-26T00:13:24Z</time>
      </trkpt>
      <trkpt lat="43.79539" lon="6.94369">
        <ele>839.71</ele>
        <time>2017-03-26T00:13:44Z</time>
      </trkpt>
      <trkpt lat="43.79501" lon="6.94342">
        <ele>837.219</ele>
        <time>2017-03-26T00:14:04Z</time>
      </trkpt>
      <trkpt lat="43.79469" lon="6.94354">
        <ele>828.597</ele>
        <time>2017-03-26T00:14:24Z</time>
      </trkpt>
      <trkpt lat="43.79462" lon="6.94329">
        <ele>827.373</ele>
        <time>2017-03-26T00:14:44Z</time>
      </trkpt>
      <trkpt lat="43.79452" lon="6.94322">
        <ele>822.185</ele>
        <time>2017-03-26T00:15:04Z</time>
      </trkpt>
      <trkpt lat="43.79443" lon="6.9429">
        <ele>817.813</ele>
        <time>2017-03-26T00:15:24Z</time>
      </trkpt>
      <trkpt lat="43.79429" lon="6.9431">
        <ele>807.808</ele>
        <time>2017-03-26T00:15:44Z</time>
      </trkpt>
      <trkpt lat="43.79411" lon="6.94288">
        <ele>795.59</ele>
        <time>2017-03-26T00:16:04Z</time>
      </trkpt>
      <trkpt lat="43.7939" lon="6.94283">
        <ele>782.863</ele>
        <time>2017-03-26T00:16:24Z</time>
      </trkpt>
      <trkpt lat="43.7938" lon="6.94262">
        <ele>774.411</ele>
        <time>2017-03-26T00:16:44Z</time>
      </trkpt>
      <trkpt lat="43.79384" lon="6.94229">
        <ele>775.631</ele>
        <time>2017-03-26T00:17:04Z</time>
      </trkpt>
      <trkpt lat="43.79377" lon="6.94213">
        <ele>771.521</ele>
        <time>2017-03-26T00:17:24Z</time>
      </trkpt>
      <trkpt lat="43.79348" lon="6.94259">
        <ele>752.435</ele>
        <time>2017-03-26T00:17:44Z</time>
      </trkpt>
      <trkpt lat="43.79339" lon="6.94278">
        <ele>747.764</ele>
        <time>2017-03-26T00:18:04Z</time>
      </trkpt>
      <trkpt lat="43.79315" lon="6.94298">
        <ele>735.692</ele>
        <time>2017-03-26T00:18:24Z</time>
      </trkpt>
      <trkpt lat="43.79303" lon="6.9433">
        <ele>731.723</ele>
        <time>2017-03-26T00:18:44Z</time>
      </trkpt>
      <trkpt lat="43.79307" lon="6.94367">
        <ele>730.683</ele>
        <time>2017-03-26T00:19:04Z</time>
      </trkpt>
      <trkpt lat="43.79306" lon="6.94387">
        <ele>729.311</ele>
        <time>2017-03-26T00:19:24Z</time>
      </trkpt>
      <trkpt lat="43.79316" lon="6.94416">
        <ele>734.608</ele>
        <time>2017-03-26T00:19:44Z</time>
      </trkpt>
      <trkpt lat="43.79314" lon="6.94438">
        <ele>735.225</ele>
        <time>2017-03-26T00:20:04Z</time>
      </trkpt>
      <trkpt lat="43.793" lon="6.94446">
        <ele>729.538</ele>
        <time>2017-03-26T00:22:04Z</time>
      </trkpt>
      <trkpt lat="43.79283" lon="6.94437">
        <ele>722.366</ele>
        <time>2017-03-26T00:22:24Z</time>
      </trkpt>
      <trkpt lat="43.7928" lon="6.94377">
        <ele>721.046</ele>
        <time>2017-03-26T00:22:44Z</time>
      </trkpt>
      <trkpt lat="43.79266" lon="6.9437">
        <ele>716.776</ele>
        <time>2017-03-26T00:23:04Z</time>
      </trkpt>
      <trkpt lat="43.79255" lon="6.94379">
        <ele>713.25</ele>
        <time>2017-03-26T00:23:24Z</time>
      </trkpt>
      <trkpt lat="43.79246" lon="6.94418">
        <ele>710.049</ele>
        <time>2017-03-26T00:23:44Z</time>
      </trkpt>
      <trkpt lat="43.79231" lon="6.94448">
        <ele>704.017</ele>
        <time>2017-03-26T00:24:04Z</time>
      </trkpt>
      <trkpt lat="43.79233" lon="6.94482">
        <ele>702.298</ele>
        <time>2017-03-26T00:24:24Z</time>
      </trkpt>
      <trkpt lat="43.7922" lon="6.94506">
        <ele>697.215</ele>
        <time>2017-03-26T00:24:44Z</time>
      </trkpt>
      <trkpt lat="43.79208" lon="6.94563">
        <ele>690.926</ele>
        <time>2017-03-26T00:25:04Z</time>
      </trkpt>
      <trkpt lat="43.79167" lon="6.94606">
        <ele>680.808</ele>
        <time>2017-03-26T00:25:24Z</time>
      </trkpt>
      <trkpt lat="43.79164" lon="6.94592">
        <ele>679.362</ele>
        <time>2017-03-26T00:25:44Z</time>
      </trkpt>
      <trkpt lat="43.79126" lon="6.946">
        <ele>671.835</ele>
        <time>2017-03-26T00:26:04Z</time>
      </trkpt>
      <trkpt lat="43.79113" lon="6.94665">
        <ele>663.543</ele>
        <time>2017-03-26T00:26:24Z</time>
      </trkpt>
      <trkpt lat="43.79077" lon="6.94652">
        <ele>647.323</ele>
        <time>2017-03-26T00:26:44Z</time>
      </trkpt>
      <trkpt lat="43.79079" lon="6.94674">
        <ele>641.583</ele>
        <time>2017-03-26T00:27:04Z</time>
      </trkpt>
      <trkpt lat="43.79061" lon="6.9465">
        <ele>640.097</ele>
        <time>2017-03-26T00:27:24Z</time>
      </trkpt>
      <trkpt lat="43.79011" lon="6.94702">
        <ele>614.096</ele>
        <time>2017-03-26T00:27:44Z</time>
      </trkpt>
      <trkpt lat="43.78991" lon="6.9475">
        <ele>596.474</ele>
        <time>2017-03-26T00:28:04Z</time>
      </trkpt>
      <trkpt lat="43.78989" lon="6.94793">
        <ele>595.662</ele>
        <time>2017-03-26T00:28:24Z</time>
      </trkpt>
      <trkpt lat="43.78973" lon="6.94832">
        <ele>590.283</ele>
        <time>2017-03-26T00:28:44Z</time>
      </trkpt>
      <trkpt lat="43.78964" lon="6.94943">
        <ele>587.811</ele>
        <time>2017-03-26T00:29:04Z</time>
      </trkpt>
      <trkpt lat="43.78959" lon="6.94914">
        <ele>583.608</ele>
        <time>2017-03-26T00:29:24Z</time>
      </trkpt>
      <trkpt lat="43.78956" lon="6.94849">
        <ele>581.329</ele>
        <time>2017-03-26T00:29:44Z</time>
      </trkpt>
      <trkpt lat="43.78947" lon="6.94836">
        <ele>575.342</ele>
        <time>2017-03-26T00:30:04Z</time>
      </trkpt>
      <trkpt lat="43.78914" lon="6.94825">
        <ele>570.52</ele>
        <time>2017-03-26T00:30:24Z</time>
      </trkpt>
      <trkpt lat="43.78904" lon="6.94845">
        <ele>572.13</ele>
        <time>2017-03-26T00:30:44Z</time>
      </trkpt>
      <trkpt lat="43.78898" lon="6.94899">
        <ele>571.92</ele>
        <time>2017-03-26T00:31:04Z</time>
      </trkpt>
      <trkpt lat="43.78889" lon="6.94908">
        <ele>572.084</ele>
        <time>2017-03-26T00:31:24Z</time>
      </trkpt>
      <trkpt lat="43.78875" lon="6.94934">
        <ele>574.293</ele>
        <time>2017-03-26T00:31:44Z</time>
      </trkpt>
      <trkpt lat="43.78874" lon="6.94916">
        <ele>575.941</ele>
        <time>2017-03-26T00:32:04Z</time>
      </trkpt>
      <trkpt lat="43.78848" lon="6.94939">
        <ele>581.516</ele>
        <time>2017-03-26T00:32:24Z</time>
      </trkpt>
      <trkpt lat="43.78845" lon="6.94896">
        <ele>588.476</ele>
        <time>2017-03-26T00:32:44Z</time>
      </trkpt>
      <trkpt lat="43.78827" lon="6.94897">
        <ele>594.713</ele>
        <time>2017-03-26T00:33:04Z</time>
      </trkpt>
      <trkpt lat="43.78813" lon="6.94916">
        <ele>596.008</ele>
        <time>2017-03-26T00:33:24Z</time>
      </trkpt>
      <trkpt lat="43.78807" lon="6.94899">
        <ele>600.114</ele>
        <time>2017-03-26T00:33:44Z</time>
      </trkpt>
      <trkpt lat="43.78776" lon="6.94901">
        <ele>610.547</ele>
        <time>2017-03-26T00:34:04Z</time>
      </trkpt>
      <trkpt lat="43.78737" lon="6.94986">
        <ele>619.065</ele>
        <time>2017-03-26T00:34:24Z</time>
      </trkpt>
      <trkpt lat="43.78727" lon="6.94983">
        <ele>623.385</ele>
        <time>2017-03-26T00:34:44Z</time>
      </trkpt>
      <trkpt lat="43.78717" lon="6.94977">
        <ele>628.755</ele>
        <time>2017-03-26T00:35:04Z</time>
      </trkpt>
      <trkpt lat="43.7871" lon="6.94953">
        <ele>639.229</ele>
        <time>2017-03-26T00:35:24Z</time>
      </trkpt>
      <trkpt lat="43.78659" lon="6.95002">
        <ele>650.488</ele>
        <time>2017-03-26T00:35:44Z</time>
      </trkpt>
      <trkpt lat="43.78652" lon="6.95044">
        <ele>649.246</ele>
        <time>2017-03-26T00:36:04Z</time>
      </trkpt>
      <trkpt lat="43.78646" lon="6.95112">
        <ele>659.239</ele>
        <time>2017-03-26T00:36:24Z</time>
      </trkpt>
      <trkpt lat="43.78625" lon="6.95174">
        <ele>663.801</ele>
        <time>2017-03-26T00:36:44Z</time>
      </trkpt>
      <trkpt lat="43.78613" lon="6.95178">
        <ele>666.421</ele>
        <time>2017-03-26T00:37:04Z</time>
      </trkpt>
      <trkpt lat="43.78598" lon="6.9517">
        <ele>671.308</ele>
        <time>2017-03-26T00:37:24Z</time>
      </trkpt>
      <trkpt lat="43.78584" lon="6.95173">
        <ele>673.356</ele>
        <time>2017-03-26T00:37:44Z</time>
      </trkpt>
      <trkpt lat="43.7853" lon="6.95178">
        <ele>679.839</ele>
        <time>2017-03-26T00:38:04Z</time>
      </trkpt>
      <trkpt lat="43.78487" lon="6.95202">
        <ele>695.717</ele>
        <time>2017-03-26T00:38:24Z</time>
      </trkpt>
      <trkpt lat="43.78461" lon="6.95228">
        <ele>704.147</ele>
        <time>2017-03-26T00:38:44Z</time>
      </trkpt>
      <trkpt lat="43.78416" lon="6.95284">
        <ele>718.127</ele>
        <time>2017-03-26T00:39:04Z</time>
      </trkpt>
      <trkpt lat="43.78412" lon="6.95306">
        <ele>720.291</ele>
        <time>2017-03-26T00:39:24Z</time>
      </trkpt>
      <trkpt lat="43.78401" lon="6.95325">
        <ele>725.21</ele>
        <time>2017-03-26T00:39:44Z</time>
      </trkpt>
      <trkpt lat="43.78396" lon="6.95343">
        <ele>727.828</ele>
        <time>2017-03-26T00:40:04Z</time>
      </trkpt>
      <trkpt lat="43.78382" lon="6.95374">
        <ele>734.748</ele>
        <time>2017-03-26T00:40:24Z</time>
      </trkpt>
      <trkpt lat="43.78378" lon="6.95426">
        <ele>742.361</ele>
        <time>2017-03-26T00:40:44Z</time>
      </trkpt>
      <trkpt lat="43.78387" lon="6.95457">
        <ele>743.117</ele>
        <time>2017-03-26T00:41:04Z</time>
      </trkpt>
      <trkpt lat="43.78398" lon="6.95522">
        <ele>747.808</ele>
        <time>2017-03-26T00:41:24Z</time>
      </trkpt>
      <trkpt lat="43.78406" lon="6.9556">
        <ele>747.647</ele>
        <time>2017-03-26T00:41:44Z</time>
      </trkpt>
      <trkpt lat="43.78384" lon="6.95519">
        <ele>753.61</ele>
        <time>2017-03-26T00:42:04Z</time>
      </trkpt>
      <trkpt lat="43.78359" lon="6.9553">
        <ele>758.158</ele>
        <time>2017-03-26T00:42:24Z</time>
      </trkpt>
      <trkpt lat="43.78344" lon="6.95542">
        <ele>757.788</ele>
        <time>2017-03-26T00:42:44Z</time>
      </trkpt>
      <trkpt lat="43.78331" lon="6.95539">
        <ele>757.758</ele>
        <time>2017-03-26T00:43:04Z</time>
      </trkpt>
      <trkpt lat="43.78307" lon="6.9555">
        <ele>755.752</ele>
        <time>2017-03-26T00:43:24Z</time>
      </trkpt>
      <trkpt lat="43.78281" lon="6.95571">
        <ele>752.111</ele>
        <time>2017-03-26T00:43:44Z</time>
      </trkpt>
      <trkpt lat="43.78253" lon="6.95541">
        <ele>757.249</ele>
        <time>2017-03-26T00:44:04Z</time>
      </trkpt>
      <trkpt lat="43.78224" lon="6.95449">
        <ele>771.631</ele>
        <time>2017-03-26T00:44:24Z</time>
      </trkpt>
      <trkpt lat="43.78199" lon="6.95421">
        <ele>781.661</ele>
        <time>2017-03-26T00:44:44Z</time>
      </trkpt>
      <trkpt lat="43.78179" lon="6.95376">
        <ele>785.707</ele>
        <time>2017-03-26T00:45:04Z</time>
      </trkpt>
      <trkpt lat="43.78168" lon="6.9531">
        <ele>790.208</ele>
        <time>2017-03-26T00:45:24Z</time>
      </trkpt>
      <trkpt lat="43.78152" lon="6.95286">
        <ele>794.516</ele>
        <time>2017-03-26T00:45:44Z</time>
      </trkpt>
      <trkpt lat="43.7811" lon="6.95261">
        <ele>801.429</ele>
        <time>2017-03-26T00:46:04Z</time>
      </trkpt>
      <trkpt lat="43.78075" lon="6.95224">
        <ele>806.847</ele>
        <time>2017-03-26T00:46:24Z</time>
      </trkpt>
      <trkpt lat="43.78063" lon="6.95183">
        <ele>812.237</ele>
        <time>2017-03-26T00:46:44Z</time>
      </trkpt>
      <trkpt lat="43.78028" lon="6.95152">
        <ele>817.577</ele>
        <time>2017-03-26T00:47:04Z</time>
      </trkpt>
      <trkpt lat="43.77988" lon="6.95106">
        <ele>820.931</ele>
        <time>2017-03-26T00:47:24Z</time>
      </trkpt>
      <trkpt lat="43.77939" lon="6.95077">
        <ele>821.77</ele>
        <time>2017-03-26T00:47:44Z</time>
      </trkpt>
      <trkpt lat="43.77897" lon="6.95061">
        <ele>823.518</ele>
        <time>2017-03-26T00:48:04Z</time>
      </trkpt>
      <trkpt lat="43.77897" lon="6.9505">
        <ele>826.171</ele>
        <time>2017-03-26T00:48:24Z</time>
      </trkpt>
      <trkpt lat="43.7791" lon="6.95044">
        <ele>827.141</ele>
        <time>2017-03-26T00:48:44Z</time>
      </trkpt>
      <trkpt lat="43.77908" lon="6.95028">
        <ele>831.315</ele>
        <time>2017-03-26T00:49:04Z</time>
      </trkpt>
      <trkpt lat="43.7789" lon="6.95007">
        <ele>835.008</ele>
        <time>2017-03-26T00:49:24Z</time>
      </trkpt>
      <trkpt lat="43.7786" lon="6.94957">
        <ele>837.09</ele>
        <time>2017-03-26T01:07:24Z</time>
      </trkpt>
      <trkpt lat="43.77833" lon="6.94922">
        <ele>840.743</ele>
        <time>2017-03-26T01:07:44Z</time>
      </trkpt>
      <trkpt lat="43.778" lon="6.94902">
        <ele>842.861</ele>
        <time>2017-03-26T01:08:04Z</time>
      </trkpt>
      <trkpt lat="43.77765" lon="6.94906">
        <ele>842.391</ele>
        <time>2017-03-26T01:08:24Z</time>
      </trkpt>
      <trkpt lat="43.77737" lon="6.94895">
        <ele>847.731</ele>
        <time>2017-03-26T01:08:44Z</time>
      </trkpt>
      <trkpt lat="43.77719" lon="6.94875">
        <ele>850.695</ele>
        <time>2017-03-26T01:09:04Z</time>
      </trkpt>
      <trkpt lat="43.77664" lon="6.94759">
        <ele>857.924</ele>
        <time>2017-03-26T01:09:24Z</time>
      </trkpt>
      <trkpt lat="43.77647" lon="6.94742">
        <ele>858.692</ele>
        <time>2017-03-26T01:09:44Z</time>
      </trkpt>
      <trkpt lat="43.77624" lon="6.94708">
        <ele>859.589</ele>
        <time>2017-03-26T01:10:04Z</time>
      </trkpt>
      <trkpt lat="43.77602" lon="6.94666">
        <ele>858.506</ele>
        <time>2017-03-26T01:10:24Z</time>
      </trkpt>
      <trkpt lat="43.77602" lon="6.94644">
        <ele>859.126</ele>
        <time>2017-03-26T01:10:44Z</time>
      </trkpt>
      <trkpt lat="43.77589" lon="6.94637">
        <ele>858.608</ele>
        <time>2017-03-26T01:11:04Z</time>
      </trkpt>
      <trkpt lat="43.77564" lon="6.94606">
        <ele>863.461</ele>
        <time>2017-03-26T01:11:24Z</time>
      </trkpt>
      <trkpt lat="43.77557" lon="6.94585">
        <ele>866.824</ele>
        <time>2017-03-26T01:11:44Z</time>
      </trkpt>
      <trkpt lat="43.77512" lon="6.94549">
        <ele>878.722</ele>
        <time>2017-03-26T01:12:04Z</time>
      </trkpt>
      <trkpt lat="43.77508" lon="6.94538">
        <ele>882.112</ele>
        <time>2017-03-26T01:12:24Z</time>
      </trkpt>
      <trkpt lat="43.77492" lon="6.94531">
        <ele>885.882</ele>
        <time>2017-03-26T01:12:44Z</time>
      </trkpt>
      <trkpt lat="43.77473" lon="6.94549">
        <ele>885.536</ele>
        <time>2017-03-26T01:13:04Z</time>
      </trkpt>
      <trkpt lat="43.77477" lon="6.94533">
        <ele>888.485</ele>
        <time>2017-03-26T01:13:24Z</time>
      </trkpt>
      <trkpt lat="43.77427" lon="6.94557">
        <ele>896.613</ele>
        <time>2017-03-26T01:13:44Z</time>
      </trkpt>
      <trkpt lat="43.774" lon="6.94552">
        <ele>903.395</ele>
        <time>2017-03-26T01:14:04Z</time>
      </trkpt>
      <trkpt lat="43.77388" lon="6.94552">
        <ele>905.449</ele>
        <time>2017-03-26T01:14:24Z</time>
      </trkpt>
      <trkpt lat="43.77403" lon="6.94529">
        <ele>909.223</ele>
        <time>2017-03-26T01:14:44Z</time>
      </trkpt>
      <trkpt lat="43.774" lon="6.9452">
        <ele>911.508</ele>
        <time>2017-03-26T01:15:04Z</time>
      </trkpt>
      <trkpt lat="43.77386" lon="6.94521">
        <ele>913.882</ele>
        <time>2017-03-26T01:15:24Z</time>
      </trkpt>
      <trkpt lat="43.7739" lon="6.94491">
        <ele>918.195</ele>
        <time>2017-03-26T01:15:44Z</time>
      </trkpt>
      <trkpt lat="43.77359" lon="6.94511">
        <ele>921.673</ele>
        <time>2017-03-26T01:16:04Z</time>
      </trkpt>
      <trkpt lat="43.77332" lon="6.94522">
        <ele>926.663</ele>
        <time>2017-03-26T01:16:24Z</time>
      </trkpt>
      <trkpt lat="43.77299" lon="6.94515">
        <ele>933.843</ele>
        <time>2017-03-26T01:16:44Z</time>
      </trkpt>
      <trkpt lat="43.77279" lon="6.94496">
        <ele>940.557</ele>
        <time>2017-03-26T01:17:04Z</time>
      </trkpt>
      <trkpt lat="43.77284" lon="6.94475">
        <ele>943.016</ele>
        <time>2017-03-26T01:17:24Z</time>
      </trkpt>
      <trkpt lat="43.77282" lon="6.94453">
        <ele>946.354</ele>
        <time>2017-03-26T01:17:44Z</time>
      </trkpt>
      <trkpt lat="43.77242" lon="6.94458">
        <ele>949.819</ele>
        <time>2017-03-26T01:18:04Z</time>
      </trkpt>
      <trkpt lat="43.77218" lon="6.94435">
        <ele>954.309</ele>
        <time>2017-03-26T01:18:24Z</time>
      </trkpt>
      <trkpt lat="43.77199" lon="6.94426">
        <ele>956.319</ele>
        <time>2017-03-26T01:18:44Z</time>
      </trkpt>
      <trkpt lat="43.77197" lon="6.94407">
        <ele>958.808</ele>
        <time>2017-03-26T01:19:04Z</time>
      </trkpt>
      <trkpt lat="43.77183" lon="6.94394">
        <ele>959.924</ele>
        <time>2017-03-26T01:19:24Z</time>
      </trkpt>
      <trkpt lat="43.77128" lon="6.94414">
        <ele>961.267</ele>
        <time>2017-03-26T01:19:44Z</time>
      </trkpt>
      <trkpt lat="43.77091" lon="6.94414">
        <ele>964.135</ele>
        <time>2017-03-26T01:20:04Z</time>
      </trkpt>
      <trkpt lat="43.77044" lon="6.94426">
        <ele>967.055</ele>
        <time>2017-03-26T01:20:24Z</time>
      </trkpt>
      <trkpt lat="43.77021" lon="6.94439">
        <ele>967.755</ele>
        <time>2017-03-26T01:20:44Z</time>
      </trkpt>
      <trkpt lat="43.77005" lon="6.94439">
        <ele>972.299</ele>
        <time>2017-03-26T01:21:04Z</time>
      </trkpt>
      <trkpt lat="43.76963" lon="6.94465">
        <ele>980.498</ele>
        <time>2017-03-26T01:21:24Z</time>
      </trkpt>
      <trkpt lat="43.76951" lon="6.94478">
        <ele>981.156</ele>
        <time>2017-03-26T01:21:44Z</time>
      </trkpt>
      <trkpt lat="43.76921" lon="6.94497">
        <ele>986.469</ele>
        <time>2017-03-26T01:22:04Z</time>
      </trkpt>
      <trkpt lat="43.76885" lon="6.94501">
        <ele>997.004</ele>
        <time>2017-03-26T01:22:24Z</time>
      </trkpt>
      <trkpt lat="43.76871" lon="6.9451">
        <ele>999.024</ele>
        <time>2017-03-26T01:22:44Z</time>
      </trkpt>
      <trkpt lat="43.76848" lon="6.94516">
        <ele>1006.608</ele>
        <time>2017-03-26T01:23:04Z</time>
      </trkpt>
      <trkpt lat="43.76805" lon="6.94561">
        <ele>1016.029</ele>
        <time>2017-03-26T01:23:24Z</time>
      </trkpt>
      <trkpt lat="43.76794" lon="6.94563">
        <ele>1020.272</ele>
        <time>2017-03-26T01:23:44Z</time>
      </trkpt>
      <trkpt lat="43.7678" lon="6.94581">
        <ele>1022.43</ele>
        <time>2017-03-26T01:24:04Z</time>
      </trkpt>
      <trkpt lat="43.7676" lon="6.94593">
        <ele>1028.09</ele>
        <time>2017-03-26T01:24:24Z</time>
      </trkpt>
      <trkpt lat="43.76768" lon="6.94561">
        <ele>1032.95</ele>
        <time>2017-03-26T01:24:44Z</time>
      </trkpt>
      <trkpt lat="43.76673" lon="6.94648">
        <ele>1055.244</ele>
        <time>2017-03-26T01:25:04Z</time>
      </trkpt>
      <trkpt lat="43.76674" lon="6.9463">
        <ele>1058.923</ele>
        <time>2017-03-26T01:25:24Z</time>
      </trkpt>
      <trkpt lat="43.76655" lon="6.94661">
        <ele>1059.751</ele>
        <time>2017-03-26T01:25:44Z</time>
      </trkpt>
      <trkpt lat="43.76654" lon="6.94649">
        <ele>1062.792</ele>
        <time>2017-03-26T01:26:04Z</time>
      </trkpt>
      <trkpt lat="43.76635" lon="6.94661">
        <ele>1066.673</ele>
        <time>2017-03-26T01:26:24Z</time>
      </trkpt>
      <trkpt lat="43.7664" lon="6.94643">
        <ele>1069.12</ele>
        <time>2017-03-26T01:26:44Z</time>
      </trkpt>
      <trkpt lat="43.76621" lon="6.94637">
        <ele>1073.708</ele>
        <time>2017-03-26T01:27:04Z</time>
      </trkpt>
      <trkpt lat="43.76593" lon="6.94628">
        <ele>1079.392</ele>
        <time>2017-03-26T01:27:24Z</time>
      </trkpt>
      <trkpt lat="43.7656" lon="6.94639">
        <ele>1080.545</ele>
        <time>2017-03-26T01:27:44Z</time>
      </trkpt>
      <trkpt lat="43.76534" lon="6.9464">
        <ele>1083.893</ele>
        <time>2017-03-26T01:28:04Z</time>
      </trkpt>
      <trkpt lat="43.76521" lon="6.94629">
        <ele>1085.933</ele>
        <time>2017-03-26T01:28:24Z</time>
      </trkpt>
      <trkpt lat="43.76504" lon="6.94629">
        <ele>1084.063</ele>
        <time>2017-03-26T01:28:44Z</time>
      </trkpt>
      <trkpt lat="43.76484" lon="6.94594">
        <ele>1087.557</ele>
        <time>2017-03-26T01:29:04Z</time>
      </trkpt>
      <trkpt lat="43.76476" lon="6.94589">
        <ele>1087.836</ele>
        <time>2017-03-26T01:29:24Z</time>
      </trkpt>
      <trkpt lat="43.76466" lon="6.946">
        <ele>1088.714</ele>
        <time>2017-03-26T01:29:44Z</time>
      </trkpt>
      <trkpt lat="43.76476" lon="6.94568">
        <ele>1089.167</ele>
        <time>2017-03-26T01:30:04Z</time>
      </trkpt>
      <trkpt lat="43.76479" lon="6.94543">
        <ele>1090.981</ele>
        <time>2017-03-26T01:30:24Z</time>
      </trkpt>
      <trkpt lat="43.76462" lon="6.94518">
        <ele>1094.619</ele>
        <time>2017-03-26T01:30:44Z</time>
      </trkpt>
      <trkpt lat="43.76435" lon="6.9447">
        <ele>1099.308</ele>
        <time>2017-03-26T01:31:04Z</time>
      </trkpt>
      <trkpt lat="43.76407" lon="6.94427">
        <ele>1100.619</ele>
        <time>2017-03-26T01:31:24Z</time>
      </trkpt>
      <trkpt lat="43.76407" lon="6.94391">
        <ele>1100.772</ele>
        <time>2017-03-26T01:31:44Z</time>
      </trkpt>
      <trkpt lat="43.76401" lon="6.94357">
        <ele>1101.84</ele>
        <time>2017-03-26T01:32:04Z</time>
      </trkpt>
      <trkpt lat="43.76404" lon="6.9433">
        <ele>1102.47</ele>
        <time>2017-03-26T01:32:24Z</time>
      </trkpt>
      <trkpt lat="43.76398" lon="6.94301">
        <ele>1104.44</ele>
        <time>2017-03-26T01:32:44Z</time>
      </trkpt>
      <trkpt lat="43.76408" lon="6.94278">
        <ele>1103.154</ele>
        <time>2017-03-26T01:33:04Z</time>
      </trkpt>
      <trkpt lat="43.7641" lon="6.94257">
        <ele>1103.543</ele>
        <time>2017-03-26T01:33:24Z</time>
      </trkpt>
      <trkpt lat="43.76398" lon="6.94241">
        <ele>1106.771</ele>
        <time>2017-03-26T01:33:44Z</time>
      </trkpt>
      <trkpt lat="43.76367" lon="6.94246">
        <ele>1109.828</ele>
        <time>2017-03-26T01:34:04Z</time>
      </trkpt>
      <trkpt lat="43.76306" lon="6.94217">
        <ele>1113.489</ele>
        <time>2017-03-26T01:34:24Z</time>
      </trkpt>
      <trkpt lat="43.7627" lon="6.94161">
        <ele>1116.317</ele>
        <time>2017-03-26T01:34:44Z</time>
      </trkpt>
      <trkpt lat="43.76222" lon="6.94106">
        <ele>1122.608</ele>
        <time>2017-03-26T01:35:04Z</time>
      </trkpt>
      <trkpt lat="43.76209" lon="6.94081">
        <ele>1123.695</ele>
        <time>2017-03-26T01:35:24Z</time>
      </trkpt>
      <trkpt lat="43.76181" lon="6.94046">
        <ele>1126.638</ele>
        <time>2017-03-26T01:35:44Z</time>
      </trkpt>
      <trkpt lat="43.7617" lon="6.94003">
        <ele>1125.586</ele>
        <time>2017-03-26T01:36:04Z</time>
      </trkpt>
      <trkpt lat="43.76158" lon="6.93988">
        <ele>1127.666</ele>
        <time>2017-03-26T01:36:24Z</time>
      </trkpt>
      <trkpt lat="43.76143" lon="6.93952">
        <ele>1128.986</ele>
        <time>2017-03-26T01:36:44Z</time>
      </trkpt>
      <trkpt lat="43.76149" lon="6.93916">
        <ele>1129.71</ele>
        <time>2017-03-26T01:37:04Z</time>
      </trkpt>
      <trkpt lat="43.76149" lon="6.939">
        <ele>1131.589</ele>
        <time>2017-03-26T01:37:24Z</time>
      </trkpt>
      <trkpt lat="43.76141" lon="6.93892">
        <ele>1132.627</ele>
        <time>2017-03-26T01:37:44Z</time>
      </trkpt>
      <trkpt lat="43.76133" lon="6.93866">
        <ele>1137.134</ele>
        <time>2017-03-26T01:38:04Z</time>
      </trkpt>
      <trkpt lat="43.76144" lon="6.93859">
        <ele>1137.355</ele>
        <time>2017-03-26T01:38:24Z</time>
      </trkpt>
      <trkpt lat="43.76142" lon="6.93839">
        <ele>1141.01</ele>
        <time>2017-03-26T01:38:44Z</time>
      </trkpt>
      <trkpt lat="43.76189" lon="6.93838">
        <ele>1140.608</ele>
        <time>2017-03-26T01:39:04Z</time>
      </trkpt>
      <trkpt lat="43.76183" lon="6.93813">
        <ele>1144.046</ele>
        <time>2017-03-26T01:39:24Z</time>
      </trkpt>
      <trkpt lat="43.76155" lon="6.938">
        <ele>1149.429</ele>
        <time>2017-03-26T01:39:44Z</time>
      </trkpt>
      <trkpt lat="43.76147" lon="6.93775">
        <ele>1152.757</ele>
        <time>2017-03-26T01:40:04Z</time>
      </trkpt>
      <trkpt lat="43.76133" lon="6.9376">
        <ele>1155.737</ele>
        <time>2017-03-26T01:40:24Z</time>
      </trkpt>
      <trkpt lat="43.76121" lon="6.93715">
        <ele>1160.287</ele>
        <time>2017-03-26T01:40:44Z</time>
      </trkpt>
      <trkpt lat="43.76123" lon="6.93691">
        <ele>1160.621</ele>
        <time>2017-03-26T01:41:04Z</time>
      </trkpt>
      <trkpt lat="43.76109" lon="6.93663">
        <ele>1164.83</ele>
        <time>2017-03-26T01:41:24Z</time>
      </trkpt>
      <trkpt lat="43.76108" lon="6.93642">
        <ele>1166.618</ele>
        <time>2017-03-26T01:41:44Z</time>
      </trkpt>
      <trkpt lat="43.761" lon="6.93619">
        <ele>1168.475</ele>
        <time>2017-03-26T01:42:04Z</time>
      </trkpt>
      <trkpt lat="43.76076" lon="6.93588">
        <ele>1172.928</ele>
        <time>2017-03-26T01:42:24Z</time>
      </trkpt>
      <trkpt lat="43.76077" lon="6.9355">
        <ele>1172.82</ele>
        <time>2017-03-26T01:42:44Z</time>
      </trkpt>
      <trkpt lat="43.76063" lon="6.93507">
        <ele>1177.608</ele>
        <time>2017-03-26T01:43:04Z</time>
      </trkpt>
      <trkpt lat="43.76069" lon="6.93479">
        <ele>1177.39</ele>
        <time>2017-03-26T01:43:24Z</time>
      </trkpt>
      <trkpt lat="43.76069" lon="6.93431">
        <ele>1179.843</ele>
        <time>2017-03-26T01:43:44Z</time>
      </trkpt>
      <trkpt lat="43.76064" lon="6.93407">
        <ele>1181.941</ele>
        <time>2017-03-26T01:44:04Z</time>
      </trkpt>
      <trkpt lat="43.76045" lon="6.93415">
        <ele>1185.551</ele>
        <time>2017-03-26T01:44:24Z</time>
      </trkpt>
      <trkpt lat="43.7603" lon="6.93406">
        <ele>1189.451</ele>
        <time>2017-03-26T01:44:44Z</time>
      </trkpt>
      <trkpt lat="43.76025" lon="6.93378">
        <ele>1191.935</ele>
        <time>2017-03-26T01:45:04Z</time>
      </trkpt>
      <trkpt lat="43.76024" lon="6.93353">
        <ele>1193.364</ele>
        <time>2017-03-26T01:45:24Z</time>
      </trkpt>
      <trkpt lat="43.76019" lon="6.93339">
        <ele>1195.042</ele>
        <time>2017-03-26T01:45:44Z</time>
      </trkpt>
      <trkpt lat="43.76022" lon="6.93304">
        <ele>1197.928</ele>
        <time>2017-03-26T01:46:04Z</time>
      </trkpt>
      <trkpt lat="43.75976" lon="6.93275">
        <ele>1208.589</ele>
        <time>2017-03-26T01:46:24Z</time>
      </trkpt>
      <trkpt lat="43.75949" lon="6.93248">
        <ele>1213.817</ele>
        <time>2017-03-26T01:46:44Z</time>
      </trkpt>
      <trkpt lat="43.75938" lon="6.93224">
        <ele>1217.308</ele>
        <time>2017-03-26T01:47:04Z</time>
      </trkpt>
      <trkpt lat="43.7589" lon="6.93198">
        <ele>1224.625</ele>
        <time>2017-03-26T01:47:24Z</time>
      </trkpt>
      <trkpt lat="43.75867" lon="6.93179">
        <ele>1230.528</ele>
        <time>2017-03-26T01:47:44Z</time>
      </trkpt>
      <trkpt lat="43.75815" lon="6.93103">
        <ele>1241.026</ele>
        <time>2017-03-26T01:48:04Z</time>
      </trkpt>
      <trkpt lat="43.75807" lon="6.93081">
        <ele>1243.016</ele>
        <time>2017-03-26T01:48:24Z</time>
      </trkpt>
      <trkpt lat="43.75812" lon="6.93026">
        <ele>1244.986</ele>
        <time>2017-03-26T01:48:44Z</time>
      </trkpt>
      <trkpt lat="43.75782" lon="6.92994">
        <ele>1249.49</ele>
        <time>2017-03-26T01:49:04Z</time>
      </trkpt>
      <trkpt lat="43.75756" lon="6.92955">
        <ele>1250.399</ele>
        <time>2017-03-26T01:49:24Z</time>
      </trkpt>
      <trkpt lat="43.7576" lon="6.92857">
        <ele>1249.387</ele>
        <time>2017-03-26T01:49:44Z</time>
      </trkpt>
      <trkpt lat="43.75758" lon="6.92817">
        <ele>1249.317</ele>
        <time>2017-03-26T01:50:04Z</time>
      </trkpt>
      <trkpt lat="43.75726" lon="6.92739">
        <ele>1251.887</ele>
        <time>2017-03-26T01:50:24Z</time>
      </trkpt>
      <trkpt lat="43.75711" lon="6.92686">
        <ele>1252.415</ele>
        <time>2017-03-26T01:50:44Z</time>
      </trkpt>
      <trkpt lat="43.75713" lon="6.92646">
        <ele>1252.308</ele>
        <time>2017-03-26T01:51:04Z</time>
      </trkpt>
      <trkpt lat="43.7574" lon="6.92563">
        <ele>1250.644</ele>
        <time>2017-03-26T01:51:24Z</time>
      </trkpt>
      <trkpt lat="43.75738" lon="6.92416">
        <ele>1249.067</ele>
        <time>2017-03-26T01:51:44Z</time>
      </trkpt>
      <trkpt lat="43.75729" lon="6.9233">
        <ele>1246.695</ele>
        <time>2017-03-26T01:52:04Z</time>
      </trkpt>
      <trkpt lat="43.7575" lon="6.92249">
        <ele>1242.085</ele>
        <time>2017-03-26T01:52:24Z</time>
      </trkpt>
      <trkpt lat="43.75745" lon="6.92207">
        <ele>1242.465</ele>
        <time>2017-03-26T01:52:44Z</time>
      </trkpt>
      <trkpt lat="43.75752" lon="6.92172">
        <ele>1241.939</ele>
        <time>2019-05-15T05:32:14Z</time>
      </trkpt>
      <trkpt lat="43.75753" lon="6.92042">
        <ele>1242.878</ele>
        <time>2019-05-15T05:32:34Z</time>
      </trkpt>
      <trkpt lat="43.75768" lon="6.91964">
        <ele>1241.756</ele>
        <time>2019-05-15T05:32:54Z</time>
      </trkpt>
      <trkpt lat="43.75705" lon="6.91829">
        <ele>1252.327</ele>
        <time>2019-05-15T05:33:14Z</time>
      </trkpt>
      <trkpt lat="43.75706" lon="6.91796">
        <ele>1253.868</ele>
        <time>2019-05-15T05:33:34Z</time>
      </trkpt>
      <trkpt lat="43.75725" lon="6.91734">
        <ele>1251.714</ele>
        <time>2019-05-15T05:33:54Z</time>
      </trkpt>
      <trkpt lat="43.75655" lon="6.91628">
        <ele>1251.908</ele>
        <time>2019-05-15T05:34:14Z</time>
      </trkpt>
      <trkpt lat="43.75639" lon="6.91581">
        <ele>1251.155</ele>
        <time>2019-05-15T05:34:34Z</time>
      </trkpt>
      <trkpt lat="43.75605" lon="6.91519">
        <ele>1259.258</ele>
        <time>2019-05-15T05:34:54Z</time>
      </trkpt>
      <trkpt lat="43.7558" lon="6.91444">
        <ele>1263.496</ele>
        <time>2019-05-15T05:35:14Z</time>
      </trkpt>
      <trkpt lat="43.75572" lon="6.91397">
        <ele>1262.086</ele>
        <time>2019-05-15T05:35:34Z</time>
      </trkpt>
      <trkpt lat="43.75534" lon="6.91289">
        <ele>1263.046</ele>
        <time>2019-05-15T05:35:54Z</time>
      </trkpt>
      <trkpt lat="43.75529" lon="6.91134">
        <ele>1269.64</ele>
        <time>2019-05-15T05:36:14Z</time>
      </trkpt>
      <trkpt lat="43.75506" lon="6.91124">
        <ele>1269.469</ele>
        <time>2019-05-15T05:36:34Z</time>
      </trkpt>
      <trkpt lat="43.75476" lon="6.91055">
        <ele>1268.697</ele>
        <time>2019-05-15T05:36:54Z</time>
      </trkpt>
      <trkpt lat="43.75461" lon="6.91002">
        <ele>1270.098</ele>
        <time>2019-05-15T05:37:14Z</time>
      </trkpt>
      <trkpt lat="43.75442" lon="6.90955">
        <ele>1267.715</ele>
        <time>2019-05-15T05:37:34Z</time>
      </trkpt>
      <trkpt lat="43.75394" lon="6.90891">
        <ele>1270.026</ele>
        <time>2019-05-15T05:37:54Z</time>
      </trkpt>
      <trkpt lat="43.7538" lon="6.90842">
        <ele>1271.208</ele>
        <time>2019-05-15T05:38:14Z</time>
      </trkpt>
      <trkpt lat="43.75333" lon="6.90799">
        <ele>1276.212</ele>
        <time>2019-05-15T05:38:34Z</time>
      </trkpt>
      <trkpt lat="43.75268" lon="6.90724">
        <ele>1266.645</ele>
        <time>2019-05-15T05:38:54Z</time>
      </trkpt>
      <trkpt lat="43.75232" lon="6.90619">
        <ele>1271.763</ele>
        <time>2019-05-15T05:39:14Z</time>
      </trkpt>
      <trkpt lat="43.75208" lon="6.90495">
        <ele>1278.383</ele>
        <time>2019-05-15T05:39:34Z</time>
      </trkpt>
      <trkpt lat="43.7519" lon="6.90447">
        <ele>1277.633</ele>
        <time>2019-05-15T05:39:54Z</time>
      </trkpt>
      <trkpt lat="43.75161" lon="6.9042">
        <ele>1270.077</ele>
        <time>2019-05-15T05:40:14Z</time>
      </trkpt>
      <trkpt lat="43.75148" lon="6.90396">
        <ele>1270.376</ele>
        <time>2019-05-15T05:40:34Z</time>
      </trkpt>
      <trkpt lat="43.75131" lon="6.90342">
        <ele>1270.584</ele>
        <time>2019-05-15T05:40:54Z</time>
      </trkpt>
      <trkpt lat="43.75126" lon="6.903">
        <ele>1274.234</ele>
        <time>2019-05-15T05:41:14Z</time>
      </trkpt>
      <trkpt lat="43.75101" lon="6.90254">
        <ele>1269.755</ele>
        <time>2019-05-15T05:41:34Z</time>
      </trkpt>
      <trkpt lat="43.75088" lon="6.90243">
        <ele>1264.11</ele>
        <time>2019-05-15T05:41:54Z</time>
      </trkpt>
      <trkpt lat="43.75075" lon="6.90215">
        <ele>1265.408</ele>
        <time>2019-05-15T05:42:14Z</time>
      </trkpt>
      <trkpt lat="43.75057" lon="6.90191">
        <ele>1260.756</ele>
        <time>2019-05-15T05:42:34Z</time>
      </trkpt>
      <trkpt lat="43.75029" lon="6.90145">
        <ele>1260.689</ele>
        <time>2019-05-15T05:42:54Z</time>
      </trkpt>
      <trkpt lat="43.75008" lon="6.90095">
        <ele>1260.527</ele>
        <time>2019-05-15T05:43:14Z</time>
      </trkpt>
      <trkpt lat="43.74992" lon="6.90074">
        <ele>1256.957</ele>
        <time>2019-05-15T05:43:34Z</time>
      </trkpt>
      <trkpt lat="43.74965" lon="6.90055">
        <ele>1250.637</ele>
        <time>2019-05-15T05:43:54Z</time>
      </trkpt>
      <trkpt lat="43.74941" lon="6.9002">
        <ele>1246.411</ele>
        <time>2019-05-15T05:44:14Z</time>
      </trkpt>
      <trkpt lat="43.7493" lon="6.8997">
        <ele>1243.77</ele>
        <time>2019-05-15T05:44:34Z</time>
      </trkpt>
      <trkpt lat="43.74921" lon="6.89961">
        <ele>1239.138</ele>
        <time>2019-05-15T05:44:54Z</time>
      </trkpt>
      <trkpt lat="43.74907" lon="6.89991">
        <ele>1231.948</ele>
        <time>2019-05-15T05:45:14Z</time>
      </trkpt>
      <trkpt lat="43.74892" lon="6.90015">
        <ele>1223.861</ele>
        <time>2019-05-15T05:45:34Z</time>
      </trkpt>
      <trkpt lat="43.74892" lon="6.90036">
        <ele>1220.817</ele>
        <time>2019-05-15T05:45:54Z</time>
      </trkpt>
      <trkpt lat="43.74872" lon="6.90063">
        <ele>1213.408</ele>
        <time>2019-05-15T05:46:14Z</time>
      </trkpt>
      <trkpt lat="43.74822" lon="6.90061">
        <ele>1210.547</ele>
        <time>2019-05-15T05:46:34Z</time>
      </trkpt>
      <trkpt lat="43.74838" lon="6.90079">
        <ele>1208.81</ele>
        <time>2019-05-15T05:46:54Z</time>
      </trkpt>
      <trkpt lat="43.74801" lon="6.9008">
        <ele>1205.358</ele>
        <time>2019-05-15T05:47:14Z</time>
      </trkpt>
      <trkpt lat="43.74814" lon="6.90101">
        <ele>1202.558</ele>
        <time>2019-05-15T05:47:34Z</time>
      </trkpt>
      <trkpt lat="43.74797" lon="6.90108">
        <ele>1198.158</ele>
        <time>2019-05-15T05:47:54Z</time>
      </trkpt>
      <trkpt lat="43.74783" lon="6.90084">
        <ele>1199.582</ele>
        <time>2019-05-15T05:48:14Z</time>
      </trkpt>
      <trkpt lat="43.74755" lon="6.90045">
        <ele>1195.731</ele>
        <time>2019-05-15T05:48:34Z</time>
      </trkpt>
      <trkpt lat="43.7474" lon="6.9004">
        <ele>1191.469</ele>
        <time>2019-05-15T05:48:54Z</time>
      </trkpt>
      <trkpt lat="43.74737" lon="6.90028">
        <ele>1192.118</ele>
        <time>2019-05-15T05:49:14Z</time>
      </trkpt>
      <trkpt lat="43.74711" lon="6.9001">
        <ele>1186.598</ele>
        <time>2019-05-15T05:49:34Z</time>
      </trkpt>
      <trkpt lat="43.74705" lon="6.89969">
        <ele>1185.517</ele>
        <time>2019-05-15T05:49:54Z</time>
      </trkpt>
      <trkpt lat="43.7469" lon="6.89951">
        <ele>1183.308</ele>
        <time>2019-05-15T05:50:14Z</time>
      </trkpt>
      <trkpt lat="43.74678" lon="6.89885">
        <ele>1181.634</ele>
        <time>2019-05-15T05:50:34Z</time>
      </trkpt>
      <trkpt lat="43.74681" lon="6.89856">
        <ele>1181.887</ele>
        <time>2019-05-15T05:50:54Z</time>
      </trkpt>
      <trkpt lat="43.74674" lon="6.89825">
        <ele>1182.835</ele>
        <time>2019-05-15T05:51:14Z</time>
      </trkpt>
      <trkpt lat="43.74657" lon="6.8981">
        <ele>1182.415</ele>
        <time>2019-05-15T05:51:34Z</time>
      </trkpt>
      <trkpt lat="43.74633" lon="6.89777">
        <ele>1183.975</ele>
        <time>2019-05-15T05:51:54Z</time>
      </trkpt>
      <trkpt lat="43.74592" lon="6.89688">
        <ele>1192.359</ele>
        <time>2019-05-15T05:52:14Z</time>
      </trkpt>
      <trkpt lat="43.74512" lon="6.89626">
        <ele>1183.858</ele>
        <time>2019-05-15T05:52:34Z</time>
      </trkpt>
      <trkpt lat="43.74494" lon="6.89547">
        <ele>1183.066</ele>
        <time>2019-05-15T05:52:54Z</time>
      </trkpt>
      <trkpt lat="43.7448" lon="6.89527">
        <ele>1177.628</ele>
        <time>2019-05-15T05:53:14Z</time>
      </trkpt>
      <trkpt lat="43.7445" lon="6.8964">
        <ele>1157.089</ele>
        <time>2019-05-15T05:53:34Z</time>
      </trkpt>
      <trkpt lat="43.74431" lon="6.8969">
        <ele>1147.317</ele>
        <time>2019-05-15T05:53:54Z</time>
      </trkpt>
      <trkpt lat="43.74426" lon="6.8973">
        <ele>1143.108</ele>
        <time>2019-05-15T05:54:14Z</time>
      </trkpt>
      <trkpt lat="43.744" lon="6.89755">
        <ele>1133.215</ele>
        <time>2019-05-15T05:54:34Z</time>
      </trkpt>
      <trkpt lat="43.7439" lon="6.89778">
        <ele>1128.548</ele>
        <time>2019-05-15T05:54:54Z</time>
      </trkpt>
      <trkpt lat="43.74345" lon="6.89855">
        <ele>1117.856</ele>
        <time>2019-05-15T05:55:14Z</time>
      </trkpt>
      <trkpt lat="43.74315" lon="6.89914">
        <ele>1110.516</ele>
        <time>2019-05-15T05:55:34Z</time>
      </trkpt>
      <trkpt lat="43.74285" lon="6.89943">
        <ele>1105.626</ele>
        <time>2019-05-15T05:55:54Z</time>
      </trkpt>
      <trkpt lat="43.74158" lon="6.89997">
        <ele>1098.79</ele>
        <time>2019-05-15T05:56:14Z</time>
      </trkpt>
      <trkpt lat="43.74122" lon="6.89894">
        <ele>1101.269</ele>
        <time>2019-05-15T05:56:34Z</time>
      </trkpt>
      <trkpt lat="43.74127" lon="6.89664">
        <ele>1109.027</ele>
        <time>2019-05-15T05:56:54Z</time>
      </trkpt>
      <trkpt lat="43.74084" lon="6.8945">
        <ele>1111.074</ele>
        <time>2019-05-15T05:57:14Z</time>
      </trkpt>
      <trkpt lat="43.74084" lon="6.89356">
        <ele>1115.156</ele>
        <time>2019-05-15T05:57:34Z</time>
      </trkpt>
      <trkpt lat="43.74048" lon="6.89464">
        <ele>1116.921</ele>
        <time>2019-05-15T05:57:54Z</time>
      </trkpt>
      <trkpt lat="43.74063" lon="6.89512">
        <ele>1114.908</ele>
        <time>2019-05-15T05:58:14Z</time>
      </trkpt>
      <trkpt lat="43.74054" lon="6.8954">
        <ele>1117.63</ele>
        <time>2019-05-15T05:58:34Z</time>
      </trkpt>
      <trkpt lat="43.74034" lon="6.89547">
        <ele>1119.543</ele>
        <time>2019-05-15T05:58:54Z</time>
      </trkpt>
      <trkpt lat="43.73991" lon="6.89535">
        <ele>1122.621</ele>
        <time>2019-05-15T05:59:14Z</time>
      </trkpt>
      <trkpt lat="43.73963" lon="6.8954">
        <ele>1124.721</ele>
        <time>2019-05-15T05:59:34Z</time>
      </trkpt>
      <trkpt lat="43.73954" lon="6.89494">
        <ele>1125.561</ele>
        <time>2019-05-15T05:59:54Z</time>
      </trkpt>
      <trkpt lat="43.73927" lon="6.8945">
        <ele>1128.555</ele>
        <time>2019-05-15T06:00:14Z</time>
      </trkpt>
      <trkpt lat="43.73919" lon="6.89418">
        <ele>1129.864</ele>
        <time>2019-05-15T06:00:34Z</time>
      </trkpt>
      <trkpt lat="43.73893" lon="6.89408">
        <ele>1130.092</ele>
        <time>2019-05-15T06:00:54Z</time>
      </trkpt>
      <trkpt lat="43.7388" lon="6.89358">
        <ele>1130.079</ele>
        <time>2019-05-15T06:01:14Z</time>
      </trkpt>
      <trkpt lat="43.73857" lon="6.89343">
        <ele>1130.005</ele>
        <time>2019-05-15T06:01:34Z</time>
      </trkpt>
      <trkpt lat="43.73846" lon="6.89314">
        <ele>1130.025</ele>
        <time>2019-05-15T06:01:54Z</time>
      </trkpt>
      <trkpt lat="43.73806" lon="6.89304">
        <ele>1130.008</ele>
        <time>2019-05-15T06:02:14Z</time>
      </trkpt>
      <trkpt lat="43.73791" lon="6.8927">
        <ele>1130.06</ele>
        <time>2019-05-15T06:02:34Z</time>
      </trkpt>
      <trkpt lat="43.73737" lon="6.89234">
        <ele>1130.093</ele>
        <time>2019-05-15T06:02:54Z</time>
      </trkpt>
      <trkpt lat="43.73717" lon="6.89249">
        <ele>1130.091</ele>
        <time>2019-05-15T06:03:14Z</time>
      </trkpt>
      <trkpt lat="43.73687" lon="6.89195">
        <ele>1130.091</ele>
        <time>2019-05-15T06:03:34Z</time>
      </trkpt>
      <trkpt lat="43.73663" lon="6.8919">
        <ele>1130.091</ele>
        <time>2019-05-15T06:03:54Z</time>
      </trkpt>
      <trkpt lat="43.73618" lon="6.89169">
        <ele>1130.075</ele>
        <time>2019-05-15T06:04:14Z</time>
      </trkpt>
      <trkpt lat="43.73592" lon="6.89172">
        <ele>1130.054</ele>
        <time>2019-05-15T06:04:34Z</time>
      </trkpt>
      <trkpt lat="43.7358" lon="6.89151">
        <ele>1130.092</ele>
        <time>2019-05-15T06:04:54Z</time>
      </trkpt>
      <trkpt lat="43.73544" lon="6.89138">
        <ele>1130.031</ele>
        <time>2019-05-15T06:05:14Z</time>
      </trkpt>
      <trkpt lat="43.73519" lon="6.89111">
        <ele>1130.061</ele>
        <time>2019-05-15T06:05:34Z</time>
      </trkpt>
      <trkpt lat="43.73497" lon="6.89104">
        <ele>1130.007</ele>
        <time>2019-05-15T06:05:54Z</time>
      </trkpt>
      <trkpt lat="43.73466" lon="6.89067">
        <ele>1130.008</ele>
        <time>2019-05-15T06:06:14Z</time>
      </trkpt>
      <trkpt lat="43.73442" lon="6.89065">
        <ele>1130.076</ele>
        <time>2019-05-15T06:06:34Z</time>
      </trkpt>
      <trkpt lat="43.73336" lon="6.89013">
        <ele>1130.029</ele>
        <time>2019-05-15T06:06:54Z</time>
      </trkpt>
      <trkpt lat="43.73298" lon="6.89008">
        <ele>1130.077</ele>
        <time>2019-05-15T06:07:14Z</time>
      </trkpt>
      <trkpt lat="43.73256" lon="6.88979">
        <ele>1130.097</ele>
        <time>2019-05-15T06:07:34Z</time>
      </trkpt>
      <trkpt lat="43.7323" lon="6.88948">
        <ele>1129.997</ele>
        <time>2019-05-15T06:07:54Z</time>
      </trkpt>
      <trkpt lat="43.73197" lon="6.88964">
        <ele>1123.631</ele>
        <time>2019-05-15T06:08:14Z</time>
      </trkpt>
      <trkpt lat="43.73146" lon="6.88966">
        <ele>1121.43</ele>
        <time>2019-05-15T06:08:34Z</time>
      </trkpt>
      <trkpt lat="43.73113" lon="6.88951">
        <ele>1121.458</ele>
        <time>2019-05-15T06:08:54Z</time>
      </trkpt>
      <trkpt lat="43.73075" lon="6.88906">
        <ele>1127.937</ele>
        <time>2019-05-15T06:09:14Z</time>
      </trkpt>
      <trkpt lat="43.73005" lon="6.88891">
        <ele>1130.049</ele>
        <time>2019-05-15T06:09:34Z</time>
      </trkpt>
      <trkpt lat="43.72945" lon="6.88898">
        <ele>1130.013</ele>
        <time>2019-05-15T06:09:54Z</time>
      </trkpt>
      <trkpt lat="43.72879" lon="6.88881">
        <ele>1131.008</ele>
        <time>2019-05-15T06:10:14Z</time>
      </trkpt>
      <trkpt lat="43.72861" lon="6.88889">
        <ele>1132.076</ele>
        <time>2019-05-15T06:10:34Z</time>
      </trkpt>
      <trkpt lat="43.72825" lon="6.88881">
        <ele>1137.219</ele>
        <time>2019-05-15T06:10:54Z</time>
      </trkpt>
      <trkpt lat="43.72783" lon="6.88901">
        <ele>1136.747</ele>
        <time>2019-05-15T06:11:14Z</time>
      </trkpt>
      <trkpt lat="43.72741" lon="6.88898">
        <ele>1134.577</ele>
        <time>2019-05-15T06:11:34Z</time>
      </trkpt>
      <trkpt lat="43.72698" lon="6.8889">
        <ele>1135.887</ele>
        <time>2019-05-15T06:11:54Z</time>
      </trkpt>
      <trkpt lat="43.72651" lon="6.8892">
        <ele>1130.621</ele>
        <time>2019-05-15T06:12:14Z</time>
      </trkpt>
      <trkpt lat="43.7262" lon="6.88927">
        <ele>1129.83</ele>
        <time>2019-05-15T06:12:34Z</time>
      </trkpt>
      <trkpt lat="43.72537" lon="6.89005">
        <ele>1123.688</ele>
        <time>2019-05-15T06:12:54Z</time>
      </trkpt>
      <trkpt lat="43.72501" lon="6.89021">
        <ele>1120.056</ele>
        <time>2019-05-15T06:13:14Z</time>
      </trkpt>
      <trkpt lat="43.72421" lon="6.89037">
        <ele>1114.359</ele>
        <time>2019-05-15T06:13:34Z</time>
      </trkpt>
      <trkpt lat="43.72392" lon="6.89021">
        <ele>1111.914</ele>
        <time>2019-05-15T06:13:54Z</time>
      </trkpt>
      <trkpt lat="43.72321" lon="6.89016">
        <ele>1110.008</ele>
        <time>2019-05-15T06:14:14Z</time>
      </trkpt>
      <trkpt lat="43.72251" lon="6.89028">
        <ele>1110.068</ele>
        <time>2019-05-15T06:14:34Z</time>
      </trkpt>
      <trkpt lat="43.72132" lon="6.8908">
        <ele>1114.891</ele>
        <time>2019-05-15T06:14:54Z</time>
      </trkpt>
      <trkpt lat="43.7211" lon="6.89065">
        <ele>1117.049</ele>
        <time>2019-05-15T06:15:14Z</time>
      </trkpt>
      <trkpt lat="43.72089" lon="6.89068">
        <ele>1118.219</ele>
        <time>2019-05-15T06:15:34Z</time>
      </trkpt>
      <trkpt lat="43.72086" lon="6.89094">
        <ele>1117.599</ele>
        <time>2019-05-15T06:15:54Z</time>
      </trkpt>
      <trkpt lat="43.72059" lon="6.89135">
        <ele>1118.053</ele>
        <time>2019-05-15T06:16:14Z</time>
      </trkpt>
      <trkpt lat="43.72012" lon="6.89153">
        <ele>1123.482</ele>
        <time>2019-05-15T06:16:34Z</time>
      </trkpt>
      <trkpt lat="43.71987" lon="6.89195">
        <ele>1127.84</ele>
        <time>2019-05-15T06:16:54Z</time>
      </trkpt>
      <trkpt lat="43.71978" lon="6.89241">
        <ele>1130.174</ele>
        <time>2019-05-15T06:17:14Z</time>
      </trkpt>
      <trkpt lat="43.71953" lon="6.89267">
        <ele>1137.356</ele>
        <time>2019-05-15T06:17:34Z</time>
      </trkpt>
      <trkpt lat="43.71926" lon="6.89314">
        <ele>1142.121</ele>
        <time>2019-05-15T06:17:54Z</time>
      </trkpt>
      <trkpt lat="43.71876" lon="6.89311">
        <ele>1149.508</ele>
        <time>2019-05-15T06:18:14Z</time>
      </trkpt>
      <trkpt lat="43.71842" lon="6.89293">
        <ele>1154.48</ele>
        <time>2019-05-15T06:18:34Z</time>
      </trkpt>
      <trkpt lat="43.7182" lon="6.89311">
        <ele>1153.153</ele>
        <time>2019-05-15T06:18:54Z</time>
      </trkpt>
      <trkpt lat="43.71797" lon="6.89314">
        <ele>1157.261</ele>
        <time>2019-05-15T06:19:14Z</time>
      </trkpt>
      <trkpt lat="43.71788" lon="6.89361">
        <ele>1156.061</ele>
        <time>2019-05-15T06:19:34Z</time>
      </trkpt>
      <trkpt lat="43.7177" lon="6.8946">
        <ele>1157.111</ele>
        <time>2019-05-15T06:19:54Z</time>
      </trkpt>
      <trkpt lat="43.71718" lon="6.89555">
        <ele>1165.935</ele>
        <time>2019-05-15T06:20:14Z</time>
      </trkpt>
      <trkpt lat="43.7166" lon="6.89631">
        <ele>1180.434</ele>
        <time>2019-05-15T06:20:34Z</time>
      </trkpt>
      <trkpt lat="43.71611" lon="6.89764">
        <ele>1192.142</ele>
        <time>2019-05-15T06:20:54Z</time>
      </trkpt>
      <trkpt lat="43.71593" lon="6.8979">
        <ele>1197.613</ele>
        <time>2019-05-15T06:21:14Z</time>
      </trkpt>
      <trkpt lat="43.71556" lon="6.8992">
        <ele>1212.943</ele>
        <time>2019-05-15T06:21:34Z</time>
      </trkpt>
      <trkpt lat="43.7149" lon="6.90029">
        <ele>1229.407</ele>
        <time>2019-05-15T06:21:54Z</time>
      </trkpt>
      <trkpt lat="43.71478" lon="6.90028">
        <ele>1233.308</ele>
        <time>2019-05-15T06:22:14Z</time>
      </trkpt>
      <trkpt lat="43.71474" lon="6.90024">
        <ele>1234.394</ele>
        <time>2019-05-15T06:22:34Z</time>
      </trkpt>
      <trkpt lat="43.71464" lon="6.9001">
        <ele>1235.677</ele>
        <time>2019-05-15T06:22:54Z</time>
      </trkpt>
      <trkpt lat="43.71418" lon="6.89973">
        <ele>1245.755</ele>
        <time>2019-05-15T06:23:14Z</time>
      </trkpt>
      <trkpt lat="43.71396" lon="6.89977">
        <ele>1249.215</ele>
        <time>2019-05-15T06:23:34Z</time>
      </trkpt>
      <trkpt lat="43.7137" lon="6.89939">
        <ele>1251.735</ele>
        <time>2019-05-15T06:23:54Z</time>
      </trkpt>
      <trkpt lat="43.7136" lon="6.8993">
        <ele>1253.179</ele>
        <time>2019-05-15T06:24:14Z</time>
      </trkpt>
      <trkpt lat="43.71324" lon="6.8994">
        <ele>1255.338</ele>
        <time>2019-05-15T06:24:34Z</time>
      </trkpt>
      <trkpt lat="43.71292" lon="6.8993">
        <ele>1253.016</ele>
        <time>2019-05-15T06:24:54Z</time>
      </trkpt>
      <trkpt lat="43.7127" lon="6.89916">
        <ele>1250.165</ele>
        <time>2019-05-15T06:25:14Z</time>
      </trkpt>
      <trkpt lat="43.71175" lon="6.89909">
        <ele>1235.168</ele>
        <time>2019-05-15T06:25:34Z</time>
      </trkpt>
      <trkpt lat="43.71127" lon="6.89965">
        <ele>1228.114</ele>
        <time>2019-05-15T06:25:54Z</time>
      </trkpt>
      <trkpt lat="43.71131" lon="6.89929">
        <ele>1223.008</ele>
        <time>2019-05-15T06:26:14Z</time>
      </trkpt>
      <trkpt lat="43.71145" lon="6.89897">
        <ele>1222.449</ele>
        <time>2019-05-15T06:26:34Z</time>
      </trkpt>
      <trkpt lat="43.71087" lon="6.89939">
        <ele>1205.212</ele>
        <time>2019-05-15T06:26:54Z</time>
      </trkpt>
      <trkpt lat="43.7106" lon="6.89999">
        <ele>1199.02</ele>
        <time>2019-05-15T06:27:14Z</time>
      </trkpt>
      <trkpt lat="43.71012" lon="6.90034">
        <ele>1194.43</ele>
        <time>2019-05-15T06:27:34Z</time>
      </trkpt>
      <trkpt lat="43.70989" lon="6.90077">
        <ele>1190.64</ele>
        <time>2019-05-15T06:27:54Z</time>
      </trkpt>
      <trkpt lat="43.71" lon="6.90109">
        <ele>1191.994</ele>
        <time>2019-05-15T06:28:14Z</time>
      </trkpt>
      <trkpt lat="43.70994" lon="6.90131">
        <ele>1190.893</ele>
        <time>2019-05-15T06:28:34Z</time>
      </trkpt>
      <trkpt lat="43.70962" lon="6.9017">
        <ele>1182.821</ele>
        <time>2019-05-15T06:28:54Z</time>
      </trkpt>
      <trkpt lat="43.70914" lon="6.90216">
        <ele>1174.484</ele>
        <time>2019-05-15T06:29:14Z</time>
      </trkpt>
      <trkpt lat="43.70853" lon="6.90278">
        <ele>1165.807</ele>
        <time>2019-05-15T06:29:34Z</time>
      </trkpt>
      <trkpt lat="43.70784" lon="6.90341">
        <ele>1155.317</ele>
        <time>2019-05-15T06:29:54Z</time>
      </trkpt>
      <trkpt lat="43.70728" lon="6.90406">
        <ele>1144.508</ele>
        <time>2019-05-15T06:30:14Z</time>
      </trkpt>
      <trkpt lat="43.70727" lon="6.90383">
        <ele>1139.011</ele>
        <time>2019-05-15T06:30:34Z</time>
      </trkpt>
      <trkpt lat="43.70751" lon="6.90322">
        <ele>1132.224</ele>
        <time>2019-05-15T06:30:54Z</time>
      </trkpt>
      <trkpt lat="43.70719" lon="6.90339">
        <ele>1124.392</ele>
        <time>2019-05-15T06:31:14Z</time>
      </trkpt>
      <trkpt lat="43.70707" lon="6.90336">
        <ele>1119.552</ele>
        <time>2019-05-15T06:31:34Z</time>
      </trkpt>
      <trkpt lat="43.70669" lon="6.90371">
        <ele>1110.862</ele>
        <time>2019-05-15T06:31:54Z</time>
      </trkpt>
      <trkpt lat="43.7065" lon="6.90393">
        <ele>1107.776</ele>
        <time>2019-05-15T06:32:14Z</time>
      </trkpt>
      <trkpt lat="43.70564" lon="6.90467">
        <ele>1098.715</ele>
        <time>2019-05-15T06:32:34Z</time>
      </trkpt>
      <trkpt lat="43.70536" lon="6.90486">
        <ele>1095.163</ele>
        <time>2019-05-15T06:32:54Z</time>
      </trkpt>
      <trkpt lat="43.70446" lon="6.90488">
        <ele>1089.192</ele>
        <time>2019-05-15T06:33:14Z</time>
      </trkpt>
      <trkpt lat="43.70415" lon="6.90505">
        <ele>1087.973</ele>
        <time>2019-05-15T06:33:34Z</time>
      </trkpt>
      <trkpt lat="43.70367" lon="6.90487">
        <ele>1086.22</ele>
        <time>2019-05-15T06:33:54Z</time>
      </trkpt>
      <trkpt lat="43.70334" lon="6.90486">
        <ele>1084.108</ele>
        <time>2019-05-15T06:34:14Z</time>
      </trkpt>
      <trkpt lat="43.70302" lon="6.90493">
        <ele>1082.042</ele>
        <time>2019-05-15T06:34:34Z</time>
      </trkpt>
      <trkpt lat="43.70255" lon="6.90511">
        <ele>1079.235</ele>
        <time>2019-05-15T06:34:54Z</time>
      </trkpt>
      <trkpt lat="43.70237" lon="6.90511">
        <ele>1078.543</ele>
        <time>2019-05-15T06:35:14Z</time>
      </trkpt>
      <trkpt lat="43.70155" lon="6.90537">
        <ele>1075.293</ele>
        <time>2019-05-15T06:35:34Z</time>
      </trkpt>
      <trkpt lat="43.70131" lon="6.90551">
        <ele>1073.933</ele>
        <time>2019-05-15T06:35:54Z</time>
      </trkpt>
      <trkpt lat="43.70024" lon="6.90559">
        <ele>1070.847</ele>
        <time>2019-05-15T06:36:14Z</time>
      </trkpt>
      <trkpt lat="43.69959" lon="6.90581">
        <ele>1069.026</ele>
        <time>2019-05-15T06:36:34Z</time>
      </trkpt>
      <trkpt lat="43.69896" lon="6.90701">
        <ele>1065.294</ele>
        <time>2019-05-15T06:36:54Z</time>
      </trkpt>
      <trkpt lat="43.69864" lon="6.90721">
        <ele>1063.228</ele>
        <time>2019-05-15T06:37:14Z</time>
      </trkpt>
      <trkpt lat="43.69775" lon="6.90726">
        <ele>1057.789</ele>
        <time>2019-05-15T06:37:34Z</time>
      </trkpt>
      <trkpt lat="43.69744" lon="6.90742">
        <ele>1055.517</ele>
        <time>2019-05-15T06:37:54Z</time>
      </trkpt>
      <trkpt lat="43.69712" lon="6.90786">
        <ele>1056.708</ele>
        <time>2019-05-15T06:38:14Z</time>
      </trkpt>
      <trkpt lat="43.69678" lon="6.9087">
        <ele>1060.195</ele>
        <time>2019-05-15T06:38:34Z</time>
      </trkpt>
      <trkpt lat="43.69658" lon="6.90868">
        <ele>1060.448</ele>
        <time>2019-05-15T06:38:54Z</time>
      </trkpt>
      <trkpt lat="43.69646" lon="6.90851">
        <ele>1061.456</ele>
        <time>2019-05-15T06:39:14Z</time>
      </trkpt>
      <trkpt lat="43.69619" lon="6.90879">
        <ele>1059.756</ele>
        <time>2019-05-15T06:39:34Z</time>
      </trkpt>
      <trkpt lat="43.69604" lon="6.90952">
        <ele>1056.466</ele>
        <time>2019-05-15T06:39:54Z</time>
      </trkpt>
      <trkpt lat="43.69573" lon="6.91003">
        <ele>1052.52</ele>
        <time>2019-05-15T06:40:14Z</time>
      </trkpt>
      <trkpt lat="43.69566" lon="6.91026">
        <ele>1051.569</ele>
        <time>2019-05-15T06:40:34Z</time>
      </trkpt>
      <trkpt lat="43.69526" lon="6.91035">
        <ele>1049.447</ele>
        <time>2019-05-15T06:40:54Z</time>
      </trkpt>
      <trkpt lat="43.695" lon="6.90999">
        <ele>1045.823</ele>
        <time>2019-05-15T06:41:14Z</time>
      </trkpt>
      <trkpt lat="43.69497" lon="6.91023">
        <ele>1044.083</ele>
        <time>2019-05-15T06:41:34Z</time>
      </trkpt>
      <trkpt lat="43.6947" lon="6.90982">
        <ele>1035.811</ele>
        <time>2019-05-15T06:41:54Z</time>
      </trkpt>
      <trkpt lat="43.69455" lon="6.91048">
        <ele>1027.908</ele>
        <time>2019-05-15T06:42:14Z</time>
      </trkpt>
      <trkpt lat="43.69459" lon="6.9107">
        <ele>1027.515</ele>
        <time>2019-05-15T06:42:34Z</time>
      </trkpt>
      <trkpt lat="43.6945" lon="6.91073">
        <ele>1024.548</ele>
        <time>2019-05-15T06:42:54Z</time>
      </trkpt>
      <trkpt lat="43.69431" lon="6.91056">
        <ele>1022.166</ele>
        <time>2019-05-15T06:43:14Z</time>
      </trkpt>
      <trkpt lat="43.69334" lon="6.91112">
        <ele>1004.846</ele>
        <time>2019-05-15T06:43:34Z</time>
      </trkpt>
      <trkpt lat="43.6933" lon="6.91136">
        <ele>998.646</ele>
        <time>2019-05-15T06:43:54Z</time>
      </trkpt>
      <trkpt lat="43.69287" lon="6.91164">
        <ele>996.06</ele>
        <time>2019-05-15T06:44:14Z</time>
      </trkpt>
      <trkpt lat="43.69228" lon="6.91167">
        <ele>993.099</ele>
        <time>2019-05-15T06:44:34Z</time>
      </trkpt>
      <trkpt lat="43.69216" lon="6.91219">
        <ele>988.437</ele>
        <time>2019-05-15T06:44:54Z</time>
      </trkpt>
      <trkpt lat="43.69188" lon="6.91255">
        <ele>986.836</ele>
        <time>2019-05-15T06:45:14Z</time>
      </trkpt>
      <trkpt lat="43.6916" lon="6.91304">
        <ele>980.617</ele>
        <time>2019-05-15T06:45:34Z</time>
      </trkpt>
      <trkpt lat="43.6911" lon="6.9134">
        <ele>980.118</ele>
        <time>2019-05-15T06:45:54Z</time>
      </trkpt>
      <trkpt lat="43.69101" lon="6.91384">
        <ele>975.208</ele>
        <time>2019-05-15T06:46:14Z</time>
      </trkpt>
      <trkpt lat="43.69066" lon="6.91472">
        <ele>973.236</ele>
        <time>2019-05-15T06:46:34Z</time>
      </trkpt>
      <trkpt lat="43.69062" lon="6.91591">
        <ele>969.359</ele>
        <time>2019-05-15T06:46:54Z</time>
      </trkpt>
      <trkpt lat="43.69041" lon="6.91649">
        <ele>966.147</ele>
        <time>2019-05-15T06:47:14Z</time>
      </trkpt>
      <trkpt lat="43.69" lon="6.91678">
        <ele>960.427</ele>
        <time>2019-05-15T06:47:34Z</time>
      </trkpt>
      <trkpt lat="43.6899" lon="6.91695">
        <ele>959.617</ele>
        <time>2019-05-15T06:47:54Z</time>
      </trkpt>
      <trkpt lat="43.68992" lon="6.91769">
        <ele>958.851</ele>
        <time>2019-05-15T06:48:14Z</time>
      </trkpt>
      <trkpt lat="43.68972" lon="6.91816">
        <ele>953.76</ele>
        <time>2019-05-15T06:48:34Z</time>
      </trkpt>
      <trkpt lat="43.68901" lon="6.91834">
        <ele>942.478</ele>
        <time>2019-05-15T06:48:54Z</time>
      </trkpt>
      <trkpt lat="43.68879" lon="6.91853">
        <ele>942.115</ele>
        <time>2019-05-15T06:49:14Z</time>
      </trkpt>
      <trkpt lat="43.68869" lon="6.91899">
        <ele>938.965</ele>
        <time>2019-05-15T06:49:34Z</time>
      </trkpt>
      <trkpt lat="43.68851" lon="6.91954">
        <ele>936.011</ele>
        <time>2019-05-15T06:49:54Z</time>
      </trkpt>
      <trkpt lat="43.68809" lon="6.92016">
        <ele>932.808</ele>
        <time>2019-05-15T06:50:14Z</time>
      </trkpt>
      <trkpt lat="43.68793" lon="6.9207">
        <ele>929.394</ele>
        <time>2019-05-15T06:50:34Z</time>
      </trkpt>
      <trkpt lat="43.68755" lon="6.92134">
        <ele>924.757</ele>
        <time>2019-05-15T06:50:54Z</time>
      </trkpt>
      <trkpt lat="43.68706" lon="6.9226">
        <ele>918.965</ele>
        <time>2019-05-15T06:51:14Z</time>
      </trkpt>
      <trkpt lat="43.68649" lon="6.92388">
        <ele>914.785</ele>
        <time>2019-05-15T06:51:34Z</time>
      </trkpt>
      <trkpt lat="43.68624" lon="6.92393">
        <ele>915.045</ele>
        <time>2019-05-15T06:51:54Z</time>
      </trkpt>
      <trkpt lat="43.68565" lon="6.92371">
        <ele>913.949</ele>
        <time>2019-05-15T06:52:14Z</time>
      </trkpt>
      <trkpt lat="43.68344" lon="6.92361">
        <ele>897.118</ele>
        <time>2019-05-15T06:52:34Z</time>
      </trkpt>
      <trkpt lat="43.68283" lon="6.92313">
        <ele>886.096</ele>
        <time>2019-05-15T06:52:54Z</time>
      </trkpt>
      <trkpt lat="43.68245" lon="6.92295">
        <ele>879.121</ele>
        <time>2019-05-15T06:53:14Z</time>
      </trkpt>
      <trkpt lat="43.68208" lon="6.92322">
        <ele>876.841</ele>
        <time>2019-05-15T06:53:34Z</time>
      </trkpt>
      <trkpt lat="43.68162" lon="6.9232">
        <ele>870.205</ele>
        <time>2019-05-15T06:53:54Z</time>
      </trkpt>
      <trkpt lat="43.68135" lon="6.92342">
        <ele>868.308</ele>
        <time>2019-05-15T06:54:14Z</time>
      </trkpt>
      <trkpt lat="43.68071" lon="6.92414">
        <ele>859.745</ele>
        <time>2019-05-15T06:54:34Z</time>
      </trkpt>
      <trkpt lat="43.68046" lon="6.92493">
        <ele>857.538</ele>
        <time>2019-05-15T06:54:54Z</time>
      </trkpt>
      <trkpt lat="43.6804" lon="6.92482">
        <ele>853.796</ele>
        <time>2019-05-15T06:55:14Z</time>
      </trkpt>
      <trkpt lat="43.68043" lon="6.92379">
        <ele>844.776</ele>
        <time>2019-05-15T06:55:34Z</time>
      </trkpt>
      <trkpt lat="43.68041" lon="6.92347">
        <ele>840.056</ele>
        <time>2019-05-15T06:55:54Z</time>
      </trkpt>
      <trkpt lat="43.68052" lon="6.92319">
        <ele>841.21</ele>
        <time>2019-05-15T06:56:14Z</time>
      </trkpt>
      <trkpt lat="43.68048" lon="6.92309">
        <ele>839.989</ele>
        <time>2019-05-15T06:56:34Z</time>
      </trkpt>
      <trkpt lat="43.68019" lon="6.9232">
        <ele>835.987</ele>
        <time>2019-05-15T06:56:54Z</time>
      </trkpt>
      <trkpt lat="43.67998" lon="6.92344">
        <ele>828.063</ele>
        <time>2019-05-15T06:57:14Z</time>
      </trkpt>
      <trkpt lat="43.67954" lon="6.92416">
        <ele>816.144</ele>
        <time>2019-05-15T06:57:34Z</time>
      </trkpt>
      <trkpt lat="43.67925" lon="6.9245">
        <ele>810.518</ele>
        <time>2019-05-15T06:57:54Z</time>
      </trkpt>
      <trkpt lat="43.67891" lon="6.92469">
        <ele>808.208</ele>
        <time>2019-05-15T06:58:14Z</time>
      </trkpt>
      <trkpt lat="43.6766" lon="6.92591">
        <ele>775.489</ele>
        <time>2019-05-15T06:58:34Z</time>
      </trkpt>
      <trkpt lat="43.67548" lon="6.92682">
        <ele>752.122</ele>
        <time>2019-05-15T06:58:54Z</time>
      </trkpt>
      <trkpt lat="43.67517" lon="6.92693">
        <ele>747.04</ele>
        <time>2019-05-15T06:59:14Z</time>
      </trkpt>
      <trkpt lat="43.67505" lon="6.92689">
        <ele>745.28</ele>
        <time>2019-05-15T06:59:34Z</time>
      </trkpt>
      <trkpt lat="43.67478" lon="6.92698">
        <ele>737.43</ele>
        <time>2019-05-15T06:59:54Z</time>
      </trkpt>
      <trkpt lat="43.67428" lon="6.92689">
        <ele>728.594</ele>
        <time>2019-05-15T07:00:14Z</time>
      </trkpt>
      <trkpt lat="43.67377" lon="6.92671">
        <ele>716.993</ele>
        <time>2019-05-15T07:00:34Z</time>
      </trkpt>
      <trkpt lat="43.67365" lon="6.92671">
        <ele>712.961</ele>
        <time>2019-05-15T07:00:54Z</time>
      </trkpt>
      <trkpt lat="43.67353" lon="6.92662">
        <ele>709.438</ele>
        <time>2019-05-15T07:01:14Z</time>
      </trkpt>
      <trkpt lat="43.67322" lon="6.92659">
        <ele>699.67</ele>
        <time>2019-05-15T07:01:34Z</time>
      </trkpt>
      <trkpt lat="43.67299" lon="6.92613">
        <ele>695.317</ele>
        <time>2019-05-15T07:01:54Z</time>
      </trkpt>
      <trkpt lat="43.67274" lon="6.92576">
        <ele>687.208</ele>
        <time>2019-05-15T07:02:14Z</time>
      </trkpt>
      <trkpt lat="43.6724" lon="6.92493">
        <ele>677.086</ele>
        <time>2019-05-15T07:02:34Z</time>
      </trkpt>
      <trkpt lat="43.6722" lon="6.92458">
        <ele>667.729</ele>
        <time>2019-05-15T07:02:54Z</time>
      </trkpt>
      <trkpt lat="43.67206" lon="6.92394">
        <ele>658.657</ele>
        <time>2019-05-15T07:03:14Z</time>
      </trkpt>
      <trkpt lat="43.67191" lon="6.92352">
        <ele>654.317</ele>
        <time>2019-05-15T07:03:34Z</time>
      </trkpt>
      <trkpt lat="43.67153" lon="6.92284">
        <ele>643.357</ele>
        <time>2019-05-15T07:03:54Z</time>
      </trkpt>
      <trkpt lat="43.67115" lon="6.92236">
        <ele>633.071</ele>
        <time>2019-05-15T07:04:14Z</time>
      </trkpt>
      <trkpt lat="43.67035" lon="6.92222">
        <ele>616.54</ele>
        <time>2019-05-15T07:04:34Z</time>
      </trkpt>
      <trkpt lat="43.66999" lon="6.9221">
        <ele>611.088</ele>
        <time>2019-05-15T07:04:54Z</time>
      </trkpt>
      <trkpt lat="43.66969" lon="6.92193">
        <ele>605.331</ele>
        <time>2019-05-15T07:05:14Z</time>
      </trkpt>
      <trkpt lat="43.66909" lon="6.92137">
        <ele>595.661</ele>
        <time>2019-05-15T07:05:34Z</time>
      </trkpt>
      <trkpt lat="43.6688" lon="6.92101">
        <ele>590.407</ele>
        <time>2019-05-15T07:05:54Z</time>
      </trkpt>
      <trkpt lat="43.66833" lon="6.92076">
        <ele>578.408</ele>
        <time>2019-05-15T07:06:14Z</time>
      </trkpt>
      <trkpt lat="43.66812" lon="6.92072">
        <ele>573.426</ele>
        <time>2019-05-15T07:06:34Z</time>
      </trkpt>
    </trkseg>
  </trk>
</gpx>